PWSweather.com
Personal Weather Stations
Station Observations
HVALPSUND
Hvalpsund, FarsoeDK 9640

HvalpsundFarsoeDK 9640

Lat: 56.705311, Lon: 9.203638

Elevation: 5

Station Type: Vantage Pro2

http://hvalpsundvejr.dk

High Low Average
Temperature 56.8°F13.8°C 39.9°F4.4°C 47.1°F8.4°C
Dew Point 42.3°F5.7°C 30.7°F-0.7°C 36.4°F2.4°C
Winds 15.7 mph 25.3 kmh Calm Calm 8.0 mph SE12.9 kmh SE
Wind Gusts 22.0 mph35.4 kmh -- 11.0 mph17.7 kmh
Humidity 76% 47% 67%
Pressure 30.09 in1019.0 mb 29.83 in1010.2 mb -
Precipitation 0.00 in0.0 mm - -
Hour Temp Dew Point Humidity Winds Wind Gusts Pressure Precip Precip Rate Daily Precip Total
12:00 AM 41.6°F5.3°C 30.7°F-0.7°C 65% 9.4 mph SE15.1 kmh SE 14.0 mph22.5 kmh 30.09 in1019.0 mb 0.00 in0.0 mm 0.00 in0.0 mm 0.00 in0.0 mm
12:01 AM 41.6°F5.3°C 30.7°F-0.7°C 65% 8.0 mph SE12.9 kmh SE 12.0 mph19.3 kmh 30.08 in1018.6 mb 0.00 in0.0 mm 0.00 in0.0 mm 0.00 in0.0 mm
12:02 AM 41.6°F5.3°C 30.7°F-0.7°C 65% 7.0 mph SE11.3 kmh SE 9.0 mph14.5 kmh 30.08 in1018.6 mb 0.00 in0.0 mm 0.00 in0.0 mm 0.00 in0.0 mm
12:03 AM 41.5°F5.3°C 31.0°F-0.6°C 66% 8.8 mph SE14.2 kmh SE 11.0 mph17.7 kmh 30.08 in1018.6 mb 0.00 in0.0 mm 0.00 in0.0 mm 0.00 in0.0 mm
12:04 AM 41.5°F5.3°C 31.0°F-0.6°C 66% 7.7 mph SE12.4 kmh SE 12.0 mph19.3 kmh 30.08 in1018.6 mb 0.00 in0.0 mm 0.00 in0.0 mm 0.00 in0.0 mm
12:05 AM 41.5°F5.3°C 31.0°F-0.6°C 66% 7.6 mph SE12.2 kmh SE 12.0 mph19.3 kmh 30.08 in1018.6 mb 0.00 in0.0 mm 0.00 in0.0 mm 0.00 in0.0 mm
12:06 AM 41.5°F5.3°C 31.0°F-0.6°C 66% 7.8 mph SE12.6 kmh SE 11.0 mph17.7 kmh 30.08 in1018.6 mb 0.00 in0.0 mm 0.00 in0.0 mm 0.00 in0.0 mm
12:07 AM 41.4°F5.2°C 30.9°F-0.6°C 66% 8.3 mph SE13.4 kmh SE 11.0 mph17.7 kmh 30.08 in1018.6 mb 0.00 in0.0 mm 0.00 in0.0 mm 0.00 in0.0 mm
12:08 AM 41.4°F5.2°C 31.3°F-0.4°C 67% 8.1 mph SE13.0 kmh SE 11.0 mph17.7 kmh 30.08 in1018.6 mb 0.00 in0.0 mm 0.00 in0.0 mm 0.00 in0.0 mm
12:09 AM 41.3°F5.2°C 31.2°F-0.4°C 67% 7.4 mph SE11.9 kmh SE 11.0 mph17.7 kmh 30.08 in1018.6 mb 0.00 in0.0 mm 0.00 in0.0 mm 0.00 in0.0 mm
12:10 AM 41.4°F5.2°C 31.3°F-0.4°C 67% 6.9 mph SE11.1 kmh SE 11.0 mph17.7 kmh 30.08 in1018.6 mb 0.00 in0.0 mm 0.00 in0.0 mm 0.00 in0.0 mm
12:11 AM 41.3°F5.2°C 31.2°F-0.4°C 67% 9.5 mph SE15.3 kmh SE 12.0 mph19.3 kmh 30.08 in1018.6 mb 0.00 in0.0 mm 0.00 in0.0 mm 0.00 in0.0 mm
12:12 AM 41.3°F5.2°C 31.5°F-0.3°C 68% 8.0 mph SE12.9 kmh SE 13.0 mph20.9 kmh 30.08 in1018.6 mb 0.00 in0.0 mm 0.00 in0.0 mm 0.00 in0.0 mm
12:13 AM 41.3°F5.2°C 31.5°F-0.3°C 68% 8.6 mph SE13.8 kmh SE 13.0 mph20.9 kmh 30.08 in1018.6 mb 0.00 in0.0 mm 0.00 in0.0 mm 0.00 in0.0 mm
12:14 AM 41.3°F5.2°C 31.5°F-0.3°C 68% 8.4 mph SE13.5 kmh SE 10.0 mph16.1 kmh 30.08 in1018.6 mb 0.00 in0.0 mm 0.00 in0.0 mm 0.00 in0.0 mm
12:15 AM 41.2°F5.1°C 31.5°F-0.3°C 68% 6.9 mph SE11.1 kmh SE 10.0 mph16.1 kmh 30.08 in1018.6 mb 0.00 in0.0 mm 0.00 in0.0 mm 0.00 in0.0 mm
12:16 AM 41.2°F5.1°C 31.5°F-0.3°C 68% 7.1 mph SE11.4 kmh SE 10.0 mph16.1 kmh 30.08 in1018.6 mb 0.00 in0.0 mm 0.00 in0.0 mm 0.00 in0.0 mm
12:17 AM 41.2°F5.1°C 31.5°F-0.3°C 68% 6.6 mph SE10.6 kmh SE 10.0 mph16.1 kmh 30.08 in1018.6 mb 0.00 in0.0 mm 0.00 in0.0 mm 0.00 in0.0 mm
12:18 AM 41.2°F5.1°C 31.5°F-0.3°C 68% 7.3 mph SE11.7 kmh SE 10.0 mph16.1 kmh 30.08 in1018.6 mb 0.00 in0.0 mm 0.00 in0.0 mm 0.00 in0.0 mm
12:19 AM 41.2°F5.1°C 31.5°F-0.3°C 68% 7.7 mph SE12.4 kmh SE 11.0 mph17.7 kmh 30.08 in1018.6 mb 0.00 in0.0 mm 0.00 in0.0 mm 0.00 in0.0 mm
12:20 AM 41.1°F5.1°C 31.4°F-0.3°C 68% 7.9 mph SE12.7 kmh SE 13.0 mph20.9 kmh 30.08 in1018.6 mb 0.00 in0.0 mm 0.00 in0.0 mm 0.00 in0.0 mm
12:21 AM 41.1°F5.1°C 31.7°F-0.2°C 69% 7.9 mph SE12.7 kmh SE 13.0 mph20.9 kmh 30.08 in1018.6 mb 0.00 in0.0 mm 0.00 in0.0 mm 0.00 in0.0 mm
12:22 AM 41.2°F5.1°C 31.8°F-0.1°C 69% 7.0 mph SE11.3 kmh SE 10.0 mph16.1 kmh 30.08 in1018.6 mb 0.00 in0.0 mm 0.00 in0.0 mm 0.00 in0.0 mm
12:23 AM 41.2°F5.1°C 31.8°F-0.1°C 69% 7.2 mph SE11.6 kmh SE 11.0 mph17.7 kmh 30.08 in1018.6 mb 0.00 in0.0 mm 0.00 in0.0 mm 0.00 in0.0 mm
12:24 AM 41.1°F5.1°C 31.7°F-0.2°C 69% 8.8 mph SE14.2 kmh SE 12.0 mph19.3 kmh 30.08 in1018.6 mb 0.00 in0.0 mm 0.00 in0.0 mm 0.00 in0.0 mm
12:25 AM 41.1°F5.1°C 31.7°F-0.2°C 69% 8.2 mph ESE13.2 kmh ESE 12.0 mph19.3 kmh 30.08 in1018.6 mb 0.00 in0.0 mm 0.00 in0.0 mm 0.00 in0.0 mm
12:26 AM 41.0°F5.0°C 31.6°F-0.2°C 69% 8.0 mph SE12.9 kmh SE 11.0 mph17.7 kmh 30.08 in1018.6 mb 0.00 in0.0 mm 0.00 in0.0 mm 0.00 in0.0 mm
12:27 AM 41.0°F5.0°C 31.6°F-0.2°C 69% 6.0 mph ESE9.7 kmh ESE 11.0 mph17.7 kmh 30.08 in1018.6 mb 0.00 in0.0 mm 0.00 in0.0 mm 0.00 in0.0 mm
12:28 AM 41.0°F5.0°C 31.6°F-0.2°C 69% 6.6 mph ESE10.6 kmh ESE 10.0 mph16.1 kmh 30.08 in1018.6 mb 0.00 in0.0 mm 0.00 in0.0 mm 0.00 in0.0 mm
12:29 AM 41.0°F5.0°C 31.6°F-0.2°C 69% 8.0 mph ESE12.9 kmh ESE 10.0 mph16.1 kmh 30.08 in1018.6 mb 0.00 in0.0 mm 0.00 in0.0 mm 0.00 in0.0 mm
12:30 AM 41.0°F5.0°C 32.0°F0.0°C 70% 8.9 mph SE14.3 kmh SE 12.0 mph19.3 kmh 30.08 in1018.6 mb 0.00 in0.0 mm 0.00 in0.0 mm 0.00 in0.0 mm
12:31 AM 40.9°F4.9°C 31.9°F-0.1°C 70% 7.4 mph SE11.9 kmh SE 12.0 mph19.3 kmh 30.08 in1018.6 mb 0.00 in0.0 mm 0.00 in0.0 mm 0.00 in0.0 mm
12:32 AM 40.9°F4.9°C 31.9°F-0.1°C 70% 7.1 mph ESE11.4 kmh ESE 11.0 mph17.7 kmh 30.08 in1018.6 mb 0.00 in0.0 mm 0.00 in0.0 mm 0.00 in0.0 mm
12:33 AM 40.9°F4.9°C 31.9°F-0.1°C 70% 5.0 mph ESE8.0 kmh ESE 8.0 mph12.9 kmh 30.07 in1018.3 mb 0.00 in0.0 mm 0.00 in0.0 mm 0.00 in0.0 mm
12:34 AM 40.9°F4.9°C 31.9°F-0.1°C 70% 7.0 mph ESE11.3 kmh ESE 9.0 mph14.5 kmh 30.08 in1018.6 mb 0.00 in0.0 mm 0.00 in0.0 mm 0.00 in0.0 mm
12:35 AM 40.8°F4.9°C 32.1°F0.1°C 71% 6.0 mph ESE9.7 kmh ESE 10.0 mph16.1 kmh 30.08 in1018.6 mb 0.00 in0.0 mm 0.00 in0.0 mm 0.00 in0.0 mm
12:36 AM 40.8°F4.9°C 32.1°F0.1°C 71% 7.7 mph SE12.4 kmh SE 11.0 mph17.7 kmh 30.08 in1018.6 mb 0.00 in0.0 mm 0.00 in0.0 mm 0.00 in0.0 mm
12:37 AM 40.9°F4.9°C 32.2°F0.1°C 71% 7.9 mph SE12.7 kmh SE 13.0 mph20.9 kmh 30.08 in1018.6 mb 0.00 in0.0 mm 0.00 in0.0 mm 0.00 in0.0 mm
12:38 AM 40.8°F4.9°C 32.1°F0.1°C 71% 7.7 mph ESE12.4 kmh ESE 13.0 mph20.9 kmh 30.08 in1018.6 mb 0.00 in0.0 mm 0.00 in0.0 mm 0.00 in0.0 mm
12:39 AM 40.9°F4.9°C 32.2°F0.1°C 71% 7.0 mph SE11.3 kmh SE 10.0 mph16.1 kmh 30.08 in1018.6 mb 0.00 in0.0 mm 0.00 in0.0 mm 0.00 in0.0 mm
12:40 AM 40.8°F4.9°C 32.1°F0.1°C 71% 6.1 mph SE9.8 kmh SE 9.0 mph14.5 kmh 30.08 in1018.6 mb 0.00 in0.0 mm 0.00 in0.0 mm 0.00 in0.0 mm
12:41 AM 40.8°F4.9°C 32.1°F0.1°C 71% 6.9 mph ESE11.1 kmh ESE 9.0 mph14.5 kmh 30.08 in1018.6 mb 0.00 in0.0 mm 0.00 in0.0 mm 0.00 in0.0 mm
12:42 AM 40.8°F4.9°C 32.1°F0.1°C 71% 6.6 mph ESE10.6 kmh ESE 9.0 mph14.5 kmh 30.08 in1018.6 mb 0.00 in0.0 mm 0.00 in0.0 mm 0.00 in0.0 mm
12:43 AM 40.8°F4.9°C 32.5°F0.3°C 72% 5.1 mph ESE8.2 kmh ESE 8.0 mph12.9 kmh 30.08 in1018.6 mb 0.00 in0.0 mm 0.00 in0.0 mm 0.00 in0.0 mm
12:44 AM 40.8°F4.9°C 32.5°F0.3°C 72% 8.0 mph ESE12.9 kmh ESE 12.0 mph19.3 kmh 30.08 in1018.6 mb 0.00 in0.0 mm 0.00 in0.0 mm 0.00 in0.0 mm
12:45 AM 40.8°F4.9°C 32.5°F0.3°C 72% 7.3 mph ESE11.7 kmh ESE 12.0 mph19.3 kmh 30.08 in1018.6 mb 0.00 in0.0 mm 0.00 in0.0 mm 0.00 in0.0 mm
12:46 AM 40.8°F4.9°C 32.5°F0.3°C 72% 7.9 mph SE12.7 kmh SE 10.0 mph16.1 kmh 30.08 in1018.6 mb 0.00 in0.0 mm 0.00 in0.0 mm 0.00 in0.0 mm
12:47 AM 40.8°F4.9°C 32.5°F0.3°C 72% 9.5 mph SE15.3 kmh SE 13.0 mph20.9 kmh 30.08 in1018.6 mb 0.00 in0.0 mm 0.00 in0.0 mm 0.00 in0.0 mm
12:48 AM 40.9°F4.9°C 32.6°F0.3°C 72% 6.0 mph ESE9.7 kmh ESE 13.0 mph20.9 kmh 30.08 in1018.6 mb 0.00 in0.0 mm 0.00 in0.0 mm 0.00 in0.0 mm
12:49 AM 40.8°F4.9°C 32.5°F0.3°C 72% 5.2 mph SE8.4 kmh SE 8.0 mph12.9 kmh 30.08 in1018.6 mb 0.00 in0.0 mm 0.00 in0.0 mm 0.00 in0.0 mm
12:50 AM 40.8°F4.9°C 32.5°F0.3°C 72% 5.9 mph SE9.5 kmh SE 9.0 mph14.5 kmh 30.08 in1018.6 mb 0.00 in0.0 mm 0.00 in0.0 mm 0.00 in0.0 mm
12:51 AM 40.8°F4.9°C 32.5°F0.3°C 72% 6.0 mph SE9.7 kmh SE 9.0 mph14.5 kmh 30.08 in1018.6 mb 0.00 in0.0 mm 0.00 in0.0 mm 0.00 in0.0 mm
12:52 AM 40.8°F4.9°C 32.5°F0.3°C 72% 5.5 mph SE8.9 kmh SE 9.0 mph14.5 kmh 30.08 in1018.6 mb 0.00 in0.0 mm 0.00 in0.0 mm 0.00 in0.0 mm
12:53 AM 40.8°F4.9°C 32.8°F0.4°C 73% 7.2 mph SE11.6 kmh SE 10.0 mph16.1 kmh 30.08 in1018.6 mb 0.00 in0.0 mm 0.00 in0.0 mm 0.00 in0.0 mm
12:54 AM 40.7°F4.8°C 32.7°F0.4°C 73% 6.1 mph SE9.8 kmh SE 11.0 mph17.7 kmh 30.08 in1018.6 mb 0.00 in0.0 mm 0.00 in0.0 mm 0.00 in0.0 mm
12:55 AM 40.8°F4.9°C 32.8°F0.4°C 73% 7.7 mph SE12.4 kmh SE 11.0 mph17.7 kmh 30.08 in1018.6 mb 0.00 in0.0 mm 0.00 in0.0 mm 0.00 in0.0 mm
12:56 AM 40.8°F4.9°C 32.8°F0.4°C 73% 7.8 mph SE12.6 kmh SE 11.0 mph17.7 kmh 30.08 in1018.6 mb 0.00 in0.0 mm 0.00 in0.0 mm 0.00 in0.0 mm
12:57 AM 40.7°F4.8°C 32.7°F0.4°C 73% 8.0 mph SE12.9 kmh SE 10.0 mph16.1 kmh 30.08 in1018.6 mb 0.00 in0.0 mm 0.00 in0.0 mm 0.00 in0.0 mm
12:58 AM 40.7°F4.8°C 32.7°F0.4°C 73% 7.4 mph SE11.9 kmh SE 10.0 mph16.1 kmh 30.07 in1018.3 mb 0.00 in0.0 mm 0.00 in0.0 mm 0.00 in0.0 mm
12:59 AM 40.7°F4.8°C 32.7°F0.4°C 73% 7.3 mph ESE11.7 kmh ESE 11.0 mph17.7 kmh 30.07 in1018.3 mb 0.00 in0.0 mm 0.00 in0.0 mm 0.00 in0.0 mm
01:00 AM 40.7°F4.8°C 32.7°F0.4°C 73% 8.0 mph SE12.9 kmh SE 10.0 mph16.1 kmh 30.07 in1018.3 mb 0.00 in0.0 mm 0.00 in0.0 mm 0.00 in0.0 mm
01:01 AM 40.8°F4.9°C 32.8°F0.4°C 73% 7.0 mph SE11.3 kmh SE 10.0 mph16.1 kmh 30.07 in1018.3 mb 0.00 in0.0 mm 0.00 in0.0 mm 0.00 in0.0 mm
01:02 AM 40.7°F4.8°C 32.7°F0.4°C 73% 6.0 mph SE9.7 kmh SE 7.0 mph11.3 kmh 30.07 in1018.3 mb 0.00 in0.0 mm 0.00 in0.0 mm 0.00 in0.0 mm
01:03 AM 40.7°F4.8°C 32.7°F0.4°C 73% 5.9 mph SE9.5 kmh SE 8.0 mph12.9 kmh 30.07 in1018.3 mb 0.00 in0.0 mm 0.00 in0.0 mm 0.00 in0.0 mm
01:04 AM 40.7°F4.8°C 33.1°F0.6°C 74% 7.3 mph SE11.7 kmh SE 10.0 mph16.1 kmh 30.07 in1018.3 mb 0.00 in0.0 mm 0.00 in0.0 mm 0.00 in0.0 mm
01:05 AM 40.8°F4.9°C 33.2°F0.7°C 74% 8.0 mph SE12.9 kmh SE 10.0 mph16.1 kmh 30.07 in1018.3 mb 0.00 in0.0 mm 0.00 in0.0 mm 0.00 in0.0 mm
01:06 AM 40.8°F4.9°C 33.2°F0.7°C 74% 8.9 mph SE14.3 kmh SE 11.0 mph17.7 kmh 30.07 in1018.3 mb 0.00 in0.0 mm 0.00 in0.0 mm 0.00 in0.0 mm
01:07 AM 40.8°F4.9°C 33.2°F0.7°C 74% 9.9 mph SE15.9 kmh SE 14.0 mph22.5 kmh 30.07 in1018.3 mb 0.00 in0.0 mm 0.00 in0.0 mm 0.00 in0.0 mm
01:08 AM 40.8°F4.9°C 33.2°F0.7°C 74% 8.5 mph SE13.7 kmh SE 14.0 mph22.5 kmh 30.07 in1018.3 mb 0.00 in0.0 mm 0.00 in0.0 mm 0.00 in0.0 mm
01:09 AM 40.8°F4.9°C 33.2°F0.7°C 74% 8.3 mph SE13.4 kmh SE 11.0 mph17.7 kmh 30.07 in1018.3 mb 0.00 in0.0 mm 0.00 in0.0 mm 0.00 in0.0 mm
01:10 AM 40.9°F4.9°C 33.3°F0.7°C 74% 7.8 mph SE12.6 kmh SE 11.0 mph17.7 kmh 30.07 in1018.3 mb 0.00 in0.0 mm 0.00 in0.0 mm 0.00 in0.0 mm
01:11 AM 40.8°F4.9°C 33.2°F0.7°C 74% 8.6 mph SE13.8 kmh SE 12.0 mph19.3 kmh 30.07 in1018.3 mb 0.00 in0.0 mm 0.00 in0.0 mm 0.00 in0.0 mm
01:12 AM 40.9°F4.9°C 33.3°F0.7°C 74% 7.9 mph SE12.7 kmh SE 12.0 mph19.3 kmh 30.07 in1018.3 mb 0.00 in0.0 mm 0.00 in0.0 mm 0.00 in0.0 mm
01:13 AM 40.9°F4.9°C 33.3°F0.7°C 74% 8.0 mph SE12.9 kmh SE 11.0 mph17.7 kmh 30.07 in1018.3 mb 0.00 in0.0 mm 0.00 in0.0 mm 0.00 in0.0 mm
01:14 AM 40.9°F4.9°C 33.3°F0.7°C 74% 6.9 mph SE11.1 kmh SE 11.0 mph17.7 kmh 30.07 in1018.3 mb 0.00 in0.0 mm 0.00 in0.0 mm 0.00 in0.0 mm
01:15 AM 40.9°F4.9°C 33.3°F0.7°C 74% 8.4 mph SE13.5 kmh SE 11.0 mph17.7 kmh 30.07 in1018.3 mb 0.00 in0.0 mm 0.00 in0.0 mm 0.00 in0.0 mm
01:16 AM 40.9°F4.9°C 33.3°F0.7°C 74% 7.8 mph SE12.6 kmh SE 11.0 mph17.7 kmh 30.07 in1018.3 mb 0.00 in0.0 mm 0.00 in0.0 mm 0.00 in0.0 mm
01:17 AM 40.9°F4.9°C 33.3°F0.7°C 74% 9.1 mph SE14.6 kmh SE 12.0 mph19.3 kmh 30.07 in1018.3 mb 0.00 in0.0 mm 0.00 in0.0 mm 0.00 in0.0 mm
01:18 AM 40.9°F4.9°C 33.3°F0.7°C 74% 9.4 mph SE15.1 kmh SE 12.0 mph19.3 kmh 30.07 in1018.3 mb 0.00 in0.0 mm 0.00 in0.0 mm 0.00 in0.0 mm
01:19 AM 40.9°F4.9°C 33.3°F0.7°C 74% 9.1 mph SE14.6 kmh SE 13.0 mph20.9 kmh 30.07 in1018.3 mb 0.00 in0.0 mm 0.00 in0.0 mm 0.00 in0.0 mm
01:20 AM 41.0°F5.0°C 33.4°F0.8°C 74% 9.0 mph ESE14.5 kmh ESE 12.0 mph19.3 kmh 30.07 in1018.3 mb 0.00 in0.0 mm 0.00 in0.0 mm 0.00 in0.0 mm
01:21 AM 40.9°F4.9°C 33.3°F0.7°C 74% 9.0 mph SE14.5 kmh SE 12.0 mph19.3 kmh 30.07 in1018.3 mb 0.00 in0.0 mm 0.00 in0.0 mm 0.00 in0.0 mm
01:22 AM 41.0°F5.0°C 33.4°F0.8°C 74% 8.0 mph ESE12.9 kmh ESE 12.0 mph19.3 kmh 30.07 in1018.3 mb 0.00 in0.0 mm 0.00 in0.0 mm 0.00 in0.0 mm
01:23 AM 40.9°F4.9°C 33.3°F0.7°C 74% 9.8 mph SE15.8 kmh SE 12.0 mph19.3 kmh 30.07 in1018.3 mb 0.00 in0.0 mm 0.00 in0.0 mm 0.00 in0.0 mm
01:24 AM 40.9°F4.9°C 33.3°F0.7°C 74% 9.8 mph SE15.8 kmh SE 12.0 mph19.3 kmh 30.07 in1018.3 mb 0.00 in0.0 mm 0.00 in0.0 mm 0.00 in0.0 mm
01:25 AM 41.0°F5.0°C 33.4°F0.8°C 74% 8.7 mph SE14.0 kmh SE 12.0 mph19.3 kmh 30.07 in1018.3 mb 0.00 in0.0 mm 0.00 in0.0 mm 0.00 in0.0 mm
01:26 AM 41.0°F5.0°C 33.4°F0.8°C 74% 8.5 mph SE13.7 kmh SE 13.0 mph20.9 kmh 30.07 in1018.3 mb 0.00 in0.0 mm 0.00 in0.0 mm 0.00 in0.0 mm
01:27 AM 40.9°F4.9°C 33.3°F0.7°C 74% 7.4 mph SE11.9 kmh SE 13.0 mph20.9 kmh 30.07 in1018.3 mb 0.00 in0.0 mm 0.00 in0.0 mm 0.00 in0.0 mm
01:28 AM 40.9°F4.9°C 33.3°F0.7°C 74% 7.2 mph SE11.6 kmh SE 11.0 mph17.7 kmh 30.06 in1017.9 mb 0.00 in0.0 mm 0.00 in0.0 mm 0.00 in0.0 mm
01:29 AM 40.9°F4.9°C 33.3°F0.7°C 74% 9.3 mph SE15.0 kmh SE 12.0 mph19.3 kmh 30.06 in1017.9 mb 0.00 in0.0 mm 0.00 in0.0 mm 0.00 in0.0 mm
01:30 AM 40.9°F4.9°C 33.3°F0.7°C 74% 9.3 mph SE15.0 kmh SE 13.0 mph20.9 kmh 30.06 in1017.9 mb 0.00 in0.0 mm 0.00 in0.0 mm 0.00 in0.0 mm
01:31 AM 40.9°F4.9°C 33.3°F0.7°C 74% 11.1 mph SE17.9 kmh SE 15.0 mph24.1 kmh 30.06 in1017.9 mb 0.00 in0.0 mm 0.00 in0.0 mm 0.00 in0.0 mm
01:32 AM 40.9°F4.9°C 33.3°F0.7°C 74% 9.0 mph ESE14.5 kmh ESE 15.0 mph24.1 kmh 30.06 in1017.9 mb 0.00 in0.0 mm 0.00 in0.0 mm 0.00 in0.0 mm
01:33 AM 40.9°F4.9°C 33.3°F0.7°C 74% 8.1 mph SE13.0 kmh SE 11.0 mph17.7 kmh 30.06 in1017.9 mb 0.00 in0.0 mm 0.00 in0.0 mm 0.00 in0.0 mm
01:34 AM 40.9°F4.9°C 33.3°F0.7°C 74% 8.2 mph ESE13.2 kmh ESE 10.0 mph16.1 kmh 30.06 in1017.9 mb 0.00 in0.0 mm 0.00 in0.0 mm 0.00 in0.0 mm
01:35 AM 40.9°F4.9°C 33.3°F0.7°C 74% 10.4 mph SE16.7 kmh SE 14.0 mph22.5 kmh 30.06 in1017.9 mb 0.00 in0.0 mm 0.00 in0.0 mm 0.00 in0.0 mm
01:36 AM 40.8°F4.9°C 33.2°F0.7°C 74% 9.9 mph ESE15.9 kmh ESE 14.0 mph22.5 kmh 30.06 in1017.9 mb 0.00 in0.0 mm 0.00 in0.0 mm 0.00 in0.0 mm
01:37 AM 40.8°F4.9°C 33.2°F0.7°C 74% 10.5 mph SE16.9 kmh SE 14.0 mph22.5 kmh 30.06 in1017.9 mb 0.00 in0.0 mm 0.00 in0.0 mm 0.00 in0.0 mm
01:38 AM 40.8°F4.9°C 33.2°F0.7°C 74% 9.5 mph SE15.3 kmh SE 14.0 mph22.5 kmh 30.06 in1017.9 mb 0.00 in0.0 mm 0.00 in0.0 mm 0.00 in0.0 mm
01:39 AM 40.8°F4.9°C 33.2°F0.7°C 74% 10.6 mph SE17.1 kmh SE 13.0 mph20.9 kmh 30.06 in1017.9 mb 0.00 in0.0 mm 0.00 in0.0 mm 0.00 in0.0 mm
01:40 AM 40.8°F4.9°C 33.2°F0.7°C 74% 8.8 mph ESE14.2 kmh ESE 13.0 mph20.9 kmh 30.06 in1017.9 mb 0.00 in0.0 mm 0.00 in0.0 mm 0.00 in0.0 mm
01:41 AM 40.8°F4.9°C 33.2°F0.7°C 74% 10.0 mph SE16.1 kmh SE 12.0 mph19.3 kmh 30.06 in1017.9 mb 0.00 in0.0 mm 0.00 in0.0 mm 0.00 in0.0 mm
01:42 AM 40.8°F4.9°C 33.2°F0.7°C 74% 11.2 mph SE18.0 kmh SE 14.0 mph22.5 kmh 30.06 in1017.9 mb 0.00 in0.0 mm 0.00 in0.0 mm 0.00 in0.0 mm
01:43 AM 40.8°F4.9°C 33.2°F0.7°C 74% 10.0 mph ESE16.1 kmh ESE 14.0 mph22.5 kmh 30.06 in1017.9 mb 0.00 in0.0 mm 0.00 in0.0 mm 0.00 in0.0 mm
01:44 AM 40.7°F4.8°C 33.1°F0.6°C 74% 11.0 mph SE17.7 kmh SE 14.0 mph22.5 kmh 30.06 in1017.9 mb 0.00 in0.0 mm 0.00 in0.0 mm 0.00 in0.0 mm
01:45 AM 40.7°F4.8°C 33.1°F0.6°C 74% 8.0 mph ESE12.9 kmh ESE 10.0 mph16.1 kmh 30.06 in1017.9 mb 0.00 in0.0 mm 0.00 in0.0 mm 0.00 in0.0 mm
01:46 AM 40.7°F4.8°C 33.1°F0.6°C 74% 9.6 mph SE15.4 kmh SE 14.0 mph22.5 kmh 30.06 in1017.9 mb 0.00 in0.0 mm 0.00 in0.0 mm 0.00 in0.0 mm
01:47 AM 40.8°F4.9°C 33.2°F0.7°C 74% 9.9 mph SE15.9 kmh SE 14.0 mph22.5 kmh 30.06 in1017.9 mb 0.00 in0.0 mm 0.00 in0.0 mm 0.00 in0.0 mm
01:48 AM 40.7°F4.8°C 33.1°F0.6°C 74% 11.5 mph SE18.5 kmh SE 15.0 mph24.1 kmh 30.06 in1017.9 mb 0.00 in0.0 mm 0.00 in0.0 mm 0.00 in0.0 mm
01:49 AM 40.7°F4.8°C 33.1°F0.6°C 74% 9.4 mph SE15.1 kmh SE 15.0 mph24.1 kmh 30.06 in1017.9 mb 0.00 in0.0 mm 0.00 in0.0 mm 0.00 in0.0 mm
01:50 AM 40.7°F4.8°C 33.1°F0.6°C 74% 8.1 mph SE13.0 kmh SE 11.0 mph17.7 kmh 30.06 in1017.9 mb 0.00 in0.0 mm 0.00 in0.0 mm 0.00 in0.0 mm
01:51 AM 40.7°F4.8°C 33.1°F0.6°C 74% 9.0 mph SE14.5 kmh SE 12.0 mph19.3 kmh 30.06 in1017.9 mb 0.00 in0.0 mm 0.00 in0.0 mm 0.00 in0.0 mm
01:52 AM 40.7°F4.8°C 33.1°F0.6°C 74% 7.2 mph SE11.6 kmh SE 12.0 mph19.3 kmh 30.06 in1017.9 mb 0.00 in0.0 mm 0.00 in0.0 mm 0.00 in0.0 mm
01:53 AM 40.7°F4.8°C 33.1°F0.6°C 74% 7.8 mph SE12.6 kmh SE 11.0 mph17.7 kmh 30.06 in1017.9 mb 0.00 in0.0 mm 0.00 in0.0 mm 0.00 in0.0 mm
01:54 AM 40.6°F4.8°C 33.0°F0.6°C 74% 8.6 mph SE13.8 kmh SE 12.0 mph19.3 kmh 30.06 in1017.9 mb 0.00 in0.0 mm 0.00 in0.0 mm 0.00 in0.0 mm
01:55 AM 40.6°F4.8°C 33.0°F0.6°C 74% 9.2 mph SE14.8 kmh SE 12.0 mph19.3 kmh 30.06 in1017.9 mb 0.00 in0.0 mm 0.00 in0.0 mm 0.00 in0.0 mm
01:56 AM 40.5°F4.7°C 32.9°F0.5°C 74% 9.6 mph ESE15.4 kmh ESE 13.0 mph20.9 kmh 30.06 in1017.9 mb 0.00 in0.0 mm 0.00 in0.0 mm 0.00 in0.0 mm
01:57 AM 40.5°F4.7°C 32.9°F0.5°C 74% 8.6 mph SE13.8 kmh SE 13.0 mph20.9 kmh 30.06 in1017.9 mb 0.00 in0.0 mm 0.00 in0.0 mm 0.00 in0.0 mm
01:58 AM 40.5°F4.7°C 32.9°F0.5°C 74% 7.1 mph SE11.4 kmh SE 11.0 mph17.7 kmh 30.06 in1017.9 mb 0.00 in0.0 mm 0.00 in0.0 mm 0.00 in0.0 mm
01:59 AM 40.5°F4.7°C 33.2°F0.7°C 75% 9.9 mph SE15.9 kmh SE 13.0 mph20.9 kmh 30.06 in1017.9 mb 0.00 in0.0 mm 0.00 in0.0 mm 0.00 in0.0 mm
02:00 AM 40.4°F4.7°C 32.8°F0.4°C 74% 10.4 mph SE16.7 kmh SE 13.0 mph20.9 kmh 30.06 in1017.9 mb 0.00 in0.0 mm 0.00 in0.0 mm 0.00 in0.0 mm
02:01 AM 40.4°F4.7°C 33.1°F0.6°C 75% 8.9 mph SE14.3 kmh SE 13.0 mph20.9 kmh 30.06 in1017.9 mb 0.00 in0.0 mm 0.00 in0.0 mm 0.00 in0.0 mm
02:02 AM 40.4°F4.7°C 33.1°F0.6°C 75% 9.5 mph SE15.3 kmh SE 13.0 mph20.9 kmh 30.06 in1017.9 mb 0.00 in0.0 mm 0.00 in0.0 mm 0.00 in0.0 mm
02:03 AM 40.4°F4.7°C 33.1°F0.6°C 75% 8.2 mph SE13.2 kmh SE 13.0 mph20.9 kmh 30.06 in1017.9 mb 0.00 in0.0 mm 0.00 in0.0 mm 0.00 in0.0 mm
02:04 AM 40.4°F4.7°C 33.1°F0.6°C 75% 9.8 mph SE15.8 kmh SE 14.0 mph22.5 kmh 30.06 in1017.9 mb 0.00 in0.0 mm 0.00 in0.0 mm 0.00 in0.0 mm
02:05 AM 40.3°F4.6°C 33.0°F0.6°C 75% 10.8 mph SE17.4 kmh SE 14.0 mph22.5 kmh 30.06 in1017.9 mb 0.00 in0.0 mm 0.00 in0.0 mm 0.00 in0.0 mm
02:06 AM 40.4°F4.7°C 33.1°F0.6°C 75% 8.6 mph SE13.8 kmh SE 13.0 mph20.9 kmh 30.06 in1017.9 mb 0.00 in0.0 mm 0.00 in0.0 mm 0.00 in0.0 mm
02:07 AM 40.4°F4.7°C 33.1°F0.6°C 75% 6.5 mph SE10.5 kmh SE 11.0 mph17.7 kmh 30.06 in1017.9 mb 0.00 in0.0 mm 0.00 in0.0 mm 0.00 in0.0 mm
02:08 AM 40.4°F4.7°C 33.1°F0.6°C 75% 5.4 mph SE8.7 kmh SE 10.0 mph16.1 kmh 30.06 in1017.9 mb 0.00 in0.0 mm 0.00 in0.0 mm 0.00 in0.0 mm
02:09 AM 40.3°F4.6°C 33.0°F0.6°C 75% 7.1 mph SE11.4 kmh SE 10.0 mph16.1 kmh 30.06 in1017.9 mb 0.00 in0.0 mm 0.00 in0.0 mm 0.00 in0.0 mm
02:10 AM 40.3°F4.6°C 33.0°F0.6°C 75% 7.7 mph SE12.4 kmh SE 11.0 mph17.7 kmh 30.06 in1017.9 mb 0.00 in0.0 mm 0.00 in0.0 mm 0.00 in0.0 mm
02:11 AM 40.2°F4.6°C 32.9°F0.5°C 75% 8.6 mph SE13.8 kmh SE 14.0 mph22.5 kmh 30.06 in1017.9 mb 0.00 in0.0 mm 0.00 in0.0 mm 0.00 in0.0 mm
02:12 AM 40.2°F4.6°C 32.9°F0.5°C 75% 7.3 mph SE11.7 kmh SE 14.0 mph22.5 kmh 30.06 in1017.9 mb 0.00 in0.0 mm 0.00 in0.0 mm 0.00 in0.0 mm
02:13 AM 40.2°F4.6°C 32.9°F0.5°C 75% 9.0 mph SE14.5 kmh SE 12.0 mph19.3 kmh 30.06 in1017.9 mb 0.00 in0.0 mm 0.00 in0.0 mm 0.00 in0.0 mm
02:14 AM 40.2°F4.6°C 32.9°F0.5°C 75% 7.8 mph SE12.6 kmh SE 12.0 mph19.3 kmh 30.06 in1017.9 mb 0.00 in0.0 mm 0.00 in0.0 mm 0.00 in0.0 mm
02:15 AM 40.2°F4.6°C 32.9°F0.5°C 75% 8.0 mph SE12.9 kmh SE 11.0 mph17.7 kmh 30.06 in1017.9 mb 0.00 in0.0 mm 0.00 in0.0 mm 0.00 in0.0 mm
02:16 AM 40.2°F4.6°C 32.9°F0.5°C 75% 8.8 mph SE14.2 kmh SE 12.0 mph19.3 kmh 30.06 in1017.9 mb 0.00 in0.0 mm 0.00 in0.0 mm 0.00 in0.0 mm
02:17 AM 40.2°F4.6°C 32.9°F0.5°C 75% 8.0 mph SE12.9 kmh SE 12.0 mph19.3 kmh 30.06 in1017.9 mb 0.00 in0.0 mm 0.00 in0.0 mm 0.00 in0.0 mm
02:18 AM 40.2°F4.6°C 32.9°F0.5°C 75% 8.7 mph SE14.0 kmh SE 14.0 mph22.5 kmh 30.06 in1017.9 mb 0.00 in0.0 mm 0.00 in0.0 mm 0.00 in0.0 mm
02:19 AM 40.2°F4.6°C 32.9°F0.5°C 75% 8.0 mph ESE12.9 kmh ESE 12.0 mph19.3 kmh 30.06 in1017.9 mb 0.00 in0.0 mm 0.00 in0.0 mm 0.00 in0.0 mm
02:20 AM 40.2°F4.6°C 32.9°F0.5°C 75% 8.0 mph ESE12.9 kmh ESE 11.0 mph17.7 kmh 30.06 in1017.9 mb 0.00 in0.0 mm 0.00 in0.0 mm 0.00 in0.0 mm
02:21 AM 40.1°F4.5°C 32.8°F0.4°C 75% 9.0 mph SE14.5 kmh SE 10.0 mph16.1 kmh 30.06 in1017.9 mb 0.00 in0.0 mm 0.00 in0.0 mm 0.00 in0.0 mm
02:22 AM 40.1°F4.5°C 32.8°F0.4°C 75% 8.6 mph SE13.8 kmh SE 10.0 mph16.1 kmh 30.05 in1017.6 mb 0.00 in0.0 mm 0.00 in0.0 mm 0.00 in0.0 mm
02:23 AM 40.0°F4.4°C 32.7°F0.4°C 75% 6.1 mph SE9.8 kmh SE 10.0 mph16.1 kmh 30.05 in1017.6 mb 0.00 in0.0 mm 0.00 in0.0 mm 0.00 in0.0 mm
02:24 AM 40.1°F4.5°C 32.8°F0.4°C 75% 7.7 mph SE12.4 kmh SE 10.0 mph16.1 kmh 30.05 in1017.6 mb 0.00 in0.0 mm 0.00 in0.0 mm 0.00 in0.0 mm
02:25 AM 40.1°F4.5°C 32.8°F0.4°C 75% 7.5 mph SE12.1 kmh SE 10.0 mph16.1 kmh 30.05 in1017.6 mb 0.00 in0.0 mm 0.00 in0.0 mm 0.00 in0.0 mm
02:26 AM 40.0°F4.4°C 32.7°F0.4°C 75% 7.8 mph SE12.6 kmh SE 10.0 mph16.1 kmh 30.05 in1017.6 mb 0.00 in0.0 mm 0.00 in0.0 mm 0.00 in0.0 mm
02:27 AM 40.0°F4.4°C 32.7°F0.4°C 75% 7.5 mph SE12.1 kmh SE 10.0 mph16.1 kmh 30.05 in1017.6 mb 0.00 in0.0 mm 0.00 in0.0 mm 0.00 in0.0 mm
02:28 AM 40.0°F4.4°C 32.7°F0.4°C 75% 5.9 mph SE9.5 kmh SE 9.0 mph14.5 kmh 30.05 in1017.6 mb 0.00 in0.0 mm 0.00 in0.0 mm 0.00 in0.0 mm
02:29 AM 40.0°F4.4°C 32.7°F0.4°C 75% 6.6 mph SE10.6 kmh SE 11.0 mph17.7 kmh 30.05 in1017.6 mb 0.00 in0.0 mm 0.00 in0.0 mm 0.00 in0.0 mm
02:30 AM 39.9°F4.4°C 32.6°F0.3°C 75% 7.4 mph SE11.9 kmh SE 11.0 mph17.7 kmh 30.05 in1017.6 mb 0.00 in0.0 mm 0.00 in0.0 mm 0.00 in0.0 mm
02:31 AM 40.0°F4.4°C 33.1°F0.6°C 76% 8.3 mph SE13.4 kmh SE 10.0 mph16.1 kmh 30.05 in1017.6 mb 0.00 in0.0 mm 0.00 in0.0 mm 0.00 in0.0 mm
02:32 AM 39.9°F4.4°C 33.0°F0.6°C 76% 7.6 mph SE12.2 kmh SE 10.0 mph16.1 kmh 30.05 in1017.6 mb 0.00 in0.0 mm 0.00 in0.0 mm 0.00 in0.0 mm
02:33 AM 39.9°F4.4°C 33.0°F0.6°C 76% 6.3 mph SE10.1 kmh SE 9.0 mph14.5 kmh 30.05 in1017.6 mb 0.00 in0.0 mm 0.00 in0.0 mm 0.00 in0.0 mm
02:34 AM 39.9°F4.4°C 33.0°F0.6°C 76% 7.7 mph SE12.4 kmh SE 12.0 mph19.3 kmh 30.05 in1017.6 mb 0.00 in0.0 mm 0.00 in0.0 mm 0.00 in0.0 mm
02:35 AM 39.9°F4.4°C 33.0°F0.6°C 76% 7.2 mph SE11.6 kmh SE 12.0 mph19.3 kmh 30.05 in1017.6 mb 0.00 in0.0 mm 0.00 in0.0 mm 0.00 in0.0 mm
02:36 AM 39.9°F4.4°C 33.0°F0.6°C 76% 7.9 mph SE12.7 kmh SE 11.0 mph17.7 kmh 30.05 in1017.6 mb 0.00 in0.0 mm 0.00 in0.0 mm 0.00 in0.0 mm
02:37 AM 39.9°F4.4°C 33.0°F0.6°C 76% 8.8 mph SE14.2 kmh SE 12.0 mph19.3 kmh 30.05 in1017.6 mb 0.00 in0.0 mm 0.00 in0.0 mm 0.00 in0.0 mm
02:38 AM 39.9°F4.4°C 33.0°F0.6°C 76% 7.8 mph SE12.6 kmh SE 12.0 mph19.3 kmh 30.05 in1017.6 mb 0.00 in0.0 mm 0.00 in0.0 mm 0.00 in0.0 mm
02:39 AM 40.0°F4.4°C 33.1°F0.6°C 76% 5.7 mph ESE9.2 kmh ESE 10.0 mph16.1 kmh 30.05 in1017.6 mb 0.00 in0.0 mm 0.00 in0.0 mm 0.00 in0.0 mm
02:40 AM 40.0°F4.4°C 33.1°F0.6°C 76% 10.0 mph SE16.1 kmh SE 13.0 mph20.9 kmh 30.05 in1017.6 mb 0.00 in0.0 mm 0.00 in0.0 mm 0.00 in0.0 mm
02:41 AM 40.0°F4.4°C 33.1°F0.6°C 76% 8.5 mph SE13.7 kmh SE 13.0 mph20.9 kmh 30.05 in1017.6 mb 0.00 in0.0 mm 0.00 in0.0 mm 0.00 in0.0 mm
02:42 AM 40.0°F4.4°C 33.1°F0.6°C 76% 9.2 mph SE14.8 kmh SE 12.0 mph19.3 kmh 30.05 in1017.6 mb 0.00 in0.0 mm 0.00 in0.0 mm 0.00 in0.0 mm
02:43 AM 40.0°F4.4°C 33.1°F0.6°C 76% 8.9 mph ESE14.3 kmh ESE 12.0 mph19.3 kmh 30.05 in1017.6 mb 0.00 in0.0 mm 0.00 in0.0 mm 0.00 in0.0 mm
02:44 AM 40.1°F4.5°C 32.8°F0.4°C 75% 8.3 mph SE13.4 kmh SE 11.0 mph17.7 kmh 30.05 in1017.6 mb 0.00 in0.0 mm 0.00 in0.0 mm 0.00 in0.0 mm
02:45 AM 40.2°F4.6°C 32.9°F0.5°C 75% 8.0 mph ESE12.9 kmh ESE 10.0 mph16.1 kmh 30.05 in1017.6 mb 0.00 in0.0 mm 0.00 in0.0 mm 0.00 in0.0 mm
02:46 AM 40.2°F4.6°C 32.9°F0.5°C 75% 9.0 mph ESE14.5 kmh ESE 11.0 mph17.7 kmh 30.05 in1017.6 mb 0.00 in0.0 mm 0.00 in0.0 mm 0.00 in0.0 mm
02:47 AM 40.2°F4.6°C 32.9°F0.5°C 75% 8.0 mph ESE12.9 kmh ESE 10.0 mph16.1 kmh 30.05 in1017.6 mb 0.00 in0.0 mm 0.00 in0.0 mm 0.00 in0.0 mm
02:48 AM 40.2°F4.6°C 32.9°F0.5°C 75% 8.7 mph SE14.0 kmh SE 11.0 mph17.7 kmh 30.05 in1017.6 mb 0.00 in0.0 mm 0.00 in0.0 mm 0.00 in0.0 mm
02:49 AM 40.2°F4.6°C 32.9°F0.5°C 75% 8.0 mph ESE12.9 kmh ESE 11.0 mph17.7 kmh 30.05 in1017.6 mb 0.00 in0.0 mm 0.00 in0.0 mm 0.00 in0.0 mm
02:50 AM 40.2°F4.6°C 32.9°F0.5°C 75% 9.0 mph SE14.5 kmh SE 12.0 mph19.3 kmh 30.05 in1017.6 mb 0.00 in0.0 mm 0.00 in0.0 mm 0.00 in0.0 mm
02:51 AM 40.2°F4.6°C 32.9°F0.5°C 75% 7.0 mph ESE11.3 kmh ESE 11.0 mph17.7 kmh 30.05 in1017.6 mb 0.00 in0.0 mm 0.00 in0.0 mm 0.00 in0.0 mm
02:52 AM 40.2°F4.6°C 32.9°F0.5°C 75% 7.5 mph SE12.1 kmh SE 11.0 mph17.7 kmh 30.05 in1017.6 mb 0.00 in0.0 mm 0.00 in0.0 mm 0.00 in0.0 mm
02:53 AM 40.2°F4.6°C 32.9°F0.5°C 75% 5.8 mph SE9.3 kmh SE 11.0 mph17.7 kmh 30.05 in1017.6 mb 0.00 in0.0 mm 0.00 in0.0 mm 0.00 in0.0 mm
02:54 AM 40.2°F4.6°C 32.9°F0.5°C 75% 5.8 mph SE9.3 kmh SE 10.0 mph16.1 kmh 30.05 in1017.6 mb 0.00 in0.0 mm 0.00 in0.0 mm 0.00 in0.0 mm
02:55 AM 40.2°F4.6°C 32.9°F0.5°C 75% 9.0 mph SE14.5 kmh SE 11.0 mph17.7 kmh 30.05 in1017.6 mb 0.00 in0.0 mm 0.00 in0.0 mm 0.00 in0.0 mm
02:56 AM 40.2°F4.6°C 32.9°F0.5°C 75% 8.9 mph SE14.3 kmh SE 11.0 mph17.7 kmh 30.05 in1017.6 mb 0.00 in0.0 mm 0.00 in0.0 mm 0.00 in0.0 mm
02:57 AM 40.2°F4.6°C 32.9°F0.5°C 75% 7.8 mph SE12.6 kmh SE 11.0 mph17.7 kmh 30.05 in1017.6 mb 0.00 in0.0 mm 0.00 in0.0 mm 0.00 in0.0 mm
02:58 AM 40.2°F4.6°C 32.9°F0.5°C 75% 7.5 mph SE12.1 kmh SE 11.0 mph17.7 kmh 30.05 in1017.6 mb 0.00 in0.0 mm 0.00 in0.0 mm 0.00 in0.0 mm
02:59 AM 40.2°F4.6°C 32.9°F0.5°C 75% 8.9 mph SE14.3 kmh SE 11.0 mph17.7 kmh 30.05 in1017.6 mb 0.00 in0.0 mm 0.00 in0.0 mm 0.00 in0.0 mm
03:00 AM 40.2°F4.6°C 32.6°F0.3°C 74% 8.7 mph SE14.0 kmh SE 12.0 mph19.3 kmh 30.05 in1017.6 mb 0.00 in0.0 mm 0.00 in0.0 mm 0.00 in0.0 mm
03:01 AM 40.2°F4.6°C 32.6°F0.3°C 74% 8.9 mph SE14.3 kmh SE 12.0 mph19.3 kmh 30.05 in1017.6 mb 0.00 in0.0 mm 0.00 in0.0 mm 0.00 in0.0 mm
03:02 AM 40.2°F4.6°C 32.6°F0.3°C 74% 8.2 mph SE13.2 kmh SE 12.0 mph19.3 kmh 30.05 in1017.6 mb 0.00 in0.0 mm 0.00 in0.0 mm 0.00 in0.0 mm
03:03 AM 40.2°F4.6°C 32.6°F0.3°C 74% 7.2 mph SE11.6 kmh SE 10.0 mph16.1 kmh 30.05 in1017.6 mb 0.00 in0.0 mm 0.00 in0.0 mm 0.00 in0.0 mm
03:04 AM 40.2°F4.6°C 32.6°F0.3°C 74% 6.7 mph SE10.8 kmh SE 11.0 mph17.7 kmh 30.05 in1017.6 mb 0.00 in0.0 mm 0.00 in0.0 mm 0.00 in0.0 mm
03:05 AM 40.2°F4.6°C 32.6°F0.3°C 74% 6.3 mph SE10.1 kmh SE 11.0 mph17.7 kmh 30.05 in1017.6 mb 0.00 in0.0 mm 0.00 in0.0 mm 0.00 in0.0 mm
03:06 AM 40.1°F4.5°C 32.5°F0.3°C 74% 8.7 mph SE14.0 kmh SE 12.0 mph19.3 kmh 30.05 in1017.6 mb 0.00 in0.0 mm 0.00 in0.0 mm 0.00 in0.0 mm
03:07 AM 40.2°F4.6°C 32.6°F0.3°C 74% 8.1 mph SE13.0 kmh SE 11.0 mph17.7 kmh 30.05 in1017.6 mb 0.00 in0.0 mm 0.00 in0.0 mm 0.00 in0.0 mm
03:08 AM 40.2°F4.6°C 32.6°F0.3°C 74% 7.6 mph SE12.2 kmh SE 11.0 mph17.7 kmh 30.05 in1017.6 mb 0.00 in0.0 mm 0.00 in0.0 mm 0.00 in0.0 mm
03:09 AM 40.2°F4.6°C 32.6°F0.3°C 74% 8.2 mph SE13.2 kmh SE 12.0 mph19.3 kmh 30.05 in1017.6 mb 0.00 in0.0 mm 0.00 in0.0 mm 0.00 in0.0 mm
03:10 AM 40.2°F4.6°C 32.6°F0.3°C 74% 9.4 mph SE15.1 kmh SE 14.0 mph22.5 kmh 30.05 in1017.6 mb 0.00 in0.0 mm 0.00 in0.0 mm 0.00 in0.0 mm
03:11 AM 40.2°F4.6°C 32.6°F0.3°C 74% 9.5 mph SE15.3 kmh SE 12.0 mph19.3 kmh 30.05 in1017.6 mb 0.00 in0.0 mm 0.00 in0.0 mm 0.00 in0.0 mm
03:12 AM 40.2°F4.6°C 32.6°F0.3°C 74% 8.3 mph SE13.4 kmh SE 13.0 mph20.9 kmh 30.05 in1017.6 mb 0.00 in0.0 mm 0.00 in0.0 mm 0.00 in0.0 mm
03:13 AM 40.2°F4.6°C 32.2°F0.1°C 73% 10.0 mph SE16.1 kmh SE 13.0 mph20.9 kmh 30.05 in1017.6 mb 0.00 in0.0 mm 0.00 in0.0 mm 0.00 in0.0 mm
03:14 AM 40.3°F4.6°C 32.3°F0.2°C 73% 8.7 mph SE14.0 kmh SE 13.0 mph20.9 kmh 30.05 in1017.6 mb 0.00 in0.0 mm 0.00 in0.0 mm 0.00 in0.0 mm
03:15 AM 40.3°F4.6°C 32.3°F0.2°C 73% 9.3 mph SE15.0 kmh SE 11.0 mph17.7 kmh 30.05 in1017.6 mb 0.00 in0.0 mm 0.00 in0.0 mm 0.00 in0.0 mm
03:16 AM 40.3°F4.6°C 32.3°F0.2°C 73% 9.0 mph SE14.5 kmh SE 13.0 mph20.9 kmh 30.05 in1017.6 mb 0.00 in0.0 mm 0.00 in0.0 mm 0.00 in0.0 mm
03:17 AM 40.4°F4.7°C 32.4°F0.2°C 73% 8.1 mph SE13.0 kmh SE 13.0 mph20.9 kmh 30.04 in1017.3 mb 0.00 in0.0 mm 0.00 in0.0 mm 0.00 in0.0 mm
03:18 AM 40.4°F4.7°C 32.4°F0.2°C 73% 7.8 mph SE12.6 kmh SE 12.0 mph19.3 kmh 30.04 in1017.3 mb 0.00 in0.0 mm 0.00 in0.0 mm 0.00 in0.0 mm
03:19 AM 40.4°F4.7°C 32.4°F0.2°C 73% 9.1 mph SE14.6 kmh SE 12.0 mph19.3 kmh 30.04 in1017.3 mb 0.00 in0.0 mm 0.00 in0.0 mm 0.00 in0.0 mm
03:20 AM 40.3°F4.6°C 32.0°F0.0°C 72% 8.7 mph ESE14.0 kmh ESE 12.0 mph19.3 kmh 30.04 in1017.3 mb 0.00 in0.0 mm 0.00 in0.0 mm 0.00 in0.0 mm
03:21 AM 40.4°F4.7°C 32.1°F0.1°C 72% 5.9 mph SE9.5 kmh SE 11.0 mph17.7 kmh 30.04 in1017.3 mb 0.00 in0.0 mm 0.00 in0.0 mm 0.00 in0.0 mm
03:22 AM 40.4°F4.7°C 32.1°F0.1°C 72% 7.3 mph SE11.7 kmh SE 10.0 mph16.1 kmh 30.04 in1017.3 mb 0.00 in0.0 mm 0.00 in0.0 mm 0.00 in0.0 mm
03:23 AM 40.4°F4.7°C 32.1°F0.1°C 72% 8.2 mph ESE13.2 kmh ESE 10.0 mph16.1 kmh 30.04 in1017.3 mb 0.00 in0.0 mm 0.00 in0.0 mm 0.00 in0.0 mm
03:24 AM 40.4°F4.7°C 32.1°F0.1°C 72% 9.5 mph SE15.3 kmh SE 12.0 mph19.3 kmh 30.04 in1017.3 mb 0.00 in0.0 mm 0.00 in0.0 mm 0.00 in0.0 mm
03:25 AM 40.4°F4.7°C 32.1°F0.1°C 72% 9.4 mph SE15.1 kmh SE 12.0 mph19.3 kmh 30.04 in1017.3 mb 0.00 in0.0 mm 0.00 in0.0 mm 0.00 in0.0 mm
03:26 AM 40.4°F4.7°C 32.1°F0.1°C 72% 7.9 mph ESE12.7 kmh ESE 11.0 mph17.7 kmh 30.04 in1017.3 mb 0.00 in0.0 mm 0.00 in0.0 mm 0.00 in0.0 mm
03:27 AM 40.4°F4.7°C 32.1°F0.1°C 72% 9.9 mph SE15.9 kmh SE 12.0 mph19.3 kmh 30.04 in1017.3 mb 0.00 in0.0 mm 0.00 in0.0 mm 0.00 in0.0 mm
03:28 AM 40.4°F4.7°C 32.1°F0.1°C 72% 10.0 mph SE16.1 kmh SE 12.0 mph19.3 kmh 30.04 in1017.3 mb 0.00 in0.0 mm 0.00 in0.0 mm 0.00 in0.0 mm
03:29 AM 40.4°F4.7°C 32.1°F0.1°C 72% 8.0 mph SE12.9 kmh SE 13.0 mph20.9 kmh 30.04 in1017.3 mb 0.00 in0.0 mm 0.00 in0.0 mm 0.00 in0.0 mm
03:30 AM 40.4°F4.7°C 32.1°F0.1°C 72% 10.0 mph SE16.1 kmh SE 12.0 mph19.3 kmh 30.04 in1017.3 mb 0.00 in0.0 mm 0.00 in0.0 mm 0.00 in0.0 mm
03:31 AM 40.5°F4.7°C 31.8°F-0.1°C 71% 8.8 mph SE14.2 kmh SE 11.0 mph17.7 kmh 30.04 in1017.3 mb 0.00 in0.0 mm 0.00 in0.0 mm 0.00 in0.0 mm
03:32 AM 40.5°F4.7°C 31.8°F-0.1°C 71% 9.3 mph SE15.0 kmh SE 12.0 mph19.3 kmh 30.04 in1017.3 mb 0.00 in0.0 mm 0.00 in0.0 mm 0.00 in0.0 mm
03:33 AM 40.5°F4.7°C 31.8°F-0.1°C 71% 7.4 mph SE11.9 kmh SE 12.0 mph19.3 kmh 30.04 in1017.3 mb 0.00 in0.0 mm 0.00 in0.0 mm 0.00 in0.0 mm
03:34 AM 40.5°F4.7°C 31.8°F-0.1°C 71% 10.9 mph SE17.5 kmh SE 16.0 mph25.7 kmh 30.04 in1017.3 mb 0.00 in0.0 mm 0.00 in0.0 mm 0.00 in0.0 mm
03:35 AM 40.5°F4.7°C 31.8°F-0.1°C 71% 9.1 mph SE14.6 kmh SE 16.0 mph25.7 kmh 30.04 in1017.3 mb 0.00 in0.0 mm 0.00 in0.0 mm 0.00 in0.0 mm
03:36 AM 40.6°F4.8°C 31.9°F-0.1°C 71% 8.8 mph SE14.2 kmh SE 12.0 mph19.3 kmh 30.03 in1016.9 mb 0.00 in0.0 mm 0.00 in0.0 mm 0.00 in0.0 mm
03:37 AM 40.6°F4.8°C 31.9°F-0.1°C 71% 9.0 mph SE14.5 kmh SE 16.0 mph25.7 kmh 30.03 in1016.9 mb 0.00 in0.0 mm 0.00 in0.0 mm 0.00 in0.0 mm
03:38 AM 40.6°F4.8°C 31.9°F-0.1°C 71% 9.5 mph SE15.3 kmh SE 16.0 mph25.7 kmh 30.03 in1016.9 mb 0.00 in0.0 mm 0.00 in0.0 mm 0.00 in0.0 mm
03:39 AM 40.6°F4.8°C 31.9°F-0.1°C 71% 9.7 mph SE15.6 kmh SE 13.0 mph20.9 kmh 30.03 in1016.9 mb 0.00 in0.0 mm 0.00 in0.0 mm 0.00 in0.0 mm
03:40 AM 40.7°F4.8°C 32.0°F0.0°C 71% 11.8 mph SE19.0 kmh SE 14.0 mph22.5 kmh 30.03 in1016.9 mb 0.00 in0.0 mm 0.00 in0.0 mm 0.00 in0.0 mm
03:41 AM 40.7°F4.8°C 32.0°F0.0°C 71% 11.2 mph SE18.0 kmh SE 16.0 mph25.7 kmh 30.03 in1016.9 mb 0.00 in0.0 mm 0.00 in0.0 mm 0.00 in0.0 mm
03:42 AM 40.7°F4.8°C 32.0°F0.0°C 71% 10.2 mph SE16.4 kmh SE 16.0 mph25.7 kmh 30.03 in1016.9 mb 0.00 in0.0 mm 0.00 in0.0 mm 0.00 in0.0 mm
03:43 AM 40.8°F4.9°C 31.8°F-0.1°C 70% 10.5 mph SE16.9 kmh SE 15.0 mph24.1 kmh 30.03 in1016.9 mb 0.00 in0.0 mm 0.00 in0.0 mm 0.00 in0.0 mm
03:44 AM 40.8°F4.9°C 31.8°F-0.1°C 70% 11.5 mph SE18.5 kmh SE 15.0 mph24.1 kmh 30.03 in1016.9 mb 0.00 in0.0 mm 0.00 in0.0 mm 0.00 in0.0 mm
03:45 AM 40.8°F4.9°C 31.8°F-0.1°C 70% 8.5 mph SE13.7 kmh SE 15.0 mph24.1 kmh 30.03 in1016.9 mb 0.00 in0.0 mm 0.00 in0.0 mm 0.00 in0.0 mm
03:46 AM 40.8°F4.9°C 31.8°F-0.1°C 70% 11.2 mph SE18.0 kmh SE 14.0 mph22.5 kmh 30.03 in1016.9 mb 0.00 in0.0 mm 0.00 in0.0 mm 0.00 in0.0 mm
03:47 AM 40.9°F4.9°C 31.9°F-0.1°C 70% 11.5 mph SE18.5 kmh SE 14.0 mph22.5 kmh 30.03 in1016.9 mb 0.00 in0.0 mm 0.00 in0.0 mm 0.00 in0.0 mm
03:48 AM 40.8°F4.9°C 31.8°F-0.1°C 70% 11.4 mph SE18.3 kmh SE 15.0 mph24.1 kmh 30.03 in1016.9 mb 0.00 in0.0 mm 0.00 in0.0 mm 0.00 in0.0 mm
03:49 AM 40.9°F4.9°C 31.9°F-0.1°C 70% 10.2 mph SE16.4 kmh SE 15.0 mph24.1 kmh 30.03 in1016.9 mb 0.00 in0.0 mm 0.00 in0.0 mm 0.00 in0.0 mm
03:50 AM 40.9°F4.9°C 31.9°F-0.1°C 70% 9.2 mph SE14.8 kmh SE 13.0 mph20.9 kmh 30.03 in1016.9 mb 0.00 in0.0 mm 0.00 in0.0 mm 0.00 in0.0 mm
03:51 AM 40.9°F4.9°C 31.9°F-0.1°C 70% 11.0 mph SE17.7 kmh SE 14.0 mph22.5 kmh 30.03 in1016.9 mb 0.00 in0.0 mm 0.00 in0.0 mm 0.00 in0.0 mm
03:52 AM 40.9°F4.9°C 32.2°F0.1°C 71% 12.1 mph SE19.5 kmh SE 16.0 mph25.7 kmh 30.03 in1016.9 mb 0.00 in0.0 mm 0.00 in0.0 mm 0.00 in0.0 mm
03:53 AM 40.9°F4.9°C 31.9°F-0.1°C 70% 11.1 mph SE17.9 kmh SE 16.0 mph25.7 kmh 30.03 in1016.9 mb 0.00 in0.0 mm 0.00 in0.0 mm 0.00 in0.0 mm
03:54 AM 40.9°F4.9°C 32.2°F0.1°C 71% 11.8 mph SE19.0 kmh SE 14.0 mph22.5 kmh 30.03 in1016.9 mb 0.00 in0.0 mm 0.00 in0.0 mm 0.00 in0.0 mm
03:55 AM 40.9°F4.9°C 31.9°F-0.1°C 70% 11.6 mph SE18.7 kmh SE 14.0 mph22.5 kmh 30.03 in1016.9 mb 0.00 in0.0 mm 0.00 in0.0 mm 0.00 in0.0 mm
03:56 AM 40.9°F4.9°C 32.2°F0.1°C 71% 10.1 mph SE16.3 kmh SE 14.0 mph22.5 kmh 30.03 in1016.9 mb 0.00 in0.0 mm 0.00 in0.0 mm 0.00 in0.0 mm
03:57 AM 40.9°F4.9°C 32.2°F0.1°C 71% 8.1 mph SE13.0 kmh SE 14.0 mph22.5 kmh 30.03 in1016.9 mb 0.00 in0.0 mm 0.00 in0.0 mm 0.00 in0.0 mm
03:58 AM 40.9°F4.9°C 32.2°F0.1°C 71% 8.2 mph SE13.2 kmh SE 11.0 mph17.7 kmh 30.03 in1016.9 mb 0.00 in0.0 mm 0.00 in0.0 mm 0.00 in0.0 mm
03:59 AM 40.8°F4.9°C 32.1°F0.1°C 71% 9.0 mph SE14.5 kmh SE 14.0 mph22.5 kmh 30.02 in1016.6 mb 0.00 in0.0 mm 0.00 in0.0 mm 0.00 in0.0 mm
04:00 AM 40.8°F4.9°C 32.1°F0.1°C 71% 10.1 mph SE16.3 kmh SE 14.0 mph22.5 kmh 30.02 in1016.6 mb 0.00 in0.0 mm 0.00 in0.0 mm 0.00 in0.0 mm
04:01 AM 40.8°F4.9°C 32.1°F0.1°C 71% 9.6 mph SE15.4 kmh SE 14.0 mph22.5 kmh 30.02 in1016.6 mb 0.00 in0.0 mm 0.00 in0.0 mm 0.00 in0.0 mm
04:02 AM 40.8°F4.9°C 32.1°F0.1°C 71% 10.5 mph SE16.9 kmh SE 13.0 mph20.9 kmh 30.02 in1016.6 mb 0.00 in0.0 mm 0.00 in0.0 mm 0.00 in0.0 mm
04:03 AM 40.8°F4.9°C 32.1°F0.1°C 71% 9.0 mph SE14.5 kmh SE 13.0 mph20.9 kmh 30.02 in1016.6 mb 0.00 in0.0 mm 0.00 in0.0 mm 0.00 in0.0 mm
04:04 AM 40.8°F4.9°C 32.1°F0.1°C 71% 9.5 mph SE15.3 kmh SE 12.0 mph19.3 kmh 30.02 in1016.6 mb 0.00 in0.0 mm 0.00 in0.0 mm 0.00 in0.0 mm
04:05 AM 40.8°F4.9°C 32.1°F0.1°C 71% 10.0 mph SE16.1 kmh SE 14.0 mph22.5 kmh 30.02 in1016.6 mb 0.00 in0.0 mm 0.00 in0.0 mm 0.00 in0.0 mm
04:06 AM 40.7°F4.8°C 32.4°F0.2°C 72% 9.7 mph SE15.6 kmh SE 14.0 mph22.5 kmh 30.02 in1016.6 mb 0.00 in0.0 mm 0.00 in0.0 mm 0.00 in0.0 mm
04:07 AM 40.8°F4.9°C 32.5°F0.3°C 72% 10.1 mph SE16.3 kmh SE 14.0 mph22.5 kmh 30.02 in1016.6 mb 0.00 in0.0 mm 0.00 in0.0 mm 0.00 in0.0 mm
04:08 AM 40.7°F4.8°C 32.4°F0.2°C 72% 8.0 mph SE12.9 kmh SE 12.0 mph19.3 kmh 30.02 in1016.6 mb 0.00 in0.0 mm 0.00 in0.0 mm 0.00 in0.0 mm
04:09 AM 40.7°F4.8°C 32.4°F0.2°C 72% 9.3 mph SE15.0 kmh SE 12.0 mph19.3 kmh 30.02 in1016.6 mb 0.00 in0.0 mm 0.00 in0.0 mm 0.00 in0.0 mm
04:10 AM 40.7°F4.8°C 32.4°F0.2°C 72% 10.2 mph SE16.4 kmh SE 13.0 mph20.9 kmh 30.02 in1016.6 mb 0.00 in0.0 mm 0.00 in0.0 mm 0.00 in0.0 mm
04:11 AM 40.7°F4.8°C 32.4°F0.2°C 72% 7.4 mph SE11.9 kmh SE 13.0 mph20.9 kmh 30.02 in1016.6 mb 0.00 in0.0 mm 0.00 in0.0 mm 0.00 in0.0 mm
04:12 AM 40.8°F4.9°C 32.5°F0.3°C 72% 10.5 mph SE16.9 kmh SE 15.0 mph24.1 kmh 30.02 in1016.6 mb 0.00 in0.0 mm 0.00 in0.0 mm 0.00 in0.0 mm
04:13 AM 40.7°F4.8°C 32.4°F0.2°C 72% 12.0 mph SE19.3 kmh SE 15.0 mph24.1 kmh 30.02 in1016.6 mb 0.00 in0.0 mm 0.00 in0.0 mm 0.00 in0.0 mm
04:14 AM 40.8°F4.9°C 32.5°F0.3°C 72% 12.0 mph SE19.3 kmh SE 15.0 mph24.1 kmh 30.02 in1016.6 mb 0.00 in0.0 mm 0.00 in0.0 mm 0.00 in0.0 mm
04:15 AM 40.8°F4.9°C 32.5°F0.3°C 72% 9.0 mph SE14.5 kmh SE 12.0 mph19.3 kmh 30.02 in1016.6 mb 0.00 in0.0 mm 0.00 in0.0 mm 0.00 in0.0 mm
04:16 AM 40.9°F4.9°C 32.6°F0.3°C 72% 9.9 mph SE15.9 kmh SE 13.0 mph20.9 kmh 30.02 in1016.6 mb 0.00 in0.0 mm 0.00 in0.0 mm 0.00 in0.0 mm
04:17 AM 40.9°F4.9°C 32.6°F0.3°C 72% 10.5 mph SE16.9 kmh SE 16.0 mph25.7 kmh 30.02 in1016.6 mb 0.00 in0.0 mm 0.00 in0.0 mm 0.00 in0.0 mm
04:18 AM 40.9°F4.9°C 32.6°F0.3°C 72% 10.7 mph SE17.2 kmh SE 16.0 mph25.7 kmh 30.02 in1016.6 mb 0.00 in0.0 mm 0.00 in0.0 mm 0.00 in0.0 mm
04:19 AM 40.8°F4.9°C 32.5°F0.3°C 72% 10.1 mph SE16.3 kmh SE 16.0 mph25.7 kmh 30.02 in1016.6 mb 0.00 in0.0 mm 0.00 in0.0 mm 0.00 in0.0 mm
04:20 AM 40.9°F4.9°C 32.6°F0.3°C 72% 8.1 mph SE13.0 kmh SE 16.0 mph25.7 kmh 30.02 in1016.6 mb 0.00 in0.0 mm 0.00 in0.0 mm 0.00 in0.0 mm
04:21 AM 40.8°F4.9°C 32.5°F0.3°C 72% 9.3 mph SE15.0 kmh SE 13.0 mph20.9 kmh 30.02 in1016.6 mb 0.00 in0.0 mm 0.00 in0.0 mm 0.00 in0.0 mm
04:22 AM 40.8°F4.9°C 32.5°F0.3°C 72% 11.5 mph SE18.5 kmh SE 17.0 mph27.4 kmh 30.02 in1016.6 mb 0.00 in0.0 mm 0.00 in0.0 mm 0.00 in0.0 mm
04:23 AM 40.8°F4.9°C 32.5°F0.3°C 72% 9.6 mph SE15.4 kmh SE 17.0 mph27.4 kmh 30.02 in1016.6 mb 0.00 in0.0 mm 0.00 in0.0 mm 0.00 in0.0 mm
04:24 AM 40.8°F4.9°C 32.5°F0.3°C 72% 10.3 mph SE16.6 kmh SE 15.0 mph24.1 kmh 30.02 in1016.6 mb 0.00 in0.0 mm 0.00 in0.0 mm 0.00 in0.0 mm
04:25 AM 40.8°F4.9°C 32.5°F0.3°C 72% 8.6 mph SE13.8 kmh SE 15.0 mph24.1 kmh 30.02 in1016.6 mb 0.00 in0.0 mm 0.00 in0.0 mm 0.00 in0.0 mm
04:26 AM 40.8°F4.9°C 32.5°F0.3°C 72% 10.1 mph SE16.3 kmh SE 14.0 mph22.5 kmh 30.02 in1016.6 mb 0.00 in0.0 mm 0.00 in0.0 mm 0.00 in0.0 mm
04:27 AM 40.8°F4.9°C 32.5°F0.3°C 72% 9.7 mph SE15.6 kmh SE 15.0 mph24.1 kmh 30.02 in1016.6 mb 0.00 in0.0 mm 0.00 in0.0 mm 0.00 in0.0 mm
04:28 AM 40.8°F4.9°C 32.5°F0.3°C 72% 11.8 mph SE19.0 kmh SE 17.0 mph27.4 kmh 30.02 in1016.6 mb 0.00 in0.0 mm 0.00 in0.0 mm 0.00 in0.0 mm
04:29 AM 40.8°F4.9°C 32.5°F0.3°C 72% 11.9 mph SE19.2 kmh SE 18.0 mph29.0 kmh 30.01 in1016.3 mb 0.00 in0.0 mm 0.00 in0.0 mm 0.00 in0.0 mm
04:30 AM 40.8°F4.9°C 32.5°F0.3°C 72% 12.1 mph SE19.5 kmh SE 18.0 mph29.0 kmh 30.01 in1016.3 mb 0.00 in0.0 mm 0.00 in0.0 mm 0.00 in0.0 mm
04:31 AM 40.8°F4.9°C 32.5°F0.3°C 72% 11.9 mph SE19.2 kmh SE 15.0 mph24.1 kmh 30.01 in1016.3 mb 0.00 in0.0 mm 0.00 in0.0 mm 0.00 in0.0 mm
04:32 AM 40.8°F4.9°C 32.5°F0.3°C 72% 10.9 mph SE17.5 kmh SE 15.0 mph24.1 kmh 30.01 in1016.3 mb 0.00 in0.0 mm 0.00 in0.0 mm 0.00 in0.0 mm
04:33 AM 40.8°F4.9°C 32.5°F0.3°C 72% 11.0 mph SE17.7 kmh SE 15.0 mph24.1 kmh 30.01 in1016.3 mb 0.00 in0.0 mm 0.00 in0.0 mm 0.00 in0.0 mm
04:34 AM 40.8°F4.9°C 32.5°F0.3°C 72% 13.0 mph SE20.9 kmh SE 15.0 mph24.1 kmh 30.01 in1016.3 mb 0.00 in0.0 mm 0.00 in0.0 mm 0.00 in0.0 mm
04:35 AM 40.8°F4.9°C 32.5°F0.3°C 72% 13.0 mph SE20.9 kmh SE 17.0 mph27.4 kmh 30.01 in1016.3 mb 0.00 in0.0 mm 0.00 in0.0 mm 0.00 in0.0 mm
04:36 AM 40.8°F4.9°C 32.5°F0.3°C 72% 10.4 mph SE16.7 kmh SE 13.0 mph20.9 kmh 30.01 in1016.3 mb 0.00 in0.0 mm 0.00 in0.0 mm 0.00 in0.0 mm
04:37 AM 40.8°F4.9°C 32.5°F0.3°C 72% 9.7 mph SE15.6 kmh SE 13.0 mph20.9 kmh 30.01 in1016.3 mb 0.00 in0.0 mm 0.00 in0.0 mm 0.00 in0.0 mm
04:38 AM 40.8°F4.9°C 32.5°F0.3°C 72% 10.3 mph SE16.6 kmh SE 14.0 mph22.5 kmh 30.01 in1016.3 mb 0.00 in0.0 mm 0.00 in0.0 mm 0.00 in0.0 mm
04:39 AM 40.7°F4.8°C 32.4°F0.2°C 72% 12.0 mph SE19.3 kmh SE 18.0 mph29.0 kmh 30.01 in1016.3 mb 0.00 in0.0 mm 0.00 in0.0 mm 0.00 in0.0 mm
04:40 AM 40.8°F4.9°C 32.5°F0.3°C 72% 11.5 mph SE18.5 kmh SE 18.0 mph29.0 kmh 30.01 in1016.3 mb 0.00 in0.0 mm 0.00 in0.0 mm 0.00 in0.0 mm
04:41 AM 40.8°F4.9°C 32.5°F0.3°C 72% 11.7 mph SE18.8 kmh SE 17.0 mph27.4 kmh 30.01 in1016.3 mb 0.00 in0.0 mm 0.00 in0.0 mm 0.00 in0.0 mm
04:42 AM 40.8°F4.9°C 32.5°F0.3°C 72% 11.1 mph SE17.9 kmh SE 15.0 mph24.1 kmh 30.01 in1016.3 mb 0.00 in0.0 mm 0.00 in0.0 mm 0.00 in0.0 mm
04:43 AM 40.7°F4.8°C 32.4°F0.2°C 72% 12.0 mph SE19.3 kmh SE 19.0 mph30.6 kmh 30.01 in1016.3 mb 0.00 in0.0 mm 0.00 in0.0 mm 0.00 in0.0 mm
04:44 AM 40.8°F4.9°C 32.5°F0.3°C 72% 12.6 mph SE20.3 kmh SE 19.0 mph30.6 kmh 30.01 in1016.3 mb 0.00 in0.0 mm 0.00 in0.0 mm 0.00 in0.0 mm
04:45 AM 40.7°F4.8°C 32.4°F0.2°C 72% 10.1 mph SE16.3 kmh SE 16.0 mph25.7 kmh 30.01 in1016.3 mb 0.00 in0.0 mm 0.00 in0.0 mm 0.00 in0.0 mm
04:46 AM 40.8°F4.9°C 32.5°F0.3°C 72% 10.0 mph SE16.1 kmh SE 13.0 mph20.9 kmh 30.01 in1016.3 mb 0.00 in0.0 mm 0.00 in0.0 mm 0.00 in0.0 mm
04:47 AM 40.8°F4.9°C 32.5°F0.3°C 72% 11.3 mph SE18.2 kmh SE 15.0 mph24.1 kmh 30.01 in1016.3 mb 0.00 in0.0 mm 0.00 in0.0 mm 0.00 in0.0 mm
04:48 AM 40.8°F4.9°C 32.5°F0.3°C 72% 11.0 mph SE17.7 kmh SE 15.0 mph24.1 kmh 30.01 in1016.3 mb 0.00 in0.0 mm 0.00 in0.0 mm 0.00 in0.0 mm
04:49 AM 40.7°F4.8°C 32.4°F0.2°C 72% 11.0 mph SE17.7 kmh SE 15.0 mph24.1 kmh 30.01 in1016.3 mb 0.00 in0.0 mm 0.00 in0.0 mm 0.00 in0.0 mm
04:50 AM 40.8°F4.9°C 32.5°F0.3°C 72% 11.0 mph SE17.7 kmh SE 16.0 mph25.7 kmh 30.01 in1016.3 mb 0.00 in0.0 mm 0.00 in0.0 mm 0.00 in0.0 mm
04:51 AM 40.8°F4.9°C 32.5°F0.3°C 72% 10.6 mph SE17.1 kmh SE 13.0 mph20.9 kmh 30.01 in1016.3 mb 0.00 in0.0 mm 0.00 in0.0 mm 0.00 in0.0 mm
04:52 AM 40.8°F4.9°C 32.8°F0.4°C 73% 10.4 mph SE16.7 kmh SE 18.0 mph29.0 kmh 30.01 in1016.3 mb 0.00 in0.0 mm 0.00 in0.0 mm 0.00 in0.0 mm
04:53 AM 40.8°F4.9°C 32.8°F0.4°C 73% 12.4 mph SE20.0 kmh SE 18.0 mph29.0 kmh 30.01 in1016.3 mb 0.00 in0.0 mm 0.00 in0.0 mm 0.00 in0.0 mm
04:54 AM 40.8°F4.9°C 32.5°F0.3°C 72% 12.5 mph SE20.1 kmh SE 16.0 mph25.7 kmh 30.01 in1016.3 mb 0.00 in0.0 mm 0.00 in0.0 mm 0.00 in0.0 mm
04:55 AM 40.8°F4.9°C 32.5°F0.3°C 72% 12.3 mph SE19.8 kmh SE 17.0 mph27.4 kmh 30.01 in1016.3 mb 0.00 in0.0 mm 0.00 in0.0 mm 0.00 in0.0 mm
04:56 AM 40.9°F4.9°C 32.6°F0.3°C 72% 11.3 mph SE18.2 kmh SE 17.0 mph27.4 kmh 30.01 in1016.3 mb 0.00 in0.0 mm 0.00 in0.0 mm 0.00 in0.0 mm
04:57 AM 40.9°F4.9°C 32.6°F0.3°C 72% 11.0 mph SE17.7 kmh SE 14.0 mph22.5 kmh 30.00 in1015.9 mb 0.00 in0.0 mm 0.00 in0.0 mm 0.00 in0.0 mm
04:58 AM 40.9°F4.9°C 32.6°F0.3°C 72% 10.6 mph SE17.1 kmh SE 14.0 mph22.5 kmh 30.00 in1015.9 mb 0.00 in0.0 mm 0.00 in0.0 mm 0.00 in0.0 mm
04:59 AM 40.8°F4.9°C 32.5°F0.3°C 72% 11.4 mph SE18.3 kmh SE 17.0 mph27.4 kmh 30.00 in1015.9 mb 0.00 in0.0 mm 0.00 in0.0 mm 0.00 in0.0 mm
05:00 AM 40.8°F4.9°C 32.5°F0.3°C 72% 9.3 mph SE15.0 kmh SE 17.0 mph27.4 kmh 30.00 in1015.9 mb 0.00 in0.0 mm 0.00 in0.0 mm 0.00 in0.0 mm
05:01 AM 40.8°F4.9°C 32.5°F0.3°C 72% 10.8 mph SE17.4 kmh SE 14.0 mph22.5 kmh 30.00 in1015.9 mb 0.00 in0.0 mm 0.00 in0.0 mm 0.00 in0.0 mm
05:02 AM 40.8°F4.9°C 32.5°F0.3°C 72% 11.1 mph SE17.9 kmh SE 17.0 mph27.4 kmh 30.00 in1015.9 mb 0.00 in0.0 mm 0.00 in0.0 mm 0.00 in0.0 mm
05:03 AM 40.8°F4.9°C 32.5°F0.3°C 72% 11.8 mph SE19.0 kmh SE 17.0 mph27.4 kmh 30.00 in1015.9 mb 0.00 in0.0 mm 0.00 in0.0 mm 0.00 in0.0 mm
05:04 AM 40.8°F4.9°C 32.5°F0.3°C 72% 11.0 mph SE17.7 kmh SE 15.0 mph24.1 kmh 30.00 in1015.9 mb 0.00 in0.0 mm 0.00 in0.0 mm 0.00 in0.0 mm
05:05 AM 40.8°F4.9°C 32.5°F0.3°C 72% 10.7 mph SE17.2 kmh SE 15.0 mph24.1 kmh 30.00 in1015.9 mb 0.00 in0.0 mm 0.00 in0.0 mm 0.00 in0.0 mm
05:06 AM 40.8°F4.9°C 32.5°F0.3°C 72% 10.7 mph SE17.2 kmh SE 14.0 mph22.5 kmh 30.00 in1015.9 mb 0.00 in0.0 mm 0.00 in0.0 mm 0.00 in0.0 mm
05:07 AM 40.9°F4.9°C 32.6°F0.3°C 72% 11.3 mph SE18.2 kmh SE 15.0 mph24.1 kmh 30.00 in1015.9 mb 0.00 in0.0 mm 0.00 in0.0 mm 0.00 in0.0 mm
05:08 AM 40.8°F4.9°C 32.5°F0.3°C 72% 10.7 mph SE17.2 kmh SE 15.0 mph24.1 kmh 30.00 in1015.9 mb 0.00 in0.0 mm 0.00 in0.0 mm 0.00 in0.0 mm
05:09 AM 40.8°F4.9°C 32.5°F0.3°C 72% 10.8 mph SE17.4 kmh SE 14.0 mph22.5 kmh 30.00 in1015.9 mb 0.00 in0.0 mm 0.00 in0.0 mm 0.00 in0.0 mm
05:10 AM 40.8°F4.9°C 32.5°F0.3°C 72% 8.7 mph SE14.0 kmh SE 14.0 mph22.5 kmh 30.00 in1015.9 mb 0.00 in0.0 mm 0.00 in0.0 mm 0.00 in0.0 mm
05:11 AM 40.8°F4.9°C 32.5°F0.3°C 72% 12.0 mph SE19.3 kmh SE 15.0 mph24.1 kmh 30.00 in1015.9 mb 0.00 in0.0 mm 0.00 in0.0 mm 0.00 in0.0 mm
05:12 AM 40.8°F4.9°C 32.5°F0.3°C 72% 9.8 mph SE15.8 kmh SE 15.0 mph24.1 kmh 30.01 in1016.3 mb 0.00 in0.0 mm 0.00 in0.0 mm 0.00 in0.0 mm
05:13 AM 40.8°F4.9°C 32.8°F0.4°C 73% 9.7 mph SE15.6 kmh SE 16.0 mph25.7 kmh 30.01 in1016.3 mb 0.00 in0.0 mm 0.00 in0.0 mm 0.00 in0.0 mm
05:14 AM 40.8°F4.9°C 32.8°F0.4°C 73% 12.7 mph SE20.4 kmh SE 18.0 mph29.0 kmh 30.00 in1015.9 mb 0.00 in0.0 mm 0.00 in0.0 mm 0.00 in0.0 mm
05:15 AM 40.8°F4.9°C 32.8°F0.4°C 73% 10.6 mph SE17.1 kmh SE 18.0 mph29.0 kmh 30.00 in1015.9 mb 0.00 in0.0 mm 0.00 in0.0 mm 0.00 in0.0 mm
05:16 AM 40.8°F4.9°C 32.8°F0.4°C 73% 11.2 mph SE18.0 kmh SE 15.0 mph24.1 kmh 30.00 in1015.9 mb 0.00 in0.0 mm 0.00 in0.0 mm 0.00 in0.0 mm
05:17 AM 40.9°F4.9°C 32.9°F0.5°C 73% 10.7 mph SE17.2 kmh SE 17.0 mph27.4 kmh 30.00 in1015.9 mb 0.00 in0.0 mm 0.00 in0.0 mm 0.00 in0.0 mm
05:18 AM 40.9°F4.9°C 32.9°F0.5°C 73% 11.1 mph SE17.9 kmh SE 17.0 mph27.4 kmh 30.00 in1015.9 mb 0.00 in0.0 mm 0.00 in0.0 mm 0.00 in0.0 mm
05:19 AM 40.9°F4.9°C 32.6°F0.3°C 72% 10.1 mph SE16.3 kmh SE 15.0 mph24.1 kmh 30.00 in1015.9 mb 0.00 in0.0 mm 0.00 in0.0 mm 0.00 in0.0 mm
05:20 AM 40.9°F4.9°C 32.6°F0.3°C 72% 9.9 mph SE15.9 kmh SE 14.0 mph22.5 kmh 30.00 in1015.9 mb 0.00 in0.0 mm 0.00 in0.0 mm 0.00 in0.0 mm
05:21 AM 40.9°F4.9°C 32.9°F0.5°C 73% 10.0 mph SE16.1 kmh SE 14.0 mph22.5 kmh 30.00 in1015.9 mb 0.00 in0.0 mm 0.00 in0.0 mm 0.00 in0.0 mm
05:22 AM 40.9°F4.9°C 32.9°F0.5°C 73% 12.8 mph SE20.6 kmh SE 16.0 mph25.7 kmh 30.00 in1015.9 mb 0.00 in0.0 mm 0.00 in0.0 mm 0.00 in0.0 mm
05:23 AM 40.9°F4.9°C 32.9°F0.5°C 73% 10.4 mph SE16.7 kmh SE 16.0 mph25.7 kmh 30.00 in1015.9 mb 0.00 in0.0 mm 0.00 in0.0 mm 0.00 in0.0 mm
05:24 AM 40.9°F4.9°C 32.9°F0.5°C 73% 11.0 mph SE17.7 kmh SE 15.0 mph24.1 kmh 30.00 in1015.9 mb 0.00 in0.0 mm 0.00 in0.0 mm 0.00 in0.0 mm
05:25 AM 40.9°F4.9°C 32.9°F0.5°C 73% 10.2 mph SE16.4 kmh SE 15.0 mph24.1 kmh 30.00 in1015.9 mb 0.00 in0.0 mm 0.00 in0.0 mm 0.00 in0.0 mm
05:26 AM 40.8°F4.9°C 32.8°F0.4°C 73% 8.5 mph SE13.7 kmh SE 13.0 mph20.9 kmh 30.00 in1015.9 mb 0.00 in0.0 mm 0.00 in0.0 mm 0.00 in0.0 mm
05:27 AM 40.8°F4.9°C 32.8°F0.4°C 73% 9.3 mph SE15.0 kmh SE 12.0 mph19.3 kmh 30.00 in1015.9 mb 0.00 in0.0 mm 0.00 in0.0 mm 0.00 in0.0 mm
05:28 AM 40.9°F4.9°C 32.9°F0.5°C 73% 11.6 mph SE18.7 kmh SE 14.0 mph22.5 kmh 29.99 in1015.6 mb 0.00 in0.0 mm 0.00 in0.0 mm 0.00 in0.0 mm
05:29 AM 40.8°F4.9°C 32.8°F0.4°C 73% 11.2 mph SE18.0 kmh SE 17.0 mph27.4 kmh 29.99 in1015.6 mb 0.00 in0.0 mm 0.00 in0.0 mm 0.00 in0.0 mm
05:30 AM 40.8°F4.9°C 32.8°F0.4°C 73% 11.7 mph SE18.8 kmh SE 17.0 mph27.4 kmh 29.99 in1015.6 mb 0.00 in0.0 mm 0.00 in0.0 mm 0.00 in0.0 mm
05:31 AM 40.9°F4.9°C 32.6°F0.3°C 72% 10.9 mph SE17.5 kmh SE 17.0 mph27.4 kmh 29.99 in1015.6 mb 0.00 in0.0 mm 0.00 in0.0 mm 0.00 in0.0 mm
05:32 AM 40.9°F4.9°C 32.6°F0.3°C 72% 12.3 mph SE19.8 kmh SE 19.0 mph30.6 kmh 29.99 in1015.6 mb 0.00 in0.0 mm 0.00 in0.0 mm 0.00 in0.0 mm
05:33 AM 40.8°F4.9°C 32.5°F0.3°C 72% 11.8 mph SE19.0 kmh SE 19.0 mph30.6 kmh 29.99 in1015.6 mb 0.00 in0.0 mm 0.00 in0.0 mm 0.00 in0.0 mm
05:34 AM 40.9°F4.9°C 32.6°F0.3°C 72% 12.5 mph SE20.1 kmh SE 16.0 mph25.7 kmh 29.99 in1015.6 mb 0.00 in0.0 mm 0.00 in0.0 mm 0.00 in0.0 mm
05:35 AM 40.9°F4.9°C 32.6°F0.3°C 72% 9.4 mph SE15.1 kmh SE 16.0 mph25.7 kmh 29.98 in1015.2 mb 0.00 in0.0 mm 0.00 in0.0 mm 0.00 in0.0 mm
05:36 AM 40.9°F4.9°C 32.6°F0.3°C 72% 11.8 mph SE19.0 kmh SE 15.0 mph24.1 kmh 29.98 in1015.2 mb 0.00 in0.0 mm 0.00 in0.0 mm 0.00 in0.0 mm
05:37 AM 40.9°F4.9°C 32.6°F0.3°C 72% 10.5 mph SE16.9 kmh SE 16.0 mph25.7 kmh 29.98 in1015.2 mb 0.00 in0.0 mm 0.00 in0.0 mm 0.00 in0.0 mm
05:38 AM 40.9°F4.9°C 32.6°F0.3°C 72% 8.3 mph SE13.4 kmh SE 15.0 mph24.1 kmh 29.98 in1015.2 mb 0.00 in0.0 mm 0.00 in0.0 mm 0.00 in0.0 mm
05:39 AM 40.8°F4.9°C 32.8°F0.4°C 73% 12.5 mph SE20.1 kmh SE 17.0 mph27.4 kmh 29.98 in1015.2 mb 0.00 in0.0 mm 0.00 in0.0 mm 0.00 in0.0 mm
05:40 AM 40.8°F4.9°C 32.8°F0.4°C 73% 12.5 mph SE20.1 kmh SE 17.0 mph27.4 kmh 29.98 in1015.2 mb 0.00 in0.0 mm 0.00 in0.0 mm 0.00 in0.0 mm
05:41 AM 40.8°F4.9°C 32.8°F0.4°C 73% 11.4 mph SE18.3 kmh SE 16.0 mph25.7 kmh 29.98 in1015.2 mb 0.00 in0.0 mm 0.00 in0.0 mm 0.00 in0.0 mm
05:42 AM 40.8°F4.9°C 32.8°F0.4°C 73% 11.6 mph SE18.7 kmh SE 15.0 mph24.1 kmh 29.98 in1015.2 mb 0.00 in0.0 mm 0.00 in0.0 mm 0.00 in0.0 mm
05:43 AM 40.8°F4.9°C 32.8°F0.4°C 73% 10.4 mph SE16.7 kmh SE 14.0 mph22.5 kmh 29.98 in1015.2 mb 0.00 in0.0 mm 0.00 in0.0 mm 0.00 in0.0 mm
05:44 AM 40.8°F4.9°C 32.8°F0.4°C 73% 12.6 mph SE20.3 kmh SE 15.0 mph24.1 kmh 29.98 in1015.2 mb 0.00 in0.0 mm 0.00 in0.0 mm 0.00 in0.0 mm
05:45 AM 40.8°F4.9°C 32.8°F0.4°C 73% 11.6 mph SE18.7 kmh SE 16.0 mph25.7 kmh 29.98 in1015.2 mb 0.00 in0.0 mm 0.00 in0.0 mm 0.00 in0.0 mm
05:46 AM 40.8°F4.9°C 32.8°F0.4°C 73% 12.5 mph SE20.1 kmh SE 16.0 mph25.7 kmh 29.98 in1015.2 mb 0.00 in0.0 mm 0.00 in0.0 mm 0.00 in0.0 mm
05:47 AM 40.8°F4.9°C 32.8°F0.4°C 73% 9.3 mph SE15.0 kmh SE 16.0 mph25.7 kmh 29.98 in1015.2 mb 0.00 in0.0 mm 0.00 in0.0 mm 0.00 in0.0 mm
05:48 AM 40.7°F4.8°C 32.7°F0.4°C 73% 11.4 mph SE18.3 kmh SE 14.0 mph22.5 kmh 29.98 in1015.2 mb 0.00 in0.0 mm 0.00 in0.0 mm 0.00 in0.0 mm
05:49 AM 40.8°F4.9°C 32.8°F0.4°C 73% 12.0 mph SE19.3 kmh SE 16.0 mph25.7 kmh 29.98 in1015.2 mb 0.00 in0.0 mm 0.00 in0.0 mm 0.00 in0.0 mm
05:50 AM 40.7°F4.8°C 32.7°F0.4°C 73% 9.9 mph SE15.9 kmh SE 16.0 mph25.7 kmh 29.98 in1015.2 mb 0.00 in0.0 mm 0.00 in0.0 mm 0.00 in0.0 mm
05:51 AM 40.7°F4.8°C 32.7°F0.4°C 73% 12.5 mph SE20.1 kmh SE 16.0 mph25.7 kmh 29.98 in1015.2 mb 0.00 in0.0 mm 0.00 in0.0 mm 0.00 in0.0 mm
05:52 AM 40.7°F4.8°C 32.7°F0.4°C 73% 13.1 mph SE21.1 kmh SE 17.0 mph27.4 kmh 29.98 in1015.2 mb 0.00 in0.0 mm 0.00 in0.0 mm 0.00 in0.0 mm
05:53 AM 40.8°F4.9°C 32.8°F0.4°C 73% 12.5 mph SE20.1 kmh SE 20.0 mph32.2 kmh 29.98 in1015.2 mb 0.00 in0.0 mm 0.00 in0.0 mm 0.00 in0.0 mm
05:54 AM 40.7°F4.8°C 32.7°F0.4°C 73% 10.2 mph SE16.4 kmh SE 20.0 mph32.2 kmh 29.98 in1015.2 mb 0.00 in0.0 mm 0.00 in0.0 mm 0.00 in0.0 mm
05:55 AM 40.8°F4.9°C 32.8°F0.4°C 73% 12.1 mph SE19.5 kmh SE 16.0 mph25.7 kmh 29.98 in1015.2 mb 0.00 in0.0 mm 0.00 in0.0 mm 0.00 in0.0 mm
05:56 AM 40.8°F4.9°C 32.8°F0.4°C 73% 11.2 mph SE18.0 kmh SE 16.0 mph25.7 kmh 29.98 in1015.2 mb 0.00 in0.0 mm 0.00 in0.0 mm 0.00 in0.0 mm
05:57 AM 40.8°F4.9°C 32.8°F0.4°C 73% 12.4 mph SE20.0 kmh SE 16.0 mph25.7 kmh 29.98 in1015.2 mb 0.00 in0.0 mm 0.00 in0.0 mm 0.00 in0.0 mm
05:58 AM 40.8°F4.9°C 32.8°F0.4°C 73% 14.2 mph SE22.9 kmh SE 19.0 mph30.6 kmh 29.98 in1015.2 mb 0.00 in0.0 mm 0.00 in0.0 mm 0.00 in0.0 mm
05:59 AM 40.8°F4.9°C 32.8°F0.4°C 73% 11.5 mph SE18.5 kmh SE 19.0 mph30.6 kmh 29.98 in1015.2 mb 0.00 in0.0 mm 0.00 in0.0 mm 0.00 in0.0 mm
06:00 AM 40.8°F4.9°C 32.8°F0.4°C 73% 9.4 mph SE15.1 kmh SE 18.0 mph29.0 kmh 29.98 in1015.2 mb 0.00 in0.0 mm 0.00 in0.0 mm 0.00 in0.0 mm
06:01 AM 40.8°F4.9°C 32.8°F0.4°C 73% 11.1 mph SE17.9 kmh SE 15.0 mph24.1 kmh 29.98 in1015.2 mb 0.00 in0.0 mm 0.00 in0.0 mm 0.00 in0.0 mm
06:02 AM 40.8°F4.9°C 32.8°F0.4°C 73% 11.9 mph SE19.2 kmh SE 15.0 mph24.1 kmh 29.98 in1015.2 mb 0.00 in0.0 mm 0.00 in0.0 mm 0.00 in0.0 mm
06:03 AM 40.8°F4.9°C 32.8°F0.4°C 73% 10.6 mph SE17.1 kmh SE 16.0 mph25.7 kmh 29.98 in1015.2 mb 0.00 in0.0 mm 0.00 in0.0 mm 0.00 in0.0 mm
06:04 AM 40.8°F4.9°C 32.8°F0.4°C 73% 10.5 mph SE16.9 kmh SE 16.0 mph25.7 kmh 29.98 in1015.2 mb 0.00 in0.0 mm 0.00 in0.0 mm 0.00 in0.0 mm
06:05 AM 40.8°F4.9°C 32.8°F0.4°C 73% 10.5 mph SE16.9 kmh SE 14.0 mph22.5 kmh 29.98 in1015.2 mb 0.00 in0.0 mm 0.00 in0.0 mm 0.00 in0.0 mm
06:06 AM 40.8°F4.9°C 32.8°F0.4°C 73% 9.7 mph SE15.6 kmh SE 14.0 mph22.5 kmh 29.98 in1015.2 mb 0.00 in0.0 mm 0.00 in0.0 mm 0.00 in0.0 mm
06:07 AM 40.8°F4.9°C 32.8°F0.4°C 73% 12.2 mph SE19.6 kmh SE 15.0 mph24.1 kmh 29.98 in1015.2 mb 0.00 in0.0 mm 0.00 in0.0 mm 0.00 in0.0 mm
06:08 AM 40.8°F4.9°C 32.8°F0.4°C 73% 11.7 mph SE18.8 kmh SE 15.0 mph24.1 kmh 29.98 in1015.2 mb 0.00 in0.0 mm 0.00 in0.0 mm 0.00 in0.0 mm
06:09 AM 40.8°F4.9°C 32.8°F0.4°C 73% 10.5 mph SE16.9 kmh SE 15.0 mph24.1 kmh 29.98 in1015.2 mb 0.00 in0.0 mm 0.00 in0.0 mm 0.00 in0.0 mm
06:10 AM 40.8°F4.9°C 32.8°F0.4°C 73% 11.7 mph SE18.8 kmh SE 15.0 mph24.1 kmh 29.98 in1015.2 mb 0.00 in0.0 mm 0.00 in0.0 mm 0.00 in0.0 mm
06:11 AM 40.8°F4.9°C 32.8°F0.4°C 73% 11.4 mph SE18.3 kmh SE 16.0 mph25.7 kmh 29.98 in1015.2 mb 0.00 in0.0 mm 0.00 in0.0 mm 0.00 in0.0 mm
06:12 AM 40.8°F4.9°C 32.8°F0.4°C 73% 11.5 mph SE18.5 kmh SE 16.0 mph25.7 kmh 29.98 in1015.2 mb 0.00 in0.0 mm 0.00 in0.0 mm 0.00 in0.0 mm
06:13 AM 40.8°F4.9°C 32.8°F0.4°C 73% 13.5 mph SE21.7 kmh SE 20.0 mph32.2 kmh 29.98 in1015.2 mb 0.00 in0.0 mm 0.00 in0.0 mm 0.00 in0.0 mm
06:14 AM 40.8°F4.9°C 32.8°F0.4°C 73% 13.1 mph SE21.1 kmh SE 20.0 mph32.2 kmh 29.97 in1014.9 mb 0.00 in0.0 mm 0.00 in0.0 mm 0.00 in0.0 mm
06:15 AM 40.9°F4.9°C 32.9°F0.5°C 73% 13.2 mph SE21.2 kmh SE 20.0 mph32.2 kmh 29.97 in1014.9 mb 0.00 in0.0 mm 0.00 in0.0 mm 0.00 in0.0 mm
06:16 AM 40.9°F4.9°C 32.9°F0.5°C 73% 10.9 mph SE17.5 kmh SE 17.0 mph27.4 kmh 29.97 in1014.9 mb 0.00 in0.0 mm 0.00 in0.0 mm 0.00 in0.0 mm
06:17 AM 40.9°F4.9°C 32.9°F0.5°C 73% 11.8 mph SE19.0 kmh SE 14.0 mph22.5 kmh 29.97 in1014.9 mb 0.00 in0.0 mm 0.00 in0.0 mm 0.00 in0.0 mm
06:18 AM 40.9°F4.9°C 32.9°F0.5°C 73% 11.0 mph SE17.7 kmh SE 14.0 mph22.5 kmh 29.97 in1014.9 mb 0.00 in0.0 mm 0.00 in0.0 mm 0.00 in0.0 mm
06:19 AM 40.9°F4.9°C 32.9°F0.5°C 73% 12.4 mph SE20.0 kmh SE 18.0 mph29.0 kmh 29.97 in1014.9 mb 0.00 in0.0 mm 0.00 in0.0 mm 0.00 in0.0 mm
06:20 AM 41.0°F5.0°C 33.0°F0.6°C 73% 13.7 mph SE22.0 kmh SE 20.0 mph32.2 kmh 29.97 in1014.9 mb 0.00 in0.0 mm 0.00 in0.0 mm 0.00 in0.0 mm
06:21 AM 41.0°F5.0°C 33.0°F0.6°C 73% 13.3 mph SE21.4 kmh SE 20.0 mph32.2 kmh 29.97 in1014.9 mb 0.00 in0.0 mm 0.00 in0.0 mm 0.00 in0.0 mm
06:22 AM 41.0°F5.0°C 33.0°F0.6°C 73% 14.3 mph SE23.0 kmh SE 18.0 mph29.0 kmh 29.98 in1015.2 mb 0.00 in0.0 mm 0.00 in0.0 mm 0.00 in0.0 mm
06:23 AM 41.0°F5.0°C 33.0°F0.6°C 73% 13.4 mph SE21.6 kmh SE 18.0 mph29.0 kmh 29.97 in1014.9 mb 0.00 in0.0 mm 0.00 in0.0 mm 0.00 in0.0 mm
06:24 AM 41.0°F5.0°C 33.0°F0.6°C 73% 12.9 mph SE20.8 kmh SE 19.0 mph30.6 kmh 29.97 in1014.9 mb 0.00 in0.0 mm 0.00 in0.0 mm 0.00 in0.0 mm
06:25 AM 41.0°F5.0°C 33.0°F0.6°C 73% 12.9 mph SE20.8 kmh SE 19.0 mph30.6 kmh 29.97 in1014.9 mb 0.00 in0.0 mm 0.00 in0.0 mm 0.00 in0.0 mm
06:26 AM 41.1°F5.1°C 33.1°F0.6°C 73% 12.7 mph SE20.4 kmh SE 16.0 mph25.7 kmh 29.97 in1014.9 mb 0.00 in0.0 mm 0.00 in0.0 mm 0.00 in0.0 mm
06:27 AM 41.1°F5.1°C 33.1°F0.6°C 73% 13.0 mph SE20.9 kmh SE 18.0 mph29.0 kmh 29.97 in1014.9 mb 0.00 in0.0 mm 0.00 in0.0 mm 0.00 in0.0 mm
06:28 AM 41.1°F5.1°C 33.1°F0.6°C 73% 14.4 mph SE23.2 kmh SE 18.0 mph29.0 kmh 29.97 in1014.9 mb 0.00 in0.0 mm 0.00 in0.0 mm 0.00 in0.0 mm
06:29 AM 41.1°F5.1°C 33.1°F0.6°C 73% 10.5 mph SE16.9 kmh SE 18.0 mph29.0 kmh 29.97 in1014.9 mb 0.00 in0.0 mm 0.00 in0.0 mm 0.00 in0.0 mm
06:30 AM 41.1°F5.1°C 33.1°F0.6°C 73% 11.5 mph SE18.5 kmh SE 16.0 mph25.7 kmh 29.97 in1014.9 mb 0.00 in0.0 mm 0.00 in0.0 mm 0.00 in0.0 mm
06:31 AM 41.1°F5.1°C 33.1°F0.6°C 73% 10.8 mph SE17.4 kmh SE 16.0 mph25.7 kmh 29.97 in1014.9 mb 0.00 in0.0 mm 0.00 in0.0 mm 0.00 in0.0 mm
06:32 AM 41.1°F5.1°C 33.1°F0.6°C 73% 12.7 mph SE20.4 kmh SE 18.0 mph29.0 kmh 29.97 in1014.9 mb 0.00 in0.0 mm 0.00 in0.0 mm 0.00 in0.0 mm
06:33 AM 41.1°F5.1°C 33.1°F0.6°C 73% 12.4 mph SE20.0 kmh SE 19.0 mph30.6 kmh 29.97 in1014.9 mb 0.00 in0.0 mm 0.00 in0.0 mm 0.00 in0.0 mm
06:34 AM 41.1°F5.1°C 33.1°F0.6°C 73% 10.9 mph SE17.5 kmh SE 19.0 mph30.6 kmh 29.97 in1014.9 mb 0.00 in0.0 mm 0.00 in0.0 mm 0.00 in0.0 mm
06:35 AM 41.1°F5.1°C 33.1°F0.6°C 73% 13.5 mph SE21.7 kmh SE 18.0 mph29.0 kmh 29.97 in1014.9 mb 0.00 in0.0 mm 0.00 in0.0 mm 0.00 in0.0 mm
06:36 AM 41.1°F5.1°C 33.1°F0.6°C 73% 12.0 mph SE19.3 kmh SE 18.0 mph29.0 kmh 29.97 in1014.9 mb 0.00 in0.0 mm 0.00 in0.0 mm 0.00 in0.0 mm
06:37 AM 41.1°F5.1°C 33.1°F0.6°C 73% 10.2 mph SE16.4 kmh SE 17.0 mph27.4 kmh 29.97 in1014.9 mb 0.00 in0.0 mm 0.00 in0.0 mm 0.00 in0.0 mm
06:38 AM 41.1°F5.1°C 33.1°F0.6°C 73% 11.4 mph SE18.3 kmh SE 17.0 mph27.4 kmh 29.97 in1014.9 mb 0.00 in0.0 mm 0.00 in0.0 mm 0.00 in0.0 mm
06:39 AM 41.1°F5.1°C 33.1°F0.6°C 73% 13.6 mph SE21.9 kmh SE 18.0 mph29.0 kmh 29.97 in1014.9 mb 0.00 in0.0 mm 0.00 in0.0 mm 0.00 in0.0 mm
06:40 AM 41.1°F5.1°C 33.1°F0.6°C 73% 12.9 mph SE20.8 kmh SE 20.0 mph32.2 kmh 29.97 in1014.9 mb 0.00 in0.0 mm 0.00 in0.0 mm 0.00 in0.0 mm
06:41 AM 41.2°F5.1°C 33.2°F0.7°C 73% 13.2 mph SE21.2 kmh SE 20.0 mph32.2 kmh 29.97 in1014.9 mb 0.00 in0.0 mm 0.00 in0.0 mm 0.00 in0.0 mm
06:42 AM 41.2°F5.1°C 33.2°F0.7°C 73% 13.4 mph SE21.6 kmh SE 17.0 mph27.4 kmh 29.97 in1014.9 mb 0.00 in0.0 mm 0.00 in0.0 mm 0.00 in0.0 mm
06:43 AM 41.2°F5.1°C 33.2°F0.7°C 73% 12.3 mph SE19.8 kmh SE 17.0 mph27.4 kmh 29.97 in1014.9 mb 0.00 in0.0 mm 0.00 in0.0 mm 0.00 in0.0 mm
06:44 AM 41.2°F5.1°C 33.2°F0.7°C 73% 9.4 mph SE15.1 kmh SE 16.0 mph25.7 kmh 29.96 in1014.6 mb 0.00 in0.0 mm 0.00 in0.0 mm 0.00 in0.0 mm
06:45 AM 41.3°F5.2°C 33.3°F0.7°C 73% 13.4 mph SE21.6 kmh SE 18.0 mph29.0 kmh 29.96 in1014.6 mb 0.00 in0.0 mm 0.00 in0.0 mm 0.00 in0.0 mm
06:46 AM 41.2°F5.1°C 33.2°F0.7°C 73% 11.3 mph SE18.2 kmh SE 18.0 mph29.0 kmh 29.96 in1014.6 mb 0.00 in0.0 mm 0.00 in0.0 mm 0.00 in0.0 mm
06:47 AM 41.3°F5.2°C 33.3°F0.7°C 73% 11.7 mph SE18.8 kmh SE 16.0 mph25.7 kmh 29.97 in1014.9 mb 0.00 in0.0 mm 0.00 in0.0 mm 0.00 in0.0 mm
06:48 AM 41.3°F5.2°C 33.3°F0.7°C 73% 12.3 mph SE19.8 kmh SE 18.0 mph29.0 kmh 29.97 in1014.9 mb 0.00 in0.0 mm 0.00 in0.0 mm 0.00 in0.0 mm
06:49 AM 41.3°F5.2°C 33.3°F0.7°C 73% 10.5 mph SE16.9 kmh SE 18.0 mph29.0 kmh 29.97 in1014.9 mb 0.00 in0.0 mm 0.00 in0.0 mm 0.00 in0.0 mm
06:50 AM 41.3°F5.2°C 33.3°F0.7°C 73% 11.2 mph SE18.0 kmh SE 16.0 mph25.7 kmh 29.97 in1014.9 mb 0.00 in0.0 mm 0.00 in0.0 mm 0.00 in0.0 mm
06:51 AM 41.3°F5.2°C 33.3°F0.7°C 73% 11.5 mph SE18.5 kmh SE 16.0 mph25.7 kmh 29.97 in1014.9 mb 0.00 in0.0 mm 0.00 in0.0 mm 0.00 in0.0 mm
06:52 AM 41.3°F5.2°C 33.3°F0.7°C 73% 10.7 mph SE17.2 kmh SE 16.0 mph25.7 kmh 29.97 in1014.9 mb 0.00 in0.0 mm 0.00 in0.0 mm 0.00 in0.0 mm
06:53 AM 41.3°F5.2°C 33.3°F0.7°C 73% 11.9 mph SE19.2 kmh SE 17.0 mph27.4 kmh 29.97 in1014.9 mb 0.00 in0.0 mm 0.00 in0.0 mm 0.00 in0.0 mm
06:54 AM 41.3°F5.2°C 33.3°F0.7°C 73% 13.2 mph SE21.2 kmh SE 18.0 mph29.0 kmh 29.96 in1014.6 mb 0.00 in0.0 mm 0.00 in0.0 mm 0.00 in0.0 mm
06:55 AM 41.4°F5.2°C 33.4°F0.8°C 73% 10.8 mph SE17.4 kmh SE 18.0 mph29.0 kmh 29.96 in1014.6 mb 0.00 in0.0 mm 0.00 in0.0 mm 0.00 in0.0 mm
06:56 AM 41.4°F5.2°C 33.4°F0.8°C 73% 11.1 mph SE17.9 kmh SE 17.0 mph27.4 kmh 29.96 in1014.6 mb 0.00 in0.0 mm 0.00 in0.0 mm 0.00 in0.0 mm
06:57 AM 41.5°F5.3°C 33.5°F0.8°C 73% 12.4 mph SE20.0 kmh SE 17.0 mph27.4 kmh 29.96 in1014.6 mb 0.00 in0.0 mm 0.00 in0.0 mm 0.00 in0.0 mm
06:58 AM 41.5°F5.3°C 33.5°F0.8°C 73% 12.6 mph SE20.3 kmh SE 16.0 mph25.7 kmh 29.96 in1014.6 mb 0.00 in0.0 mm 0.00 in0.0 mm 0.00 in0.0 mm
06:59 AM 41.5°F5.3°C 33.5°F0.8°C 73% 11.2 mph SE18.0 kmh SE 16.0 mph25.7 kmh 29.96 in1014.6 mb 0.00 in0.0 mm 0.00 in0.0 mm 0.00 in0.0 mm
07:00 AM 41.6°F5.3°C 33.6°F0.9°C 73% 12.9 mph SE20.8 kmh SE 20.0 mph32.2 kmh 29.96 in1014.6 mb 0.00 in0.0 mm 0.00 in0.0 mm 0.00 in0.0 mm
07:01 AM 41.6°F5.3°C 33.6°F0.9°C 73% 12.4 mph SE20.0 kmh SE 20.0 mph32.2 kmh 29.96 in1014.6 mb 0.00 in0.0 mm 0.00 in0.0 mm 0.00 in0.0 mm
07:02 AM 41.6°F5.3°C 33.6°F0.9°C 73% 15.5 mph SE24.9 kmh SE 22.0 mph35.4 kmh 29.96 in1014.6 mb 0.00 in0.0 mm 0.00 in0.0 mm 0.00 in0.0 mm
07:03 AM 41.7°F5.4°C 33.4°F0.8°C 72% 15.7 mph SE25.3 kmh SE 22.0 mph35.4 kmh 29.96 in1014.6 mb 0.00 in0.0 mm 0.00 in0.0 mm 0.00 in0.0 mm
07:04 AM 41.7°F5.4°C 33.4°F0.8°C 72% 15.7 mph SE25.3 kmh SE 20.0 mph32.2 kmh 29.96 in1014.6 mb 0.00 in0.0 mm 0.00 in0.0 mm 0.00 in0.0 mm
07:05 AM 41.8°F5.4°C 33.4°F0.8°C 72% 14.7 mph SE23.7 kmh SE 22.0 mph35.4 kmh 29.96 in1014.6 mb 0.00 in0.0 mm 0.00 in0.0 mm 0.00 in0.0 mm
07:06 AM 41.8°F5.4°C 33.4°F0.8°C 72% 13.3 mph SE21.4 kmh SE 22.0 mph35.4 kmh 29.96 in1014.6 mb 0.00 in0.0 mm 0.00 in0.0 mm 0.00 in0.0 mm
07:07 AM 41.8°F5.4°C 33.4°F0.8°C 72% 12.1 mph SE19.5 kmh SE 17.0 mph27.4 kmh 29.96 in1014.6 mb 0.00 in0.0 mm 0.00 in0.0 mm 0.00 in0.0 mm
07:08 AM 41.9°F5.5°C 33.5°F0.8°C 72% 12.8 mph SE20.6 kmh SE 17.0 mph27.4 kmh 29.96 in1014.6 mb 0.00 in0.0 mm 0.00 in0.0 mm 0.00 in0.0 mm
07:09 AM 41.9°F5.5°C 33.5°F0.8°C 72% 10.8 mph SE17.4 kmh SE 17.0 mph27.4 kmh 29.96 in1014.6 mb 0.00 in0.0 mm 0.00 in0.0 mm 0.00 in0.0 mm
07:10 AM 41.9°F5.5°C 33.5°F0.8°C 72% 10.4 mph SE16.7 kmh SE 17.0 mph27.4 kmh 29.96 in1014.6 mb 0.00 in0.0 mm 0.00 in0.0 mm 0.00 in0.0 mm
07:11 AM 41.9°F5.5°C 33.9°F1.1°C 73% 10.8 mph SE17.4 kmh SE 17.0 mph27.4 kmh 29.96 in1014.6 mb 0.00 in0.0 mm 0.00 in0.0 mm 0.00 in0.0 mm
07:12 AM 41.9°F5.5°C 33.9°F1.1°C 73% 12.2 mph SE19.6 kmh SE 17.0 mph27.4 kmh 29.96 in1014.6 mb 0.00 in0.0 mm 0.00 in0.0 mm 0.00 in0.0 mm
07:13 AM 41.9°F5.5°C 33.9°F1.1°C 73% 12.2 mph SE19.6 kmh SE 19.0 mph30.6 kmh 29.96 in1014.6 mb 0.00 in0.0 mm 0.00 in0.0 mm 0.00 in0.0 mm
07:14 AM 42.0°F5.6°C 34.0°F1.1°C 73% 12.0 mph SE19.3 kmh SE 19.0 mph30.6 kmh 29.96 in1014.6 mb 0.00 in0.0 mm 0.00 in0.0 mm 0.00 in0.0 mm
07:15 AM 42.0°F5.6°C 34.0°F1.1°C 73% 12.2 mph SE19.6 kmh SE 16.0 mph25.7 kmh 29.96 in1014.6 mb 0.00 in0.0 mm 0.00 in0.0 mm 0.00 in0.0 mm
07:16 AM 42.0°F5.6°C 33.6°F0.9°C 72% 14.1 mph SE22.7 kmh SE 19.0 mph30.6 kmh 29.96 in1014.6 mb 0.00 in0.0 mm 0.00 in0.0 mm 0.00 in0.0 mm
07:17 AM 42.0°F5.6°C 34.0°F1.1°C 73% 12.5 mph SE20.1 kmh SE 20.0 mph32.2 kmh 29.96 in1014.6 mb 0.00 in0.0 mm 0.00 in0.0 mm 0.00 in0.0 mm
07:18 AM 42.0°F5.6°C 34.0°F1.1°C 73% 12.9 mph SE20.8 kmh SE 20.0 mph32.2 kmh 29.96 in1014.6 mb 0.00 in0.0 mm 0.00 in0.0 mm 0.00 in0.0 mm
07:19 AM 42.1°F5.6°C 34.1°F1.2°C 73% 12.5 mph SE20.1 kmh SE 18.0 mph29.0 kmh 29.96 in1014.6 mb 0.00 in0.0 mm 0.00 in0.0 mm 0.00 in0.0 mm
07:20 AM 42.1°F5.6°C 34.1°F1.2°C 73% 11.2 mph SE18.0 kmh SE 16.0 mph25.7 kmh 29.96 in1014.6 mb 0.00 in0.0 mm 0.00 in0.0 mm 0.00 in0.0 mm
07:21 AM 42.1°F5.6°C 34.1°F1.2°C 73% 12.2 mph SE19.6 kmh SE 16.0 mph25.7 kmh 29.96 in1014.6 mb 0.00 in0.0 mm 0.00 in0.0 mm 0.00 in0.0 mm
07:22 AM 42.1°F5.6°C 33.7°F0.9°C 72% 14.3 mph SE23.0 kmh SE 18.0 mph29.0 kmh 29.96 in1014.6 mb 0.00 in0.0 mm 0.00 in0.0 mm 0.00 in0.0 mm
07:23 AM 42.2°F5.7°C 33.8°F1.0°C 72% 14.7 mph SE23.7 kmh SE 19.0 mph30.6 kmh 29.96 in1014.6 mb 0.00 in0.0 mm 0.00 in0.0 mm 0.00 in0.0 mm
07:24 AM 42.2°F5.7°C 33.8°F1.0°C 72% 14.3 mph SE23.0 kmh SE 19.0 mph30.6 kmh 29.96 in1014.6 mb 0.00 in0.0 mm 0.00 in0.0 mm 0.00 in0.0 mm
07:25 AM 42.2°F5.7°C 33.8°F1.0°C 72% 11.6 mph SE18.7 kmh SE 17.0 mph27.4 kmh 29.96 in1014.6 mb 0.00 in0.0 mm 0.00 in0.0 mm 0.00 in0.0 mm
07:26 AM 42.2°F5.7°C 33.8°F1.0°C 72% 13.0 mph SE20.9 kmh SE 17.0 mph27.4 kmh 29.96 in1014.6 mb 0.00 in0.0 mm 0.00 in0.0 mm 0.00 in0.0 mm
07:27 AM 42.2°F5.7°C 33.8°F1.0°C 72% 10.9 mph SE17.5 kmh SE 17.0 mph27.4 kmh 29.96 in1014.6 mb 0.00 in0.0 mm 0.00 in0.0 mm 0.00 in0.0 mm
07:28 AM 42.2°F5.7°C 34.2°F1.2°C 73% 11.7 mph SE18.8 kmh SE 17.0 mph27.4 kmh 29.96 in1014.6 mb 0.00 in0.0 mm 0.00 in0.0 mm 0.00 in0.0 mm
07:29 AM 42.2°F5.7°C 34.2°F1.2°C 73% 12.2 mph SE19.6 kmh SE 18.0 mph29.0 kmh 29.96 in1014.6 mb 0.00 in0.0 mm 0.00 in0.0 mm 0.00 in0.0 mm
07:30 AM 42.2°F5.7°C 33.8°F1.0°C 72% 13.7 mph SE22.0 kmh SE 19.0 mph30.6 kmh 29.96 in1014.6 mb 0.00 in0.0 mm 0.00 in0.0 mm 0.00 in0.0 mm
07:31 AM 42.2°F5.7°C 33.8°F1.0°C 72% 12.8 mph SE20.6 kmh SE 20.0 mph32.2 kmh 29.96 in1014.6 mb 0.00 in0.0 mm 0.00 in0.0 mm 0.00 in0.0 mm
07:32 AM 42.3°F5.7°C 33.9°F1.1°C 72% 11.2 mph SE18.0 kmh SE 20.0 mph32.2 kmh 29.96 in1014.6 mb 0.00 in0.0 mm 0.00 in0.0 mm 0.00 in0.0 mm
07:33 AM 42.2°F5.7°C 34.2°F1.2°C 73% 9.7 mph SE15.6 kmh SE 14.0 mph22.5 kmh 29.96 in1014.6 mb 0.00 in0.0 mm 0.00 in0.0 mm 0.00 in0.0 mm
07:34 AM 42.2°F5.7°C 34.2°F1.2°C 73% 12.2 mph SE19.6 kmh SE 16.0 mph25.7 kmh 29.96 in1014.6 mb 0.00 in0.0 mm 0.00 in0.0 mm 0.00 in0.0 mm
07:35 AM 42.2°F5.7°C 34.2°F1.2°C 73% 10.2 mph SE16.4 kmh SE 16.0 mph25.7 kmh 29.95 in1014.2 mb 0.00 in0.0 mm 0.00 in0.0 mm 0.00 in0.0 mm
07:36 AM 42.2°F5.7°C 34.2°F1.2°C 73% 10.2 mph SE16.4 kmh SE 16.0 mph25.7 kmh 29.95 in1014.2 mb 0.00 in0.0 mm 0.00 in0.0 mm 0.00 in0.0 mm
07:37 AM 42.2°F5.7°C 34.2°F1.2°C 73% 12.4 mph SE20.0 kmh SE 17.0 mph27.4 kmh 29.95 in1014.2 mb 0.00 in0.0 mm 0.00 in0.0 mm 0.00 in0.0 mm
07:38 AM 42.2°F5.7°C 33.8°F1.0°C 72% 10.0 mph SE16.1 kmh SE 17.0 mph27.4 kmh 29.95 in1014.2 mb 0.00 in0.0 mm 0.00 in0.0 mm 0.00 in0.0 mm
07:39 AM 42.2°F5.7°C 34.2°F1.2°C 73% 10.6 mph SE17.1 kmh SE 14.0 mph22.5 kmh 29.96 in1014.6 mb 0.00 in0.0 mm 0.00 in0.0 mm 0.00 in0.0 mm
07:40 AM 42.3°F5.7°C 33.9°F1.1°C 72% 13.1 mph SE21.1 kmh SE 19.0 mph30.6 kmh 29.95 in1014.2 mb 0.00 in0.0 mm 0.00 in0.0 mm 0.00 in0.0 mm
07:41 AM 42.2°F5.7°C 33.8°F1.0°C 72% 12.1 mph SE19.5 kmh SE 19.0 mph30.6 kmh 29.95 in1014.2 mb 0.00 in0.0 mm 0.00 in0.0 mm 0.00 in0.0 mm
07:42 AM 42.2°F5.7°C 33.8°F1.0°C 72% 13.6 mph SE21.9 kmh SE 18.0 mph29.0 kmh 29.95 in1014.2 mb 0.00 in0.0 mm 0.00 in0.0 mm 0.00 in0.0 mm
07:43 AM 42.3°F5.7°C 33.9°F1.1°C 72% 12.0 mph SE19.3 kmh SE 21.0 mph33.8 kmh 29.95 in1014.2 mb 0.00 in0.0 mm 0.00 in0.0 mm 0.00 in0.0 mm
07:44 AM 42.3°F5.7°C 33.9°F1.1°C 72% 13.0 mph SE20.9 kmh SE 18.0 mph29.0 kmh 29.95 in1014.2 mb 0.00 in0.0 mm 0.00 in0.0 mm 0.00 in0.0 mm
07:45 AM 42.3°F5.7°C 33.9°F1.1°C 72% 14.0 mph SE22.5 kmh SE 21.0 mph33.8 kmh 29.95 in1014.2 mb 0.00 in0.0 mm 0.00 in0.0 mm 0.00 in0.0 mm
07:46 AM 42.3°F5.7°C 33.9°F1.1°C 72% 12.9 mph SE20.8 kmh SE 19.0 mph30.6 kmh 29.96 in1014.6 mb 0.00 in0.0 mm 0.00 in0.0 mm 0.00 in0.0 mm
07:47 AM 42.3°F5.7°C 33.9°F1.1°C 72% 12.3 mph SE19.8 kmh SE 19.0 mph30.6 kmh 29.95 in1014.2 mb 0.00 in0.0 mm 0.00 in0.0 mm 0.00 in0.0 mm
07:48 AM 42.4°F5.8°C 34.0°F1.1°C 72% 12.7 mph SE20.4 kmh SE 17.0 mph27.4 kmh 29.95 in1014.2 mb 0.00 in0.0 mm 0.00 in0.0 mm 0.00 in0.0 mm
07:49 AM 42.4°F5.8°C 34.0°F1.1°C 72% 12.7 mph SE20.4 kmh SE 17.0 mph27.4 kmh 29.95 in1014.2 mb 0.00 in0.0 mm 0.00 in0.0 mm 0.00 in0.0 mm
07:50 AM 42.4°F5.8°C 34.0°F1.1°C 72% 11.8 mph SE19.0 kmh SE 17.0 mph27.4 kmh 29.95 in1014.2 mb 0.00 in0.0 mm 0.00 in0.0 mm 0.00 in0.0 mm
07:51 AM 42.4°F5.8°C 34.4°F1.3°C 73% 10.9 mph SE17.5 kmh SE 15.0 mph24.1 kmh 29.95 in1014.2 mb 0.00 in0.0 mm 0.00 in0.0 mm 0.00 in0.0 mm
07:52 AM 42.5°F5.8°C 34.1°F1.2°C 72% 12.5 mph SE20.1 kmh SE 17.0 mph27.4 kmh 29.95 in1014.2 mb 0.00 in0.0 mm 0.00 in0.0 mm 0.00 in0.0 mm
07:53 AM 42.5°F5.8°C 34.1°F1.2°C 72% 12.9 mph SE20.8 kmh SE 17.0 mph27.4 kmh 29.95 in1014.2 mb 0.00 in0.0 mm 0.00 in0.0 mm 0.00 in0.0 mm
07:54 AM 42.5°F5.8°C 34.1°F1.2°C 72% 11.7 mph SE18.8 kmh SE 17.0 mph27.4 kmh 29.95 in1014.2 mb 0.00 in0.0 mm 0.00 in0.0 mm 0.00 in0.0 mm
07:55 AM 42.6°F5.9°C 34.2°F1.2°C 72% 10.4 mph SE16.7 kmh SE 15.0 mph24.1 kmh 29.95 in1014.2 mb 0.00 in0.0 mm 0.00 in0.0 mm 0.00 in0.0 mm
07:56 AM 42.6°F5.9°C 34.2°F1.2°C 72% 11.1 mph SE17.9 kmh SE 18.0 mph29.0 kmh 29.95 in1014.2 mb 0.00 in0.0 mm 0.00 in0.0 mm 0.00 in0.0 mm
07:57 AM 42.6°F5.9°C 34.2°F1.2°C 72% 12.3 mph SE19.8 kmh SE 18.0 mph29.0 kmh 29.95 in1014.2 mb 0.00 in0.0 mm 0.00 in0.0 mm 0.00 in0.0 mm
07:58 AM 42.6°F5.9°C 34.2°F1.2°C 72% 11.9 mph SE19.2 kmh SE 17.0 mph27.4 kmh 29.95 in1014.2 mb 0.00 in0.0 mm 0.00 in0.0 mm 0.00 in0.0 mm
07:59 AM 42.7°F5.9°C 34.3°F1.3°C 72% 12.1 mph SE19.5 kmh SE 17.0 mph27.4 kmh 29.95 in1014.2 mb 0.00 in0.0 mm 0.00 in0.0 mm 0.00 in0.0 mm
08:00 AM 42.7°F5.9°C 34.3°F1.3°C 72% 10.7 mph SE17.2 kmh SE 16.0 mph25.7 kmh 29.95 in1014.2 mb 0.00 in0.0 mm 0.00 in0.0 mm 0.00 in0.0 mm
08:01 AM 42.7°F5.9°C 34.3°F1.3°C 72% 11.0 mph SE17.7 kmh SE 17.0 mph27.4 kmh 29.95 in1014.2 mb 0.00 in0.0 mm 0.00 in0.0 mm 0.00 in0.0 mm
08:02 AM 42.8°F6.0°C 34.4°F1.3°C 72% 11.3 mph SE18.2 kmh SE 17.0 mph27.4 kmh 29.95 in1014.2 mb 0.00 in0.0 mm 0.00 in0.0 mm 0.00 in0.0 mm
08:03 AM 42.9°F6.1°C 34.5°F1.4°C 72% 11.9 mph SE19.2 kmh SE 20.0 mph32.2 kmh 29.95 in1014.2 mb 0.00 in0.0 mm 0.00 in0.0 mm 0.00 in0.0 mm
08:04 AM 42.9°F6.1°C 34.5°F1.4°C 72% 14.3 mph SE23.0 kmh SE 20.0 mph32.2 kmh 29.95 in1014.2 mb 0.00 in0.0 mm 0.00 in0.0 mm 0.00 in0.0 mm
08:05 AM 43.0°F6.1°C 34.3°F1.3°C 71% 12.3 mph SE19.8 kmh SE 20.0 mph32.2 kmh 29.95 in1014.2 mb 0.00 in0.0 mm 0.00 in0.0 mm 0.00 in0.0 mm
08:06 AM 43.1°F6.2°C 34.3°F1.3°C 71% 11.0 mph SE17.7 kmh SE 16.0 mph25.7 kmh 29.95 in1014.2 mb 0.00 in0.0 mm 0.00 in0.0 mm 0.00 in0.0 mm
08:07 AM 43.1°F6.2°C 34.3°F1.3°C 71% 13.0 mph SE20.9 kmh SE 19.0 mph30.6 kmh 29.95 in1014.2 mb 0.00 in0.0 mm 0.00 in0.0 mm 0.00 in0.0 mm
08:08 AM 43.3°F6.3°C 34.5°F1.4°C 71% 10.3 mph SE16.6 kmh SE 13.0 mph20.9 kmh 29.95 in1014.2 mb 0.00 in0.0 mm 0.00 in0.0 mm 0.00 in0.0 mm
08:09 AM 43.3°F6.3°C 34.5°F1.4°C 71% 14.5 mph SE23.3 kmh SE 19.0 mph30.6 kmh 29.95 in1014.2 mb 0.00 in0.0 mm 0.00 in0.0 mm 0.00 in0.0 mm
08:10 AM 43.4°F6.3°C 34.6°F1.4°C 71% 12.9 mph SE20.8 kmh SE 19.0 mph30.6 kmh 29.95 in1014.2 mb 0.00 in0.0 mm 0.00 in0.0 mm 0.00 in0.0 mm
08:11 AM 43.5°F6.4°C 34.7°F1.5°C 71% 12.8 mph SE20.6 kmh SE 18.0 mph29.0 kmh 29.95 in1014.2 mb 0.00 in0.0 mm 0.00 in0.0 mm 0.00 in0.0 mm
08:12 AM 43.6°F6.4°C 34.8°F1.6°C 71% 12.3 mph SE19.8 kmh SE 17.0 mph27.4 kmh 29.95 in1014.2 mb 0.00 in0.0 mm 0.00 in0.0 mm 0.00 in0.0 mm
08:13 AM 43.7°F6.5°C 34.9°F1.6°C 71% 10.8 mph SE17.4 kmh SE 18.0 mph29.0 kmh 29.95 in1014.2 mb 0.00 in0.0 mm 0.00 in0.0 mm 0.00 in0.0 mm
08:14 AM 43.8°F6.6°C 35.0°F1.7°C 71% 11.3 mph SE18.2 kmh SE 18.0 mph29.0 kmh 29.95 in1014.2 mb 0.00 in0.0 mm 0.00 in0.0 mm 0.00 in0.0 mm
08:15 AM 43.9°F6.6°C 34.8°F1.6°C 70% 11.3 mph SE18.2 kmh SE 18.0 mph29.0 kmh 29.95 in1014.2 mb 0.00 in0.0 mm 0.00 in0.0 mm 0.00 in0.0 mm
08:16 AM 44.0°F6.7°C 34.9°F1.6°C 70% 11.0 mph SE17.7 kmh SE 18.0 mph29.0 kmh 29.95 in1014.2 mb 0.00 in0.0 mm 0.00 in0.0 mm 0.00 in0.0 mm
08:17 AM 44.0°F6.7°C 34.9°F1.6°C 70% 11.0 mph SE17.7 kmh SE 15.0 mph24.1 kmh 29.95 in1014.2 mb 0.00 in0.0 mm 0.00 in0.0 mm 0.00 in0.0 mm
08:18 AM 44.1°F6.7°C 35.0°F1.7°C 70% 12.8 mph SE20.6 kmh SE 16.0 mph25.7 kmh 29.95 in1014.2 mb 0.00 in0.0 mm 0.00 in0.0 mm 0.00 in0.0 mm
08:19 AM 44.1°F6.7°C 35.0°F1.7°C 70% 10.8 mph SE17.4 kmh SE 16.0 mph25.7 kmh 29.95 in1014.2 mb 0.00 in0.0 mm 0.00 in0.0 mm 0.00 in0.0 mm
08:20 AM 44.2°F6.8°C 35.0°F1.7°C 70% 11.7 mph SE18.8 kmh SE 16.0 mph25.7 kmh 29.95 in1014.2 mb 0.00 in0.0 mm 0.00 in0.0 mm 0.00 in0.0 mm
08:21 AM 44.2°F6.8°C 34.7°F1.5°C 69% 13.0 mph SE20.9 kmh SE 19.0 mph30.6 kmh 29.95 in1014.2 mb 0.00 in0.0 mm 0.00 in0.0 mm 0.00 in0.0 mm
08:22 AM 44.2°F6.8°C 34.7°F1.5°C 69% 11.9 mph SE19.2 kmh SE 19.0 mph30.6 kmh 29.95 in1014.2 mb 0.00 in0.0 mm 0.00 in0.0 mm 0.00 in0.0 mm
08:23 AM 44.3°F6.8°C 34.8°F1.6°C 69% 12.3 mph SE19.8 kmh SE 19.0 mph30.6 kmh 29.95 in1014.2 mb 0.00 in0.0 mm 0.00 in0.0 mm 0.00 in0.0 mm
08:24 AM 44.3°F6.8°C 35.1°F1.7°C 70% 10.4 mph SE16.7 kmh SE 19.0 mph30.6 kmh 29.95 in1014.2 mb 0.00 in0.0 mm 0.00 in0.0 mm 0.00 in0.0 mm
08:25 AM 44.4°F6.9°C 35.2°F1.8°C 70% 13.4 mph SE21.6 kmh SE 20.0 mph32.2 kmh 29.95 in1014.2 mb 0.00 in0.0 mm 0.00 in0.0 mm 0.00 in0.0 mm
08:26 AM 44.4°F6.9°C 34.9°F1.6°C 69% 13.2 mph SE21.2 kmh SE 20.0 mph32.2 kmh 29.95 in1014.2 mb 0.00 in0.0 mm 0.00 in0.0 mm 0.00 in0.0 mm
08:27 AM 44.4°F6.9°C 35.2°F1.8°C 70% 13.2 mph SE21.2 kmh SE 18.0 mph29.0 kmh 29.95 in1014.2 mb 0.00 in0.0 mm 0.00 in0.0 mm 0.00 in0.0 mm
08:28 AM 44.4°F6.9°C 35.2°F1.8°C 70% 10.0 mph SE16.1 kmh SE 17.0 mph27.4 kmh 29.94 in1013.9 mb 0.00 in0.0 mm 0.00 in0.0 mm 0.00 in0.0 mm
08:29 AM 44.5°F6.9°C 35.3°F1.8°C 70% 9.8 mph SE15.8 kmh SE 14.0 mph22.5 kmh 29.94 in1013.9 mb 0.00 in0.0 mm 0.00 in0.0 mm 0.00 in0.0 mm
08:30 AM 44.5°F6.9°C 35.0°F1.7°C 69% 12.1 mph SE19.5 kmh SE 15.0 mph24.1 kmh 29.94 in1013.9 mb 0.00 in0.0 mm 0.00 in0.0 mm 0.00 in0.0 mm
08:31 AM 44.5°F6.9°C 35.3°F1.8°C 70% 11.7 mph SE18.8 kmh SE 16.0 mph25.7 kmh 29.94 in1013.9 mb 0.00 in0.0 mm 0.00 in0.0 mm 0.00 in0.0 mm
08:32 AM 44.5°F6.9°C 35.0°F1.7°C 69% 12.2 mph SE19.6 kmh SE 16.0 mph25.7 kmh 29.95 in1014.2 mb 0.00 in0.0 mm 0.00 in0.0 mm 0.00 in0.0 mm
08:33 AM 44.6°F7.0°C 35.1°F1.7°C 69% 13.1 mph SE21.1 kmh SE 17.0 mph27.4 kmh 29.94 in1013.9 mb 0.00 in0.0 mm 0.00 in0.0 mm 0.00 in0.0 mm
08:34 AM 44.6°F7.0°C 35.1°F1.7°C 69% 13.8 mph SE22.2 kmh SE 18.0 mph29.0 kmh 29.95 in1014.2 mb 0.00 in0.0 mm 0.00 in0.0 mm 0.00 in0.0 mm
08:35 AM 44.6°F7.0°C 35.1°F1.7°C 69% 10.6 mph SE17.1 kmh SE 18.0 mph29.0 kmh 29.95 in1014.2 mb 0.00 in0.0 mm 0.00 in0.0 mm 0.00 in0.0 mm
08:36 AM 44.7°F7.1°C 35.5°F1.9°C 70% 11.5 mph SE18.5 kmh SE 17.0 mph27.4 kmh 29.95 in1014.2 mb 0.00 in0.0 mm 0.00 in0.0 mm 0.00 in0.0 mm
08:37 AM 44.8°F7.1°C 35.3°F1.8°C 69% 11.4 mph SE18.3 kmh SE 17.0 mph27.4 kmh 29.94 in1013.9 mb 0.00 in0.0 mm 0.00 in0.0 mm 0.00 in0.0 mm
08:38 AM 44.8°F7.1°C 35.3°F1.8°C 69% 14.4 mph SE23.2 kmh SE 17.0 mph27.4 kmh 29.94 in1013.9 mb 0.00 in0.0 mm 0.00 in0.0 mm 0.00 in0.0 mm
08:39 AM 44.8°F7.1°C 35.3°F1.8°C 69% 13.3 mph SE21.4 kmh SE 17.0 mph27.4 kmh 29.94 in1013.9 mb 0.00 in0.0 mm 0.00 in0.0 mm 0.00 in0.0 mm
08:40 AM 44.7°F7.1°C 35.2°F1.8°C 69% 12.7 mph SE20.4 kmh SE 18.0 mph29.0 kmh 29.94 in1013.9 mb 0.00 in0.0 mm 0.00 in0.0 mm 0.00 in0.0 mm
08:41 AM 44.8°F7.1°C 35.6°F2.0°C 70% 10.5 mph SE16.9 kmh SE 18.0 mph29.0 kmh 29.94 in1013.9 mb 0.00 in0.0 mm 0.00 in0.0 mm 0.00 in0.0 mm
08:42 AM 44.8°F7.1°C 35.6°F2.0°C 70% 11.3 mph SE18.2 kmh SE 16.0 mph25.7 kmh 29.94 in1013.9 mb 0.00 in0.0 mm 0.00 in0.0 mm 0.00 in0.0 mm
08:43 AM 44.9°F7.2°C 35.4°F1.9°C 69% 12.2 mph SE19.6 kmh SE 18.0 mph29.0 kmh 29.94 in1013.9 mb 0.00 in0.0 mm 0.00 in0.0 mm 0.00 in0.0 mm
08:44 AM 44.9°F7.2°C 35.7°F2.1°C 70% 12.1 mph SE19.5 kmh SE 18.0 mph29.0 kmh 29.94 in1013.9 mb 0.00 in0.0 mm 0.00 in0.0 mm 0.00 in0.0 mm
08:45 AM 45.0°F7.2°C 35.8°F2.1°C 70% 12.2 mph SE19.6 kmh SE 19.0 mph30.6 kmh 29.94 in1013.9 mb 0.00 in0.0 mm 0.00 in0.0 mm 0.00 in0.0 mm
08:46 AM 45.1°F7.3°C 35.5°F1.9°C 69% 12.1 mph SE19.5 kmh SE 19.0 mph30.6 kmh 29.94 in1013.9 mb 0.00 in0.0 mm 0.00 in0.0 mm 0.00 in0.0 mm
08:47 AM 45.1°F7.3°C 35.5°F1.9°C 69% 11.5 mph SE18.5 kmh SE 17.0 mph27.4 kmh 29.94 in1013.9 mb 0.00 in0.0 mm 0.00 in0.0 mm 0.00 in0.0 mm
08:48 AM 45.2°F7.3°C 35.6°F2.0°C 69% 12.8 mph SE20.6 kmh SE 17.0 mph27.4 kmh 29.94 in1013.9 mb 0.00 in0.0 mm 0.00 in0.0 mm 0.00 in0.0 mm
08:49 AM 45.2°F7.3°C 35.6°F2.0°C 69% 11.4 mph SE18.3 kmh SE 16.0 mph25.7 kmh 29.94 in1013.9 mb 0.00 in0.0 mm 0.00 in0.0 mm 0.00 in0.0 mm
08:50 AM 45.3°F7.4°C 35.7°F2.1°C 69% 12.8 mph SE20.6 kmh SE 16.0 mph25.7 kmh 29.94 in1013.9 mb 0.00 in0.0 mm 0.00 in0.0 mm 0.00 in0.0 mm
08:51 AM 45.4°F7.4°C 35.8°F2.1°C 69% 11.6 mph SE18.7 kmh SE 16.0 mph25.7 kmh 29.93 in1013.5 mb 0.00 in0.0 mm 0.00 in0.0 mm 0.00 in0.0 mm
08:52 AM 45.4°F7.4°C 35.8°F2.1°C 69% 10.1 mph SE16.3 kmh SE 15.0 mph24.1 kmh 29.93 in1013.5 mb 0.00 in0.0 mm 0.00 in0.0 mm 0.00 in0.0 mm
08:53 AM 45.5°F7.5°C 35.9°F2.2°C 69% 10.6 mph SE17.1 kmh SE 14.0 mph22.5 kmh 29.93 in1013.5 mb 0.00 in0.0 mm 0.00 in0.0 mm 0.00 in0.0 mm
08:54 AM 45.5°F7.5°C 35.6°F2.0°C 68% 12.1 mph SE19.5 kmh SE 17.0 mph27.4 kmh 29.93 in1013.5 mb 0.00 in0.0 mm 0.00 in0.0 mm 0.00 in0.0 mm
08:55 AM 45.6°F7.6°C 35.7°F2.1°C 68% 10.7 mph SE17.2 kmh SE 17.0 mph27.4 kmh 29.93 in1013.5 mb 0.00 in0.0 mm 0.00 in0.0 mm 0.00 in0.0 mm
08:56 AM 45.6°F7.6°C 35.7°F2.1°C 68% 13.6 mph SE21.9 kmh SE 19.0 mph30.6 kmh 29.93 in1013.5 mb 0.00 in0.0 mm 0.00 in0.0 mm 0.00 in0.0 mm
08:57 AM 45.7°F7.6°C 35.4°F1.9°C 67% 12.0 mph SE19.3 kmh SE 19.0 mph30.6 kmh 29.93 in1013.5 mb 0.00 in0.0 mm 0.00 in0.0 mm 0.00 in0.0 mm
08:58 AM 45.6°F7.6°C 35.7°F2.1°C 68% 10.9 mph SE17.5 kmh SE 16.0 mph25.7 kmh 29.94 in1013.9 mb 0.00 in0.0 mm 0.00 in0.0 mm 0.00 in0.0 mm
08:59 AM 45.8°F7.7°C 35.8°F2.1°C 68% 10.7 mph SE17.2 kmh SE 14.0 mph22.5 kmh 29.94 in1013.9 mb 0.00 in0.0 mm 0.00 in0.0 mm 0.00 in0.0 mm
09:00 AM 45.8°F7.7°C 35.8°F2.1°C 68% 12.0 mph SE19.3 kmh SE 17.0 mph27.4 kmh 29.94 in1013.9 mb 0.00 in0.0 mm 0.00 in0.0 mm 0.00 in0.0 mm
09:01 AM 46.0°F7.8°C 36.0°F2.2°C 68% 9.1 mph SE14.6 kmh SE 17.0 mph27.4 kmh 29.94 in1013.9 mb 0.00 in0.0 mm 0.00 in0.0 mm 0.00 in0.0 mm
09:02 AM 46.0°F7.8°C 36.0°F2.2°C 68% 11.1 mph SE17.9 kmh SE 16.0 mph25.7 kmh 29.94 in1013.9 mb 0.00 in0.0 mm 0.00 in0.0 mm 0.00 in0.0 mm
09:03 AM 46.2°F7.9°C 36.2°F2.3°C 68% 9.4 mph SE15.1 kmh SE 16.0 mph25.7 kmh 29.94 in1013.9 mb 0.00 in0.0 mm 0.00 in0.0 mm 0.00 in0.0 mm
09:04 AM 46.2°F7.9°C 35.9°F2.2°C 67% 12.2 mph SE19.6 kmh SE 16.0 mph25.7 kmh 29.94 in1013.9 mb 0.00 in0.0 mm 0.00 in0.0 mm 0.00 in0.0 mm
09:05 AM 46.2°F7.9°C 35.9°F2.2°C 67% 9.5 mph SE15.3 kmh SE 16.0 mph25.7 kmh 29.94 in1013.9 mb 0.00 in0.0 mm 0.00 in0.0 mm 0.00 in0.0 mm
09:06 AM 46.2°F7.9°C 35.9°F2.2°C 67% 12.3 mph SE19.8 kmh SE 15.0 mph24.1 kmh 29.94 in1013.9 mb 0.00 in0.0 mm 0.00 in0.0 mm 0.00 in0.0 mm
09:07 AM 46.2°F7.9°C 35.9°F2.2°C 67% 12.5 mph SE20.1 kmh SE 16.0 mph25.7 kmh 29.95 in1014.2 mb 0.00 in0.0 mm 0.00 in0.0 mm 0.00 in0.0 mm
09:08 AM 46.2°F7.9°C 35.9°F2.2°C 67% 13.0 mph SE20.9 kmh SE 19.0 mph30.6 kmh 29.94 in1013.9 mb 0.00 in0.0 mm 0.00 in0.0 mm 0.00 in0.0 mm
09:09 AM 46.1°F7.8°C 35.8°F2.1°C 67% 13.3 mph SE21.4 kmh SE 19.0 mph30.6 kmh 29.94 in1013.9 mb 0.00 in0.0 mm 0.00 in0.0 mm 0.00 in0.0 mm
09:10 AM 46.1°F7.8°C 35.8°F2.1°C 67% 11.5 mph SE18.5 kmh SE 19.0 mph30.6 kmh 29.94 in1013.9 mb 0.00 in0.0 mm 0.00 in0.0 mm 0.00 in0.0 mm
09:11 AM 46.1°F7.8°C 35.8°F2.1°C 67% 9.1 mph SE14.6 kmh SE 16.0 mph25.7 kmh 29.94 in1013.9 mb 0.00 in0.0 mm 0.00 in0.0 mm 0.00 in0.0 mm
09:12 AM 46.2°F7.9°C 35.9°F2.2°C 67% 12.0 mph SE19.3 kmh SE 15.0 mph24.1 kmh 29.94 in1013.9 mb 0.00 in0.0 mm 0.00 in0.0 mm 0.00 in0.0 mm
09:13 AM 46.2°F7.9°C 35.9°F2.2°C 67% 11.4 mph SE18.3 kmh SE 16.0 mph25.7 kmh 29.94 in1013.9 mb 0.00 in0.0 mm 0.00 in0.0 mm 0.00 in0.0 mm
09:14 AM 46.2°F7.9°C 35.9°F2.2°C 67% 12.4 mph SE20.0 kmh SE 16.0 mph25.7 kmh 29.94 in1013.9 mb 0.00 in0.0 mm 0.00 in0.0 mm 0.00 in0.0 mm
09:15 AM 46.2°F7.9°C 35.9°F2.2°C 67% 11.5 mph SE18.5 kmh SE 16.0 mph25.7 kmh 29.94 in1013.9 mb 0.00 in0.0 mm 0.00 in0.0 mm 0.00 in0.0 mm
09:16 AM 46.2°F7.9°C 35.9°F2.2°C 67% 13.0 mph SE20.9 kmh SE 15.0 mph24.1 kmh 29.94 in1013.9 mb 0.00 in0.0 mm 0.00 in0.0 mm 0.00 in0.0 mm
09:17 AM 46.2°F7.9°C 35.9°F2.2°C 67% 11.4 mph SE18.3 kmh SE 16.0 mph25.7 kmh 29.94 in1013.9 mb 0.00 in0.0 mm 0.00 in0.0 mm 0.00 in0.0 mm
09:18 AM 46.3°F7.9°C 36.0°F2.2°C 67% 10.8 mph SE17.4 kmh SE 15.0 mph24.1 kmh 29.94 in1013.9 mb 0.00 in0.0 mm 0.00 in0.0 mm 0.00 in0.0 mm
09:19 AM 46.3°F7.9°C 36.0°F2.2°C 67% 10.4 mph SE16.7 kmh SE 15.0 mph24.1 kmh 29.94 in1013.9 mb 0.00 in0.0 mm 0.00 in0.0 mm 0.00 in0.0 mm
09:20 AM 46.4°F8.0°C 36.0°F2.2°C 67% 8.0 mph SE12.9 kmh SE 14.0 mph22.5 kmh 29.94 in1013.9 mb 0.00 in0.0 mm 0.00 in0.0 mm 0.00 in0.0 mm
09:21 AM 46.5°F8.1°C 36.1°F2.3°C 67% 9.7 mph SE15.6 kmh SE 14.0 mph22.5 kmh 29.94 in1013.9 mb 0.00 in0.0 mm 0.00 in0.0 mm 0.00 in0.0 mm
09:22 AM 46.6°F8.1°C 36.2°F2.3°C 67% 13.1 mph SE21.1 kmh SE 15.0 mph24.1 kmh 29.94 in1013.9 mb 0.00 in0.0 mm 0.00 in0.0 mm 0.00 in0.0 mm
09:23 AM 46.6°F8.1°C 36.2°F2.3°C 67% 10.0 mph SE16.1 kmh SE 15.0 mph24.1 kmh 29.94 in1013.9 mb 0.00 in0.0 mm 0.00 in0.0 mm 0.00 in0.0 mm
09:24 AM 46.7°F8.2°C 36.3°F2.4°C 67% 8.5 mph SE13.7 kmh SE 13.0 mph20.9 kmh 29.94 in1013.9 mb 0.00 in0.0 mm 0.00 in0.0 mm 0.00 in0.0 mm
09:25 AM 46.7°F8.2°C 36.3°F2.4°C 67% 10.1 mph SE16.3 kmh SE 16.0 mph25.7 kmh 29.94 in1013.9 mb 0.00 in0.0 mm 0.00 in0.0 mm 0.00 in0.0 mm
09:26 AM 46.7°F8.2°C 36.0°F2.2°C 66% 12.7 mph SE20.4 kmh SE 18.0 mph29.0 kmh 29.94 in1013.9 mb 0.00 in0.0 mm 0.00 in0.0 mm 0.00 in0.0 mm
09:27 AM 46.7°F8.2°C 36.0°F2.2°C 66% 12.7 mph SE20.4 kmh SE 18.0 mph29.0 kmh 29.94 in1013.9 mb 0.00 in0.0 mm 0.00 in0.0 mm 0.00 in0.0 mm
09:28 AM 46.8°F8.2°C 36.0°F2.2°C 66% 11.7 mph SE18.8 kmh SE 16.0 mph25.7 kmh 29.94 in1013.9 mb 0.00 in0.0 mm 0.00 in0.0 mm 0.00 in0.0 mm
09:29 AM 46.9°F8.3°C 36.5°F2.5°C 67% 7.9 mph SE12.7 kmh SE 14.0 mph22.5 kmh 29.94 in1013.9 mb 0.00 in0.0 mm 0.00 in0.0 mm 0.00 in0.0 mm
09:30 AM 47.0°F8.3°C 36.2°F2.3°C 66% 11.5 mph SE18.5 kmh SE 16.0 mph25.7 kmh 29.94 in1013.9 mb 0.00 in0.0 mm 0.00 in0.0 mm 0.00 in0.0 mm
09:31 AM 47.0°F8.3°C 36.2°F2.3°C 66% 12.6 mph SE20.3 kmh SE 17.0 mph27.4 kmh 29.94 in1013.9 mb 0.00 in0.0 mm 0.00 in0.0 mm 0.00 in0.0 mm
09:32 AM 47.0°F8.3°C 36.2°F2.3°C 66% 13.0 mph SE20.9 kmh SE 17.0 mph27.4 kmh 29.94 in1013.9 mb 0.00 in0.0 mm 0.00 in0.0 mm 0.00 in0.0 mm
09:33 AM 47.0°F8.3°C 35.9°F2.2°C 65% 12.6 mph SE20.3 kmh SE 17.0 mph27.4 kmh 29.93 in1013.5 mb 0.00 in0.0 mm 0.00 in0.0 mm 0.00 in0.0 mm
09:34 AM 47.0°F8.3°C 35.9°F2.2°C 65% 10.7 mph SE17.2 kmh SE 17.0 mph27.4 kmh 29.93 in1013.5 mb 0.00 in0.0 mm 0.00 in0.0 mm 0.00 in0.0 mm
09:35 AM 47.2°F8.4°C 36.4°F2.4°C 66% 9.6 mph SE15.4 kmh SE 14.0 mph22.5 kmh 29.93 in1013.5 mb 0.00 in0.0 mm 0.00 in0.0 mm 0.00 in0.0 mm
09:36 AM 47.2°F8.4°C 36.0°F2.2°C 65% 12.0 mph SE19.3 kmh SE 18.0 mph29.0 kmh 29.93 in1013.5 mb 0.00 in0.0 mm 0.00 in0.0 mm 0.00 in0.0 mm
09:37 AM 47.2°F8.4°C 35.7°F2.1°C 64% 13.0 mph SE20.9 kmh SE 18.0 mph29.0 kmh 29.94 in1013.9 mb 0.00 in0.0 mm 0.00 in0.0 mm 0.00 in0.0 mm
09:38 AM 47.4°F8.6°C 35.8°F2.1°C 64% 9.0 mph SE14.5 kmh SE 14.0 mph22.5 kmh 29.94 in1013.9 mb 0.00 in0.0 mm 0.00 in0.0 mm 0.00 in0.0 mm
09:39 AM 47.4°F8.6°C 35.8°F2.1°C 64% 12.9 mph SE20.8 kmh SE 17.0 mph27.4 kmh 29.93 in1013.5 mb 0.00 in0.0 mm 0.00 in0.0 mm 0.00 in0.0 mm
09:40 AM 47.5°F8.6°C 35.5°F1.9°C 63% 12.3 mph SE19.8 kmh SE 17.0 mph27.4 kmh 29.93 in1013.5 mb 0.00 in0.0 mm 0.00 in0.0 mm 0.00 in0.0 mm
09:41 AM 47.6°F8.7°C 35.6°F2.0°C 63% 10.0 mph SE16.1 kmh SE 17.0 mph27.4 kmh 29.93 in1013.5 mb 0.00 in0.0 mm 0.00 in0.0 mm 0.00 in0.0 mm
09:42 AM 47.7°F8.7°C 36.1°F2.3°C 64% 10.6 mph SE17.1 kmh SE 15.0 mph24.1 kmh 29.93 in1013.5 mb 0.00 in0.0 mm 0.00 in0.0 mm 0.00 in0.0 mm
09:43 AM 47.7°F8.7°C 36.1°F2.3°C 64% 9.5 mph SE15.3 kmh SE 15.0 mph24.1 kmh 29.93 in1013.5 mb 0.00 in0.0 mm 0.00 in0.0 mm 0.00 in0.0 mm
09:44 AM 47.8°F8.8°C 36.2°F2.3°C 64% 11.5 mph SE18.5 kmh SE 14.0 mph22.5 kmh 29.93 in1013.5 mb 0.00 in0.0 mm 0.00 in0.0 mm 0.00 in0.0 mm
09:45 AM 47.8°F8.8°C 36.2°F2.3°C 64% 11.6 mph SE18.7 kmh SE 17.0 mph27.4 kmh 29.93 in1013.5 mb 0.00 in0.0 mm 0.00 in0.0 mm 0.00 in0.0 mm
09:46 AM 47.9°F8.8°C 35.9°F2.2°C 63% 11.8 mph SE19.0 kmh SE 17.0 mph27.4 kmh 29.93 in1013.5 mb 0.00 in0.0 mm 0.00 in0.0 mm 0.00 in0.0 mm
09:47 AM 47.9°F8.8°C 35.9°F2.2°C 63% 12.5 mph SE20.1 kmh SE 16.0 mph25.7 kmh 29.93 in1013.5 mb 0.00 in0.0 mm 0.00 in0.0 mm 0.00 in0.0 mm
09:48 AM 48.0°F8.9°C 35.6°F2.0°C 62% 11.7 mph SE18.8 kmh SE 16.0 mph25.7 kmh 29.94 in1013.9 mb 0.00 in0.0 mm 0.00 in0.0 mm 0.00 in0.0 mm
09:49 AM 48.1°F8.9°C 36.1°F2.3°C 63% 8.8 mph SSE14.2 kmh SSE 15.0 mph24.1 kmh 29.94 in1013.9 mb 0.00 in0.0 mm 0.00 in0.0 mm 0.00 in0.0 mm
09:50 AM 48.1°F8.9°C 36.1°F2.3°C 63% 6.5 mph SE10.5 kmh SE 13.0 mph20.9 kmh 29.94 in1013.9 mb 0.00 in0.0 mm 0.00 in0.0 mm 0.00 in0.0 mm
09:51 AM 48.3°F9.1°C 35.9°F2.2°C 62% 7.4 mph SSE11.9 kmh SSE 12.0 mph19.3 kmh 29.94 in1013.9 mb 0.00 in0.0 mm 0.00 in0.0 mm 0.00 in0.0 mm
09:52 AM 48.4°F9.1°C 36.0°F2.2°C 62% 9.7 mph SSE15.6 kmh SSE 14.0 mph22.5 kmh 29.94 in1013.9 mb 0.00 in0.0 mm 0.00 in0.0 mm 0.00 in0.0 mm
09:53 AM 48.4°F9.1°C 36.0°F2.2°C 62% 10.8 mph SE17.4 kmh SE 14.0 mph22.5 kmh 29.94 in1013.9 mb 0.00 in0.0 mm 0.00 in0.0 mm 0.00 in0.0 mm
09:54 AM 48.5°F9.2°C 36.1°F2.3°C 62% 9.6 mph SE15.4 kmh SE 16.0 mph25.7 kmh 29.93 in1013.5 mb 0.00 in0.0 mm 0.00 in0.0 mm 0.00 in0.0 mm
09:55 AM 48.5°F9.2°C 36.1°F2.3°C 62% 10.4 mph SE16.7 kmh SE 16.0 mph25.7 kmh 29.93 in1013.5 mb 0.00 in0.0 mm 0.00 in0.0 mm 0.00 in0.0 mm
09:56 AM 48.5°F9.2°C 36.1°F2.3°C 62% 8.5 mph SE13.7 kmh SE 16.0 mph25.7 kmh 29.93 in1013.5 mb 0.00 in0.0 mm 0.00 in0.0 mm 0.00 in0.0 mm
09:57 AM 48.6°F9.2°C 36.2°F2.3°C 62% 9.5 mph SSE15.3 kmh SSE 12.0 mph19.3 kmh 29.93 in1013.5 mb 0.00 in0.0 mm 0.00 in0.0 mm 0.00 in0.0 mm
09:58 AM 48.6°F9.2°C 35.8°F2.1°C 61% 10.0 mph SE16.1 kmh SE 12.0 mph19.3 kmh 29.94 in1013.9 mb 0.00 in0.0 mm 0.00 in0.0 mm 0.00 in0.0 mm
09:59 AM 48.7°F9.3°C 35.9°F2.2°C 61% 10.3 mph SE16.6 kmh SE 15.0 mph24.1 kmh 29.93 in1013.5 mb 0.00 in0.0 mm 0.00 in0.0 mm 0.00 in0.0 mm
10:00 AM 48.7°F9.3°C 35.9°F2.2°C 61% 10.7 mph SE17.2 kmh SE 15.0 mph24.1 kmh 29.94 in1013.9 mb 0.00 in0.0 mm 0.00 in0.0 mm 0.00 in0.0 mm
10:01 AM 48.7°F9.3°C 35.9°F2.2°C 61% 10.4 mph SSE16.7 kmh SSE 16.0 mph25.7 kmh 29.94 in1013.9 mb 0.00 in0.0 mm 0.00 in0.0 mm 0.00 in0.0 mm
10:02 AM 48.7°F9.3°C 35.9°F2.2°C 61% 7.4 mph SE11.9 kmh SE 16.0 mph25.7 kmh 29.94 in1013.9 mb 0.00 in0.0 mm 0.00 in0.0 mm 0.00 in0.0 mm
10:03 AM 48.8°F9.3°C 36.0°F2.2°C 61% 12.1 mph SE19.5 kmh SE 16.0 mph25.7 kmh 29.94 in1013.9 mb 0.00 in0.0 mm 0.00 in0.0 mm 0.00 in0.0 mm
10:04 AM 48.9°F9.4°C 36.0°F2.2°C 61% 12.1 mph SE19.5 kmh SE 16.0 mph25.7 kmh 29.94 in1013.9 mb 0.00 in0.0 mm 0.00 in0.0 mm 0.00 in0.0 mm
10:05 AM 48.9°F9.4°C 35.6°F2.0°C 60% 8.5 mph SE13.7 kmh SE 15.0 mph24.1 kmh 29.93 in1013.5 mb 0.00 in0.0 mm 0.00 in0.0 mm 0.00 in0.0 mm
10:06 AM 49.0°F9.4°C 36.1°F2.3°C 61% 10.0 mph SE16.1 kmh SE 14.0 mph22.5 kmh 29.93 in1013.5 mb 0.00 in0.0 mm 0.00 in0.0 mm 0.00 in0.0 mm
10:07 AM 49.0°F9.4°C 35.7°F2.1°C 60% 13.0 mph SSE20.9 kmh SSE 16.0 mph25.7 kmh 29.93 in1013.5 mb 0.00 in0.0 mm 0.00 in0.0 mm 0.00 in0.0 mm
10:08 AM 49.0°F9.4°C 36.1°F2.3°C 61% 11.0 mph SSE17.7 kmh SSE 16.0 mph25.7 kmh 29.93 in1013.5 mb 0.00 in0.0 mm 0.00 in0.0 mm 0.00 in0.0 mm
10:09 AM 49.0°F9.4°C 36.1°F2.3°C 61% 7.5 mph SE12.1 kmh SE 11.0 mph17.7 kmh 29.93 in1013.5 mb 0.00 in0.0 mm 0.00 in0.0 mm 0.00 in0.0 mm
10:10 AM 49.1°F9.5°C 36.2°F2.3°C 61% 11.6 mph SE18.7 kmh SE 16.0 mph25.7 kmh 29.93 in1013.5 mb 0.00 in0.0 mm 0.00 in0.0 mm 0.00 in0.0 mm
10:11 AM 49.1°F9.5°C 35.8°F2.1°C 60% 11.3 mph SE18.2 kmh SE 16.0 mph25.7 kmh 29.93 in1013.5 mb 0.00 in0.0 mm 0.00 in0.0 mm 0.00 in0.0 mm
10:12 AM 49.1°F9.5°C 35.8°F2.1°C 60% 11.8 mph SE19.0 kmh SE 16.0 mph25.7 kmh 29.93 in1013.5 mb 0.00 in0.0 mm 0.00 in0.0 mm 0.00 in0.0 mm
10:13 AM 49.1°F9.5°C 35.8°F2.1°C 60% 12.0 mph SE19.3 kmh SE 19.0 mph30.6 kmh 29.93 in1013.5 mb 0.00 in0.0 mm 0.00 in0.0 mm 0.00 in0.0 mm
10:14 AM 49.1°F9.5°C 35.8°F2.1°C 60% 12.3 mph SSE19.8 kmh SSE 19.0 mph30.6 kmh 29.93 in1013.5 mb 0.00 in0.0 mm 0.00 in0.0 mm 0.00 in0.0 mm
10:15 AM 49.1°F9.5°C 35.8°F2.1°C 60% 11.6 mph SSE18.7 kmh SSE 17.0 mph27.4 kmh 29.93 in1013.5 mb 0.00 in0.0 mm 0.00 in0.0 mm 0.00 in0.0 mm
10:16 AM 49.1°F9.5°C 35.8°F2.1°C 60% 11.9 mph SSE19.2 kmh SSE 20.0 mph32.2 kmh 29.93 in1013.5 mb 0.00 in0.0 mm 0.00 in0.0 mm 0.00 in0.0 mm
10:17 AM 49.2°F9.6°C 35.9°F2.2°C 60% 11.5 mph SE18.5 kmh SE 20.0 mph32.2 kmh 29.93 in1013.5 mb 0.00 in0.0 mm 0.00 in0.0 mm 0.00 in0.0 mm
10:18 AM 49.2°F9.6°C 35.9°F2.2°C 60% 12.2 mph SE19.6 kmh SE 18.0 mph29.0 kmh 29.93 in1013.5 mb 0.00 in0.0 mm 0.00 in0.0 mm 0.00 in0.0 mm
10:19 AM 49.3°F9.6°C 36.0°F2.2°C 60% 12.3 mph SE19.8 kmh SE 18.0 mph29.0 kmh 29.93 in1013.5 mb 0.00 in0.0 mm 0.00 in0.0 mm 0.00 in0.0 mm
10:20 AM 49.4°F9.7°C 36.1°F2.3°C 60% 8.9 mph SSE14.3 kmh SSE 18.0 mph29.0 kmh 29.93 in1013.5 mb 0.00 in0.0 mm 0.00 in0.0 mm 0.00 in0.0 mm
10:21 AM 49.5°F9.7°C 36.2°F2.3°C 60% 10.0 mph SSE16.1 kmh SSE 15.0 mph24.1 kmh 29.93 in1013.5 mb 0.00 in0.0 mm 0.00 in0.0 mm 0.00 in0.0 mm
10:22 AM 49.6°F9.8°C 36.3°F2.4°C 60% 8.1 mph SE13.0 kmh SE 15.0 mph24.1 kmh 29.93 in1013.5 mb 0.00 in0.0 mm 0.00 in0.0 mm 0.00 in0.0 mm
10:23 AM 49.7°F9.8°C 36.8°F2.7°C 61% 10.0 mph SSE16.1 kmh SSE 12.0 mph19.3 kmh 29.93 in1013.5 mb 0.00 in0.0 mm 0.00 in0.0 mm 0.00 in0.0 mm
10:24 AM 49.9°F9.9°C 36.6°F2.6°C 60% 9.8 mph SSE15.8 kmh SSE 15.0 mph24.1 kmh 29.93 in1013.5 mb 0.00 in0.0 mm 0.00 in0.0 mm 0.00 in0.0 mm
10:25 AM 50.0°F10.0°C 36.2°F2.3°C 59% 12.5 mph SE20.1 kmh SE 18.0 mph29.0 kmh 29.93 in1013.5 mb 0.00 in0.0 mm 0.00 in0.0 mm 0.00 in0.0 mm
10:26 AM 50.1°F10.1°C 36.3°F2.4°C 59% 10.6 mph SE17.1 kmh SE 18.0 mph29.0 kmh 29.93 in1013.5 mb 0.00 in0.0 mm 0.00 in0.0 mm 0.00 in0.0 mm
10:27 AM 50.1°F10.1°C 36.8°F2.7°C 60% 11.6 mph SE18.7 kmh SE 14.0 mph22.5 kmh 29.92 in1013.2 mb 0.00 in0.0 mm 0.00 in0.0 mm 0.00 in0.0 mm
10:28 AM 50.2°F10.1°C 36.4°F2.4°C 59% 9.7 mph SE15.6 kmh SE 14.0 mph22.5 kmh 29.92 in1013.2 mb 0.00 in0.0 mm 0.00 in0.0 mm 0.00 in0.0 mm
10:29 AM 50.3°F10.2°C 37.0°F2.8°C 60% 8.2 mph SE13.2 kmh SE 14.0 mph22.5 kmh 29.93 in1013.5 mb 0.00 in0.0 mm 0.00 in0.0 mm 0.00 in0.0 mm
10:30 AM 50.3°F10.2°C 36.5°F2.5°C 59% 10.5 mph SE16.9 kmh SE 15.0 mph24.1 kmh 29.92 in1013.2 mb 0.00 in0.0 mm 0.00 in0.0 mm 0.00 in0.0 mm
10:31 AM 50.3°F10.2°C 36.5°F2.5°C 59% 12.7 mph SE20.4 kmh SE 16.0 mph25.7 kmh 29.92 in1013.2 mb 0.00 in0.0 mm 0.00 in0.0 mm 0.00 in0.0 mm
10:32 AM 50.3°F10.2°C 36.5°F2.5°C 59% 8.7 mph SE14.0 kmh SE 16.0 mph25.7 kmh 29.92 in1013.2 mb 0.00 in0.0 mm 0.00 in0.0 mm 0.00 in0.0 mm
10:33 AM 50.2°F10.1°C 36.9°F2.7°C 60% 7.3 mph SE11.7 kmh SE 12.0 mph19.3 kmh 29.93 in1013.5 mb 0.00 in0.0 mm 0.00 in0.0 mm 0.00 in0.0 mm
10:34 AM 50.3°F10.2°C 37.0°F2.8°C 60% 7.6 mph SE12.2 kmh SE 13.0 mph20.9 kmh 29.93 in1013.5 mb 0.00 in0.0 mm 0.00 in0.0 mm 0.00 in0.0 mm
10:35 AM 50.3°F10.2°C 37.0°F2.8°C 60% 9.4 mph SSE15.1 kmh SSE 13.0 mph20.9 kmh 29.93 in1013.5 mb 0.00 in0.0 mm 0.00 in0.0 mm 0.00 in0.0 mm
10:36 AM 50.3°F10.2°C 37.0°F2.8°C 60% 8.6 mph SSE13.8 kmh SSE 12.0 mph19.3 kmh 29.93 in1013.5 mb 0.00 in0.0 mm 0.00 in0.0 mm 0.00 in0.0 mm
10:37 AM 50.3°F10.2°C 36.5°F2.5°C 59% 8.9 mph SE14.3 kmh SE 13.0 mph20.9 kmh 29.93 in1013.5 mb 0.00 in0.0 mm 0.00 in0.0 mm 0.00 in0.0 mm
10:38 AM 50.3°F10.2°C 36.5°F2.5°C 59% 10.3 mph SE16.6 kmh SE 15.0 mph24.1 kmh 29.93 in1013.5 mb 0.00 in0.0 mm 0.00 in0.0 mm 0.00 in0.0 mm
10:39 AM 50.2°F10.1°C 36.4°F2.4°C 59% 8.6 mph SE13.8 kmh SE 15.0 mph24.1 kmh 29.93 in1013.5 mb 0.00 in0.0 mm 0.00 in0.0 mm 0.00 in0.0 mm
10:40 AM 50.3°F10.2°C 37.0°F2.8°C 60% 7.8 mph SE12.6 kmh SE 14.0 mph22.5 kmh 29.93 in1013.5 mb 0.00 in0.0 mm 0.00 in0.0 mm 0.00 in0.0 mm
10:41 AM 50.4°F10.2°C 37.0°F2.8°C 60% 7.8 mph SSE12.6 kmh SSE 12.0 mph19.3 kmh 29.93 in1013.5 mb 0.00 in0.0 mm 0.00 in0.0 mm 0.00 in0.0 mm
10:42 AM 50.4°F10.2°C 37.0°F2.8°C 60% 7.0 mph SSE11.3 kmh SSE 9.0 mph14.5 kmh 29.93 in1013.5 mb 0.00 in0.0 mm 0.00 in0.0 mm 0.00 in0.0 mm
10:43 AM 50.5°F10.3°C 36.7°F2.6°C 59% 9.0 mph SE14.5 kmh SE 13.0 mph20.9 kmh 29.93 in1013.5 mb 0.00 in0.0 mm 0.00 in0.0 mm 0.00 in0.0 mm
10:44 AM 50.5°F10.3°C 36.7°F2.6°C 59% 13.0 mph SE20.9 kmh SE 13.0 mph20.9 kmh 29.93 in1013.5 mb 0.00 in0.0 mm 0.00 in0.0 mm 0.00 in0.0 mm
10:45 AM 50.4°F10.2°C 36.2°F2.3°C 58% 12.1 mph SE19.5 kmh SE 16.0 mph25.7 kmh 29.93 in1013.5 mb 0.00 in0.0 mm 0.00 in0.0 mm 0.00 in0.0 mm
10:46 AM 50.4°F10.2°C 36.2°F2.3°C 58% 11.3 mph SE18.2 kmh SE 17.0 mph27.4 kmh 29.93 in1013.5 mb 0.00 in0.0 mm 0.00 in0.0 mm 0.00 in0.0 mm
10:47 AM 50.2°F10.1°C 36.4°F2.4°C 59% 12.3 mph SE19.8 kmh SE 17.0 mph27.4 kmh 29.93 in1013.5 mb 0.00 in0.0 mm 0.00 in0.0 mm 0.00 in0.0 mm
10:48 AM 50.2°F10.1°C 36.4°F2.4°C 59% 10.6 mph SE17.1 kmh SE 17.0 mph27.4 kmh 29.93 in1013.5 mb 0.00 in0.0 mm 0.00 in0.0 mm 0.00 in0.0 mm
10:49 AM 50.2°F10.1°C 36.4°F2.4°C 59% 10.3 mph SE16.6 kmh SE 15.0 mph24.1 kmh 29.93 in1013.5 mb 0.00 in0.0 mm 0.00 in0.0 mm 0.00 in0.0 mm
10:50 AM 50.2°F10.1°C 36.4°F2.4°C 59% 8.9 mph SE14.3 kmh SE 13.0 mph20.9 kmh 29.93 in1013.5 mb 0.00 in0.0 mm 0.00 in0.0 mm 0.00 in0.0 mm
10:51 AM 50.2°F10.1°C 36.9°F2.7°C 60% 11.7 mph SE18.8 kmh SE 15.0 mph24.1 kmh 29.93 in1013.5 mb 0.00 in0.0 mm 0.00 in0.0 mm 0.00 in0.0 mm
10:52 AM 50.2°F10.1°C 36.4°F2.4°C 59% 12.3 mph SE19.8 kmh SE 16.0 mph25.7 kmh 29.92 in1013.2 mb 0.00 in0.0 mm 0.00 in0.0 mm 0.00 in0.0 mm
10:53 AM 50.1°F10.1°C 36.3°F2.4°C 59% 11.3 mph SE18.2 kmh SE 16.0 mph25.7 kmh 29.92 in1013.2 mb 0.00 in0.0 mm 0.00 in0.0 mm 0.00 in0.0 mm
10:54 AM 50.1°F10.1°C 36.3°F2.4°C 59% 8.4 mph SE13.5 kmh SE 16.0 mph25.7 kmh 29.92 in1013.2 mb 0.00 in0.0 mm 0.00 in0.0 mm 0.00 in0.0 mm
10:55 AM 50.1°F10.1°C 36.3°F2.4°C 59% 11.1 mph SE17.9 kmh SE 14.0 mph22.5 kmh 29.92 in1013.2 mb 0.00 in0.0 mm 0.00 in0.0 mm 0.00 in0.0 mm
10:56 AM 50.1°F10.1°C 36.3°F2.4°C 59% 10.7 mph SE17.2 kmh SE 15.0 mph24.1 kmh 29.92 in1013.2 mb 0.00 in0.0 mm 0.00 in0.0 mm 0.00 in0.0 mm
10:57 AM 50.1°F10.1°C 36.3°F2.4°C 59% 10.5 mph SE16.9 kmh SE 15.0 mph24.1 kmh 29.92 in1013.2 mb 0.00 in0.0 mm 0.00 in0.0 mm 0.00 in0.0 mm
10:58 AM 50.0°F10.0°C 36.2°F2.3°C 59% 10.6 mph SE17.1 kmh SE 14.0 mph22.5 kmh 29.92 in1013.2 mb 0.00 in0.0 mm 0.00 in0.0 mm 0.00 in0.0 mm
10:59 AM 50.0°F10.0°C 36.2°F2.3°C 59% 7.2 mph SE11.6 kmh SE 14.0 mph22.5 kmh 29.92 in1013.2 mb 0.00 in0.0 mm 0.00 in0.0 mm 0.00 in0.0 mm
11:00 AM 50.0°F10.0°C 36.7°F2.6°C 60% 7.8 mph SE12.6 kmh SE 12.0 mph19.3 kmh 29.92 in1013.2 mb 0.00 in0.0 mm 0.00 in0.0 mm 0.00 in0.0 mm
11:01 AM 49.9°F9.9°C 36.1°F2.3°C 59% 12.7 mph SE20.4 kmh SE 17.0 mph27.4 kmh 29.92 in1013.2 mb 0.00 in0.0 mm 0.00 in0.0 mm 0.00 in0.0 mm
11:02 AM 49.9°F9.9°C 36.1°F2.3°C 59% 9.2 mph SE14.8 kmh SE 17.0 mph27.4 kmh 29.92 in1013.2 mb 0.00 in0.0 mm 0.00 in0.0 mm 0.00 in0.0 mm
11:03 AM 49.9°F9.9°C 36.6°F2.6°C 60% 11.2 mph SE18.0 kmh SE 15.0 mph24.1 kmh 29.92 in1013.2 mb 0.00 in0.0 mm 0.00 in0.0 mm 0.00 in0.0 mm
11:04 AM 49.9°F9.9°C 36.6°F2.6°C 60% 8.4 mph SE13.5 kmh SE 15.0 mph24.1 kmh 29.92 in1013.2 mb 0.00 in0.0 mm 0.00 in0.0 mm 0.00 in0.0 mm
11:05 AM 49.9°F9.9°C 36.1°F2.3°C 59% 5.9 mph SE9.5 kmh SE 12.0 mph19.3 kmh 29.92 in1013.2 mb 0.00 in0.0 mm 0.00 in0.0 mm 0.00 in0.0 mm
11:06 AM 50.0°F10.0°C 36.2°F2.3°C 59% 9.0 mph SE14.5 kmh SE 11.0 mph17.7 kmh 29.92 in1013.2 mb 0.00 in0.0 mm 0.00 in0.0 mm 0.00 in0.0 mm
11:07 AM 50.0°F10.0°C 36.2°F2.3°C 59% 7.3 mph SSE11.7 kmh SSE 11.0 mph17.7 kmh 29.92 in1013.2 mb 0.00 in0.0 mm 0.00 in0.0 mm 0.00 in0.0 mm
11:08 AM 50.1°F10.1°C 36.8°F2.7°C 60% 7.8 mph SE12.6 kmh SE 11.0 mph17.7 kmh 29.92 in1013.2 mb 0.00 in0.0 mm 0.00 in0.0 mm 0.00 in0.0 mm
11:09 AM 50.2°F10.1°C 36.9°F2.7°C 60% 7.2 mph SE11.6 kmh SE 11.0 mph17.7 kmh 29.92 in1013.2 mb 0.00 in0.0 mm 0.00 in0.0 mm 0.00 in0.0 mm
11:10 AM 50.2°F10.1°C 36.4°F2.4°C 59% 8.5 mph SSE13.7 kmh SSE 11.0 mph17.7 kmh 29.92 in1013.2 mb 0.00 in0.0 mm 0.00 in0.0 mm 0.00 in0.0 mm
11:11 AM 50.2°F10.1°C 36.4°F2.4°C 59% 8.6 mph SE13.8 kmh SE 13.0 mph20.9 kmh 29.92 in1013.2 mb 0.00 in0.0 mm 0.00 in0.0 mm 0.00 in0.0 mm
11:12 AM 50.2°F10.1°C 36.4°F2.4°C 59% 9.6 mph SSE15.4 kmh SSE 14.0 mph22.5 kmh 29.92 in1013.2 mb 0.00 in0.0 mm 0.00 in0.0 mm 0.00 in0.0 mm
11:13 AM 50.2°F10.1°C 36.4°F2.4°C 59% 6.4 mph SSE10.3 kmh SSE 14.0 mph22.5 kmh 29.92 in1013.2 mb 0.00 in0.0 mm 0.00 in0.0 mm 0.00 in0.0 mm
11:14 AM 50.2°F10.1°C 36.9°F2.7°C 60% 7.8 mph SE12.6 kmh SE 12.0 mph19.3 kmh 29.92 in1013.2 mb 0.00 in0.0 mm 0.00 in0.0 mm 0.00 in0.0 mm
11:15 AM 50.2°F10.1°C 36.9°F2.7°C 60% 7.2 mph SE11.6 kmh SE 12.0 mph19.3 kmh 29.92 in1013.2 mb 0.00 in0.0 mm 0.00 in0.0 mm 0.00 in0.0 mm
11:16 AM 50.2°F10.1°C 36.9°F2.7°C 60% 8.1 mph SE13.0 kmh SE 11.0 mph17.7 kmh 29.92 in1013.2 mb 0.00 in0.0 mm 0.00 in0.0 mm 0.00 in0.0 mm
11:17 AM 50.3°F10.2°C 37.0°F2.8°C 60% 8.0 mph SE12.9 kmh SE 11.0 mph17.7 kmh 29.91 in1012.9 mb 0.00 in0.0 mm 0.00 in0.0 mm 0.00 in0.0 mm
11:18 AM 50.3°F10.2°C 37.0°F2.8°C 60% 8.0 mph SSE12.9 kmh SSE 12.0 mph19.3 kmh 29.91 in1012.9 mb 0.00 in0.0 mm 0.00 in0.0 mm 0.00 in0.0 mm
11:19 AM 50.4°F10.2°C 37.0°F2.8°C 60% 8.5 mph SE13.7 kmh SE 12.0 mph19.3 kmh 29.91 in1012.9 mb 0.00 in0.0 mm 0.00 in0.0 mm 0.00 in0.0 mm
11:20 AM 50.5°F10.3°C 36.7°F2.6°C 59% 6.7 mph SE10.8 kmh SE 13.0 mph20.9 kmh 29.91 in1012.9 mb 0.00 in0.0 mm 0.00 in0.0 mm 0.00 in0.0 mm
11:21 AM 50.6°F10.3°C 37.2°F2.9°C 60% 8.0 mph SE12.9 kmh SE 11.0 mph17.7 kmh 29.91 in1012.9 mb 0.00 in0.0 mm 0.00 in0.0 mm 0.00 in0.0 mm
11:22 AM 50.8°F10.4°C 37.0°F2.8°C 59% 10.0 mph SE16.1 kmh SE 13.0 mph20.9 kmh 29.91 in1012.9 mb 0.00 in0.0 mm 0.00 in0.0 mm 0.00 in0.0 mm
11:23 AM 50.9°F10.5°C 37.1°F2.8°C 59% 9.7 mph SE15.6 kmh SE 13.0 mph20.9 kmh 29.91 in1012.9 mb 0.00 in0.0 mm 0.00 in0.0 mm 0.00 in0.0 mm
11:24 AM 51.0°F10.6°C 36.7°F2.6°C 58% 7.9 mph SSE12.7 kmh SSE 13.0 mph20.9 kmh 29.91 in1012.9 mb 0.00 in0.0 mm 0.00 in0.0 mm 0.00 in0.0 mm
11:25 AM 51.1°F10.6°C 36.8°F2.7°C 58% 6.8 mph SSE10.9 kmh SSE 11.0 mph17.7 kmh 29.91 in1012.9 mb 0.00 in0.0 mm 0.00 in0.0 mm 0.00 in0.0 mm
11:26 AM 51.2°F10.7°C 36.9°F2.7°C 58% 8.0 mph SE12.9 kmh SE 12.0 mph19.3 kmh 29.91 in1012.9 mb 0.00 in0.0 mm 0.00 in0.0 mm 0.00 in0.0 mm
11:27 AM 51.2°F10.7°C 36.9°F2.7°C 58% 11.0 mph SSE17.7 kmh SSE 15.0 mph24.1 kmh 29.91 in1012.9 mb 0.00 in0.0 mm 0.00 in0.0 mm 0.00 in0.0 mm
11:28 AM 51.4°F10.8°C 37.1°F2.8°C 58% 9.0 mph SE14.5 kmh SE 14.0 mph22.5 kmh 29.91 in1012.9 mb 0.00 in0.0 mm 0.00 in0.0 mm 0.00 in0.0 mm
11:29 AM 51.4°F10.8°C 37.1°F2.8°C 58% 8.8 mph SSE14.2 kmh SSE 15.0 mph24.1 kmh 29.91 in1012.9 mb 0.00 in0.0 mm 0.00 in0.0 mm 0.00 in0.0 mm
11:30 AM 51.6°F10.9°C 37.3°F2.9°C 58% 7.6 mph SE12.2 kmh SE 15.0 mph24.1 kmh 29.91 in1012.9 mb 0.00 in0.0 mm 0.00 in0.0 mm 0.00 in0.0 mm
11:31 AM 51.7°F10.9°C 37.0°F2.8°C 57% 8.9 mph SE14.3 kmh SE 13.0 mph20.9 kmh 29.91 in1012.9 mb 0.00 in0.0 mm 0.00 in0.0 mm 0.00 in0.0 mm
11:32 AM 51.8°F11.0°C 36.6°F2.6°C 56% 10.5 mph SE16.9 kmh SE 14.0 mph22.5 kmh 29.91 in1012.9 mb 0.00 in0.0 mm 0.00 in0.0 mm 0.00 in0.0 mm
11:33 AM 51.9°F11.1°C 36.7°F2.6°C 56% 10.3 mph SE16.6 kmh SE 14.0 mph22.5 kmh 29.91 in1012.9 mb 0.00 in0.0 mm 0.00 in0.0 mm 0.00 in0.0 mm
11:34 AM 51.9°F11.1°C 36.2°F2.3°C 55% 12.7 mph SE20.4 kmh SE 15.0 mph24.1 kmh 29.91 in1012.9 mb 0.00 in0.0 mm 0.00 in0.0 mm 0.00 in0.0 mm
11:35 AM 51.9°F11.1°C 36.2°F2.3°C 55% 13.4 mph SSE21.6 kmh SSE 16.0 mph25.7 kmh 29.91 in1012.9 mb 0.00 in0.0 mm 0.00 in0.0 mm 0.00 in0.0 mm
11:36 AM 51.9°F11.1°C 36.7°F2.6°C 56% 9.3 mph SE15.0 kmh SE 16.0 mph25.7 kmh 29.92 in1013.2 mb 0.00 in0.0 mm 0.00 in0.0 mm 0.00 in0.0 mm
11:37 AM 51.9°F11.1°C 36.7°F2.6°C 56% 10.4 mph SE16.7 kmh SE 15.0 mph24.1 kmh 29.92 in1013.2 mb 0.00 in0.0 mm 0.00 in0.0 mm 0.00 in0.0 mm
11:38 AM 52.0°F11.1°C 37.2°F2.9°C 57% 6.9 mph SE11.1 kmh SE 13.0 mph20.9 kmh 29.91 in1012.9 mb 0.00 in0.0 mm 0.00 in0.0 mm 0.00 in0.0 mm
11:39 AM 52.0°F11.1°C 37.2°F2.9°C 57% 8.2 mph SE13.2 kmh SE 12.0 mph19.3 kmh 29.91 in1012.9 mb 0.00 in0.0 mm 0.00 in0.0 mm 0.00 in0.0 mm
11:40 AM 52.1°F11.2°C 37.3°F2.9°C 57% 7.1 mph SE11.4 kmh SE 12.0 mph19.3 kmh 29.91 in1012.9 mb 0.00 in0.0 mm 0.00 in0.0 mm 0.00 in0.0 mm
11:41 AM 52.2°F11.2°C 37.0°F2.8°C 56% 10.7 mph SSE17.2 kmh SSE 16.0 mph25.7 kmh 29.91 in1012.9 mb 0.00 in0.0 mm 0.00 in0.0 mm 0.00 in0.0 mm
11:42 AM 52.3°F11.3°C 37.1°F2.8°C 56% 8.4 mph SE13.5 kmh SE 16.0 mph25.7 kmh 29.91 in1012.9 mb 0.00 in0.0 mm 0.00 in0.0 mm 0.00 in0.0 mm
11:43 AM 52.3°F11.3°C 37.5°F3.1°C 57% 7.9 mph SE12.7 kmh SE 14.0 mph22.5 kmh 29.91 in1012.9 mb 0.00 in0.0 mm 0.00 in0.0 mm 0.00 in0.0 mm
11:44 AM 52.4°F11.3°C 37.2°F2.9°C 56% 10.0 mph SE16.1 kmh SE 14.0 mph22.5 kmh 29.91 in1012.9 mb 0.00 in0.0 mm 0.00 in0.0 mm 0.00 in0.0 mm
11:45 AM 52.4°F11.3°C 37.2°F2.9°C 56% 10.7 mph SE17.2 kmh SE 14.0 mph22.5 kmh 29.91 in1012.9 mb 0.00 in0.0 mm 0.00 in0.0 mm 0.00 in0.0 mm
11:46 AM 52.6°F11.4°C 37.4°F3.0°C 56% 8.0 mph SE12.9 kmh SE 12.0 mph19.3 kmh 29.91 in1012.9 mb 0.00 in0.0 mm 0.00 in0.0 mm 0.00 in0.0 mm
11:47 AM 52.7°F11.5°C 37.4°F3.0°C 56% 7.0 mph SSE11.3 kmh SSE 9.0 mph14.5 kmh 29.91 in1012.9 mb 0.00 in0.0 mm 0.00 in0.0 mm 0.00 in0.0 mm
11:48 AM 52.8°F11.6°C 38.0°F3.3°C 57% 6.0 mph ESE9.7 kmh ESE 9.0 mph14.5 kmh 29.91 in1012.9 mb 0.00 in0.0 mm 0.00 in0.0 mm 0.00 in0.0 mm
11:49 AM 53.0°F11.7°C 37.7°F3.2°C 56% 5.0 mph SE8.0 kmh SE 8.0 mph12.9 kmh 29.91 in1012.9 mb 0.00 in0.0 mm 0.00 in0.0 mm 0.00 in0.0 mm
11:50 AM 53.1°F11.7°C 37.8°F3.2°C 56% 10.9 mph SE17.5 kmh SE 16.0 mph25.7 kmh 29.91 in1012.9 mb 0.00 in0.0 mm 0.00 in0.0 mm 0.00 in0.0 mm
11:51 AM 53.2°F11.8°C 37.0°F2.8°C 54% 12.2 mph SE19.6 kmh SE 16.0 mph25.7 kmh 29.91 in1012.9 mb 0.00 in0.0 mm 0.00 in0.0 mm 0.00 in0.0 mm
11:52 AM 53.1°F11.7°C 36.9°F2.7°C 54% 9.9 mph SE15.9 kmh SE 15.0 mph24.1 kmh 29.91 in1012.9 mb 0.00 in0.0 mm 0.00 in0.0 mm 0.00 in0.0 mm
11:53 AM 53.1°F11.7°C 37.4°F3.0°C 55% 9.3 mph SE15.0 kmh SE 13.0 mph20.9 kmh 29.91 in1012.9 mb 0.00 in0.0 mm 0.00 in0.0 mm 0.00 in0.0 mm
11:54 AM 53.2°F11.8°C 37.9°F3.3°C 56% 11.0 mph SE17.7 kmh SE 14.0 mph22.5 kmh 29.91 in1012.9 mb 0.00 in0.0 mm 0.00 in0.0 mm 0.00 in0.0 mm
11:55 AM 53.3°F11.8°C 37.1°F2.8°C 54% 8.1 mph SE13.0 kmh SE 14.0 mph22.5 kmh 29.91 in1012.9 mb 0.00 in0.0 mm 0.00 in0.0 mm 0.00 in0.0 mm
11:56 AM 53.3°F11.8°C 37.1°F2.8°C 54% 11.0 mph SE17.7 kmh SE 13.0 mph20.9 kmh 29.91 in1012.9 mb 0.00 in0.0 mm 0.00 in0.0 mm 0.00 in0.0 mm
11:57 AM 53.2°F11.8°C 37.5°F3.1°C 55% 10.3 mph SE16.6 kmh SE 13.0 mph20.9 kmh 29.91 in1012.9 mb 0.00 in0.0 mm 0.00 in0.0 mm 0.00 in0.0 mm
11:58 AM 53.1°F11.7°C 37.4°F3.0°C 55% 11.2 mph SE18.0 kmh SE 15.0 mph24.1 kmh 29.91 in1012.9 mb 0.00 in0.0 mm 0.00 in0.0 mm 0.00 in0.0 mm
11:59 AM 53.1°F11.7°C 37.4°F3.0°C 55% 11.0 mph SE17.7 kmh SE 14.0 mph22.5 kmh 29.91 in1012.9 mb 0.00 in0.0 mm 0.00 in0.0 mm 0.00 in0.0 mm
12:00 PM 53.0°F11.7°C 36.8°F2.7°C 54% 9.0 mph SE14.5 kmh SE 13.0 mph20.9 kmh 29.91 in1012.9 mb 0.00 in0.0 mm 0.00 in0.0 mm 0.00 in0.0 mm
12:01 PM 53.0°F11.7°C 37.3°F2.9°C 55% 10.0 mph SE16.1 kmh SE 10.0 mph16.1 kmh 29.91 in1012.9 mb 0.00 in0.0 mm 0.00 in0.0 mm 0.00 in0.0 mm
12:02 PM 53.1°F11.7°C 37.4°F3.0°C 55% 8.3 mph SE13.4 kmh SE 12.0 mph19.3 kmh 29.91 in1012.9 mb 0.00 in0.0 mm 0.00 in0.0 mm 0.00 in0.0 mm
12:03 PM 53.2°F11.8°C 38.4°F3.6°C 57% 10.0 mph SE16.1 kmh SE 16.0 mph25.7 kmh 29.91 in1012.9 mb 0.00 in0.0 mm 0.00 in0.0 mm 0.00 in0.0 mm
12:04 PM 53.2°F11.8°C 37.9°F3.3°C 56% 11.0 mph SE17.7 kmh SE 15.0 mph24.1 kmh 29.91 in1012.9 mb 0.00 in0.0 mm 0.00 in0.0 mm 0.00 in0.0 mm
12:05 PM 53.2°F11.8°C 37.0°F2.8°C 54% 14.0 mph SE22.5 kmh SE 16.0 mph25.7 kmh 29.91 in1012.9 mb 0.00 in0.0 mm 0.00 in0.0 mm 0.00 in0.0 mm
12:06 PM 53.0°F11.7°C 36.8°F2.7°C 54% 13.3 mph SE21.4 kmh SE 16.0 mph25.7 kmh 29.91 in1012.9 mb 0.00 in0.0 mm 0.00 in0.0 mm 0.00 in0.0 mm
12:07 PM 53.0°F11.7°C 36.8°F2.7°C 54% 11.3 mph SE18.2 kmh SE 16.0 mph25.7 kmh 29.91 in1012.9 mb 0.00 in0.0 mm 0.00 in0.0 mm 0.00 in0.0 mm
12:08 PM 53.0°F11.7°C 37.7°F3.2°C 56% 9.5 mph SE15.3 kmh SE 14.0 mph22.5 kmh 29.91 in1012.9 mb 0.00 in0.0 mm 0.00 in0.0 mm 0.00 in0.0 mm
12:09 PM 53.0°F11.7°C 37.3°F2.9°C 55% 10.6 mph SE17.1 kmh SE 13.0 mph20.9 kmh 29.91 in1012.9 mb 0.00 in0.0 mm 0.00 in0.0 mm 0.00 in0.0 mm
12:10 PM 53.0°F11.7°C 37.3°F2.9°C 55% 8.3 mph SE13.4 kmh SE 13.0 mph20.9 kmh 29.91 in1012.9 mb 0.00 in0.0 mm 0.00 in0.0 mm 0.00 in0.0 mm
12:11 PM 53.1°F11.7°C 37.8°F3.2°C 56% 11.0 mph SE17.7 kmh SE 15.0 mph24.1 kmh 29.91 in1012.9 mb 0.00 in0.0 mm 0.00 in0.0 mm 0.00 in0.0 mm
12:12 PM 53.1°F11.7°C 37.4°F3.0°C 55% 8.0 mph SE12.9 kmh SE 11.0 mph17.7 kmh 29.91 in1012.9 mb 0.00 in0.0 mm 0.00 in0.0 mm 0.00 in0.0 mm
12:13 PM 53.1°F11.7°C 37.4°F3.0°C 55% 8.0 mph SE12.9 kmh SE 9.0 mph14.5 kmh 29.91 in1012.9 mb 0.00 in0.0 mm 0.00 in0.0 mm 0.00 in0.0 mm
12:14 PM 53.1°F11.7°C 37.4°F3.0°C 55% 10.0 mph SE16.1 kmh SE 13.0 mph20.9 kmh 29.91 in1012.9 mb 0.00 in0.0 mm 0.00 in0.0 mm 0.00 in0.0 mm
12:15 PM 53.0°F11.7°C 36.8°F2.7°C 54% 11.0 mph SE17.7 kmh SE 14.0 mph22.5 kmh 29.91 in1012.9 mb 0.00 in0.0 mm 0.00 in0.0 mm 0.00 in0.0 mm
12:16 PM 52.8°F11.6°C 37.1°F2.8°C 55% 11.0 mph SE17.7 kmh SE 14.0 mph22.5 kmh 29.91 in1012.9 mb 0.00 in0.0 mm 0.00 in0.0 mm 0.00 in0.0 mm
12:17 PM 52.8°F11.6°C 37.1°F2.8°C 55% 10.0 mph SE16.1 kmh SE 13.0 mph20.9 kmh 29.91 in1012.9 mb 0.00 in0.0 mm 0.00 in0.0 mm 0.00 in0.0 mm
12:18 PM 52.7°F11.5°C 37.0°F2.8°C 55% 6.7 mph SE10.8 kmh SE 9.0 mph14.5 kmh 29.91 in1012.9 mb 0.00 in0.0 mm 0.00 in0.0 mm 0.00 in0.0 mm
12:19 PM 52.7°F11.5°C 37.4°F3.0°C 56% 8.0 mph SE12.9 kmh SE 9.0 mph14.5 kmh 29.90 in1012.5 mb 0.00 in0.0 mm 0.00 in0.0 mm 0.00 in0.0 mm
12:20 PM 52.6°F11.4°C 37.4°F3.0°C 56% 10.0 mph SE16.1 kmh SE 12.0 mph19.3 kmh 29.90 in1012.5 mb 0.00 in0.0 mm 0.00 in0.0 mm 0.00 in0.0 mm
12:21 PM 52.5°F11.4°C 37.3°F2.9°C 56% 9.0 mph SE14.5 kmh SE 11.0 mph17.7 kmh 29.90 in1012.5 mb 0.00 in0.0 mm 0.00 in0.0 mm 0.00 in0.0 mm
12:22 PM 52.5°F11.4°C 37.3°F2.9°C 56% 10.8 mph SE17.4 kmh SE 14.0 mph22.5 kmh 29.90 in1012.5 mb 0.00 in0.0 mm 0.00 in0.0 mm 0.00 in0.0 mm
12:23 PM 52.5°F11.4°C 37.7°F3.2°C 57% 7.2 mph SE11.6 kmh SE 14.0 mph22.5 kmh 29.90 in1012.5 mb 0.00 in0.0 mm 0.00 in0.0 mm 0.00 in0.0 mm
12:24 PM 52.4°F11.3°C 37.6°F3.1°C 57% 9.4 mph SE15.1 kmh SE 13.0 mph20.9 kmh 29.90 in1012.5 mb 0.00 in0.0 mm 0.00 in0.0 mm 0.00 in0.0 mm
12:25 PM 52.5°F11.4°C 37.7°F3.2°C 57% 7.8 mph SE12.6 kmh SE 13.0 mph20.9 kmh 29.90 in1012.5 mb 0.00 in0.0 mm 0.00 in0.0 mm 0.00 in0.0 mm
12:26 PM 52.4°F11.3°C 38.1°F3.4°C 58% 8.4 mph SE13.5 kmh SE 10.0 mph16.1 kmh 29.90 in1012.5 mb 0.00 in0.0 mm 0.00 in0.0 mm 0.00 in0.0 mm
12:27 PM 52.5°F11.4°C 38.2°F3.4°C 58% 8.0 mph SE12.9 kmh SE 11.0 mph17.7 kmh 29.90 in1012.5 mb 0.00 in0.0 mm 0.00 in0.0 mm 0.00 in0.0 mm
12:28 PM 52.5°F11.4°C 37.7°F3.2°C 57% 10.0 mph SE16.1 kmh SE 12.0 mph19.3 kmh 29.90 in1012.5 mb 0.00 in0.0 mm 0.00 in0.0 mm 0.00 in0.0 mm
12:29 PM 52.5°F11.4°C 38.2°F3.4°C 58% 7.8 mph SE12.6 kmh SE 8.0 mph12.9 kmh 29.90 in1012.5 mb 0.00 in0.0 mm 0.00 in0.0 mm 0.00 in0.0 mm
12:30 PM 52.5°F11.4°C 38.2°F3.4°C 58% 7.4 mph SE11.9 kmh SE 11.0 mph17.7 kmh 29.90 in1012.5 mb 0.00 in0.0 mm 0.00 in0.0 mm 0.00 in0.0 mm
12:31 PM 52.6°F11.4°C 37.8°F3.2°C 57% 9.7 mph SE15.6 kmh SE 13.0 mph20.9 kmh 29.90 in1012.5 mb 0.00 in0.0 mm 0.00 in0.0 mm 0.00 in0.0 mm
12:32 PM 52.6°F11.4°C 38.2°F3.4°C 58% 10.2 mph SE16.4 kmh SE 14.0 mph22.5 kmh 29.90 in1012.5 mb 0.00 in0.0 mm 0.00 in0.0 mm 0.00 in0.0 mm
12:33 PM 52.6°F11.4°C 38.2°F3.4°C 58% 9.1 mph SE14.6 kmh SE 14.0 mph22.5 kmh 29.90 in1012.5 mb 0.00 in0.0 mm 0.00 in0.0 mm 0.00 in0.0 mm
12:34 PM 52.6°F11.4°C 37.8°F3.2°C 57% 10.4 mph SE16.7 kmh SE 14.0 mph22.5 kmh 29.90 in1012.5 mb 0.00 in0.0 mm 0.00 in0.0 mm 0.00 in0.0 mm
12:35 PM 52.7°F11.5°C 38.3°F3.5°C 58% 7.5 mph SE12.1 kmh SE 14.0 mph22.5 kmh 29.90 in1012.5 mb 0.00 in0.0 mm 0.00 in0.0 mm 0.00 in0.0 mm
12:36 PM 52.8°F11.6°C 38.4°F3.6°C 58% 8.0 mph SE12.9 kmh SE 11.0 mph17.7 kmh 29.89 in1012.2 mb 0.00 in0.0 mm 0.00 in0.0 mm 0.00 in0.0 mm
12:37 PM 52.9°F11.6°C 38.5°F3.6°C 58% 8.0 mph SE12.9 kmh SE 11.0 mph17.7 kmh 29.90 in1012.5 mb 0.00 in0.0 mm 0.00 in0.0 mm 0.00 in0.0 mm
12:38 PM 53.0°F11.7°C 38.2°F3.4°C 57% 8.6 mph SE13.8 kmh SE 11.0 mph17.7 kmh 29.89 in1012.2 mb 0.00 in0.0 mm 0.00 in0.0 mm 0.00 in0.0 mm
12:39 PM 53.0°F11.7°C 37.7°F3.2°C 56% 10.3 mph SE16.6 kmh SE 12.0 mph19.3 kmh 29.89 in1012.2 mb 0.00 in0.0 mm 0.00 in0.0 mm 0.00 in0.0 mm
12:40 PM 53.0°F11.7°C 38.2°F3.4°C 57% 10.7 mph SE17.2 kmh SE 13.0 mph20.9 kmh 29.89 in1012.2 mb 0.00 in0.0 mm 0.00 in0.0 mm 0.00 in0.0 mm
12:41 PM 53.0°F11.7°C 38.2°F3.4°C 57% 9.2 mph SE14.8 kmh SE 13.0 mph20.9 kmh 29.89 in1012.2 mb 0.00 in0.0 mm 0.00 in0.0 mm 0.00 in0.0 mm
12:42 PM 52.9°F11.6°C 38.1°F3.4°C 57% 7.5 mph SE12.1 kmh SE 12.0 mph19.3 kmh 29.89 in1012.2 mb 0.00 in0.0 mm 0.00 in0.0 mm 0.00 in0.0 mm
12:43 PM 53.0°F11.7°C 38.2°F3.4°C 57% 7.8 mph SE12.6 kmh SE 11.0 mph17.7 kmh 29.89 in1012.2 mb 0.00 in0.0 mm 0.00 in0.0 mm 0.00 in0.0 mm
12:44 PM 53.1°F11.7°C 38.3°F3.5°C 57% 9.5 mph SE15.3 kmh SE 14.0 mph22.5 kmh 29.89 in1012.2 mb 0.00 in0.0 mm 0.00 in0.0 mm 0.00 in0.0 mm
12:45 PM 53.1°F11.7°C 38.3°F3.5°C 57% 10.7 mph SE17.2 kmh SE 14.0 mph22.5 kmh 29.89 in1012.2 mb 0.00 in0.0 mm 0.00 in0.0 mm 0.00 in0.0 mm
12:46 PM 53.3°F11.8°C 38.5°F3.6°C 57% 9.2 mph SE14.8 kmh SE 13.0 mph20.9 kmh 29.89 in1012.2 mb 0.00 in0.0 mm 0.00 in0.0 mm 0.00 in0.0 mm
12:47 PM 53.4°F11.9°C 38.6°F3.7°C 57% 10.0 mph SE16.1 kmh SE 13.0 mph20.9 kmh 29.89 in1012.2 mb 0.00 in0.0 mm 0.00 in0.0 mm 0.00 in0.0 mm
12:48 PM 53.4°F11.9°C 38.1°F3.4°C 56% 12.0 mph SE19.3 kmh SE 17.0 mph27.4 kmh 29.89 in1012.2 mb 0.00 in0.0 mm 0.00 in0.0 mm 0.00 in0.0 mm
12:49 PM 53.5°F11.9°C 38.2°F3.4°C 56% 11.4 mph SE18.3 kmh SE 13.0 mph20.9 kmh 29.89 in1012.2 mb 0.00 in0.0 mm 0.00 in0.0 mm 0.00 in0.0 mm
12:50 PM 53.5°F11.9°C 38.2°F3.4°C 56% 9.2 mph SE14.8 kmh SE 13.0 mph20.9 kmh 29.89 in1012.2 mb 0.00 in0.0 mm 0.00 in0.0 mm 0.00 in0.0 mm
12:51 PM 53.5°F11.9°C 38.2°F3.4°C 56% 8.4 mph SE13.5 kmh SE 12.0 mph19.3 kmh 29.89 in1012.2 mb 0.00 in0.0 mm 0.00 in0.0 mm 0.00 in0.0 mm
12:52 PM 53.6°F12.0°C 38.3°F3.5°C 56% 9.6 mph SE15.4 kmh SE 12.0 mph19.3 kmh 29.89 in1012.2 mb 0.00 in0.0 mm 0.00 in0.0 mm 0.00 in0.0 mm
12:53 PM 53.6°F12.0°C 38.3°F3.5°C 56% 9.7 mph SE15.6 kmh SE 12.0 mph19.3 kmh 29.89 in1012.2 mb 0.00 in0.0 mm 0.00 in0.0 mm 0.00 in0.0 mm
12:54 PM 53.6°F12.0°C 38.3°F3.5°C 56% 7.4 mph SE11.9 kmh SE 11.0 mph17.7 kmh 29.89 in1012.2 mb 0.00 in0.0 mm 0.00 in0.0 mm 0.00 in0.0 mm
12:55 PM 53.7°F12.1°C 38.4°F3.6°C 56% 9.4 mph SSE15.1 kmh SSE 13.0 mph20.9 kmh 29.89 in1012.2 mb 0.00 in0.0 mm 0.00 in0.0 mm 0.00 in0.0 mm
12:56 PM 53.8°F12.1°C 38.9°F3.8°C 57% 6.6 mph SE10.6 kmh SE 13.0 mph20.9 kmh 29.89 in1012.2 mb 0.00 in0.0 mm 0.00 in0.0 mm 0.00 in0.0 mm
12:57 PM 53.9°F12.2°C 39.0°F3.9°C 57% 5.0 mph SSE8.0 kmh SSE 9.0 mph14.5 kmh 29.89 in1012.2 mb 0.00 in0.0 mm 0.00 in0.0 mm 0.00 in0.0 mm
12:58 PM 54.0°F12.2°C 38.7°F3.7°C 56% 9.0 mph SE14.5 kmh SE 11.0 mph17.7 kmh 29.89 in1012.2 mb 0.00 in0.0 mm 0.00 in0.0 mm 0.00 in0.0 mm
12:59 PM 54.1°F12.3°C 38.8°F3.8°C 56% 12.3 mph SE19.8 kmh SE 14.0 mph22.5 kmh 29.89 in1012.2 mb 0.00 in0.0 mm 0.00 in0.0 mm 0.00 in0.0 mm
01:00 PM 54.2°F12.3°C 38.4°F3.6°C 55% 10.3 mph SE16.6 kmh SE 14.0 mph22.5 kmh 29.89 in1012.2 mb 0.00 in0.0 mm 0.00 in0.0 mm 0.00 in0.0 mm
01:01 PM 54.2°F12.3°C 38.4°F3.6°C 55% 7.3 mph SE11.7 kmh SE 12.0 mph19.3 kmh 29.89 in1012.2 mb 0.00 in0.0 mm 0.00 in0.0 mm 0.00 in0.0 mm
01:02 PM 54.2°F12.3°C 38.8°F3.8°C 56% 11.2 mph SE18.0 kmh SE 14.0 mph22.5 kmh 29.89 in1012.2 mb 0.00 in0.0 mm 0.00 in0.0 mm 0.00 in0.0 mm
01:03 PM 54.2°F12.3°C 38.4°F3.6°C 55% 12.0 mph SE19.3 kmh SE 15.0 mph24.1 kmh 29.89 in1012.2 mb 0.00 in0.0 mm 0.00 in0.0 mm 0.00 in0.0 mm
01:04 PM 54.1°F12.3°C 38.3°F3.5°C 55% 13.0 mph SE20.9 kmh SE 16.0 mph25.7 kmh 29.89 in1012.2 mb 0.00 in0.0 mm 0.00 in0.0 mm 0.00 in0.0 mm
01:05 PM 54.1°F12.3°C 38.8°F3.8°C 56% 9.7 mph SE15.6 kmh SE 14.0 mph22.5 kmh 29.89 in1012.2 mb 0.00 in0.0 mm 0.00 in0.0 mm 0.00 in0.0 mm
01:06 PM 54.0°F12.2°C 38.7°F3.7°C 56% 9.5 mph SE15.3 kmh SE 14.0 mph22.5 kmh 29.89 in1012.2 mb 0.00 in0.0 mm 0.00 in0.0 mm 0.00 in0.0 mm
01:07 PM 54.1°F12.3°C 39.2°F4.0°C 57% 9.7 mph SE15.6 kmh SE 13.0 mph20.9 kmh 29.89 in1012.2 mb 0.00 in0.0 mm 0.00 in0.0 mm 0.00 in0.0 mm
01:08 PM 54.1°F12.3°C 38.8°F3.8°C 56% 12.6 mph SE20.3 kmh SE 16.0 mph25.7 kmh 29.89 in1012.2 mb 0.00 in0.0 mm 0.00 in0.0 mm 0.00 in0.0 mm
01:09 PM 54.0°F12.2°C 38.2°F3.4°C 55% 12.0 mph SE19.3 kmh SE 16.0 mph25.7 kmh 29.89 in1012.2 mb 0.00 in0.0 mm 0.00 in0.0 mm 0.00 in0.0 mm
01:10 PM 53.9°F12.2°C 38.6°F3.7°C 56% 9.3 mph SE15.0 kmh SE 16.0 mph25.7 kmh 29.89 in1012.2 mb 0.00 in0.0 mm 0.00 in0.0 mm 0.00 in0.0 mm
01:11 PM 53.9°F12.2°C 38.6°F3.7°C 56% 9.7 mph SE15.6 kmh SE 13.0 mph20.9 kmh 29.89 in1012.2 mb 0.00 in0.0 mm 0.00 in0.0 mm 0.00 in0.0 mm
01:12 PM 54.0°F12.2°C 38.7°F3.7°C 56% 7.7 mph SE12.4 kmh SE 13.0 mph20.9 kmh 29.89 in1012.2 mb 0.00 in0.0 mm 0.00 in0.0 mm 0.00 in0.0 mm
01:13 PM 54.1°F12.3°C 38.3°F3.5°C 55% 9.8 mph SE15.8 kmh SE 14.0 mph22.5 kmh 29.89 in1012.2 mb 0.00 in0.0 mm 0.00 in0.0 mm 0.00 in0.0 mm
01:14 PM 54.1°F12.3°C 38.8°F3.8°C 56% 7.9 mph SE12.7 kmh SE 14.0 mph22.5 kmh 29.89 in1012.2 mb 0.00 in0.0 mm 0.00 in0.0 mm 0.00 in0.0 mm
01:15 PM 54.2°F12.3°C 38.8°F3.8°C 56% 9.6 mph SE15.4 kmh SE 12.0 mph19.3 kmh 29.89 in1012.2 mb 0.00 in0.0 mm 0.00 in0.0 mm 0.00 in0.0 mm
01:16 PM 54.2°F12.3°C 38.8°F3.8°C 56% 8.4 mph SE13.5 kmh SE 12.0 mph19.3 kmh 29.89 in1012.2 mb 0.00 in0.0 mm 0.00 in0.0 mm 0.00 in0.0 mm
01:17 PM 54.1°F12.3°C 38.8°F3.8°C 56% 7.3 mph SE11.7 kmh SE 12.0 mph19.3 kmh 29.89 in1012.2 mb 0.00 in0.0 mm 0.00 in0.0 mm 0.00 in0.0 mm
01:18 PM 54.1°F12.3°C 38.8°F3.8°C 56% 6.4 mph SSE10.3 kmh SSE 12.0 mph19.3 kmh 29.89 in1012.2 mb 0.00 in0.0 mm 0.00 in0.0 mm 0.00 in0.0 mm
01:19 PM 54.2°F12.3°C 38.4°F3.6°C 55% 7.0 mph SE11.3 kmh SE 11.0 mph17.7 kmh 29.89 in1012.2 mb 0.00 in0.0 mm 0.00 in0.0 mm 0.00 in0.0 mm
01:20 PM 54.2°F12.3°C 38.8°F3.8°C 56% 7.9 mph SE12.7 kmh SE 12.0 mph19.3 kmh 29.89 in1012.2 mb 0.00 in0.0 mm 0.00 in0.0 mm 0.00 in0.0 mm
01:21 PM 54.2°F12.3°C 38.8°F3.8°C 56% 8.4 mph SE13.5 kmh SE 12.0 mph19.3 kmh 29.89 in1012.2 mb 0.00 in0.0 mm 0.00 in0.0 mm 0.00 in0.0 mm
01:22 PM 54.2°F12.3°C 38.8°F3.8°C 56% 8.0 mph SE12.9 kmh SE 11.0 mph17.7 kmh 29.89 in1012.2 mb 0.00 in0.0 mm 0.00 in0.0 mm 0.00 in0.0 mm
01:23 PM 54.1°F12.3°C 38.8°F3.8°C 56% 9.3 mph SE15.0 kmh SE 12.0 mph19.3 kmh 29.89 in1012.2 mb 0.00 in0.0 mm 0.00 in0.0 mm 0.00 in0.0 mm
01:24 PM 54.1°F12.3°C 38.8°F3.8°C 56% 8.0 mph SE12.9 kmh SE 12.0 mph19.3 kmh 29.89 in1012.2 mb 0.00 in0.0 mm 0.00 in0.0 mm 0.00 in0.0 mm
01:25 PM 54.1°F12.3°C 38.8°F3.8°C 56% 8.3 mph SE13.4 kmh SE 11.0 mph17.7 kmh 29.89 in1012.2 mb 0.00 in0.0 mm 0.00 in0.0 mm 0.00 in0.0 mm
01:26 PM 54.0°F12.2°C 38.7°F3.7°C 56% 8.8 mph SE14.2 kmh SE 11.0 mph17.7 kmh 29.89 in1012.2 mb 0.00 in0.0 mm 0.00 in0.0 mm 0.00 in0.0 mm
01:27 PM 54.0°F12.2°C 39.1°F3.9°C 57% 7.0 mph SE11.3 kmh SE 10.0 mph16.1 kmh 29.89 in1012.2 mb 0.00 in0.0 mm 0.00 in0.0 mm 0.00 in0.0 mm
01:28 PM 53.9°F12.2°C 39.0°F3.9°C 57% 8.0 mph SE12.9 kmh SE 11.0 mph17.7 kmh 29.89 in1012.2 mb 0.00 in0.0 mm 0.00 in0.0 mm 0.00 in0.0 mm
01:29 PM 53.9°F12.2°C 39.0°F3.9°C 57% 8.0 mph SE12.9 kmh SE 10.0 mph16.1 kmh 29.89 in1012.2 mb 0.00 in0.0 mm 0.00 in0.0 mm 0.00 in0.0 mm
01:30 PM 54.0°F12.2°C 38.7°F3.7°C 56% 7.1 mph SSE11.4 kmh SSE 9.0 mph14.5 kmh 29.89 in1012.2 mb 0.00 in0.0 mm 0.00 in0.0 mm 0.00 in0.0 mm
01:31 PM 53.9°F12.2°C 38.6°F3.7°C 56% 6.0 mph SSE9.7 kmh SSE 8.0 mph12.9 kmh 29.89 in1012.2 mb 0.00 in0.0 mm 0.00 in0.0 mm 0.00 in0.0 mm
01:32 PM 54.0°F12.2°C 39.1°F3.9°C 57% 5.0 mph SE8.0 kmh SE 7.0 mph11.3 kmh 29.89 in1012.2 mb 0.00 in0.0 mm 0.00 in0.0 mm 0.00 in0.0 mm
01:33 PM 54.0°F12.2°C 39.1°F3.9°C 57% 6.6 mph SE10.6 kmh SE 8.0 mph12.9 kmh 29.89 in1012.2 mb 0.00 in0.0 mm 0.00 in0.0 mm 0.00 in0.0 mm
01:34 PM 54.2°F12.3°C 39.3°F4.1°C 57% 6.5 mph SE10.5 kmh SE 8.0 mph12.9 kmh 29.89 in1012.2 mb 0.00 in0.0 mm 0.00 in0.0 mm 0.00 in0.0 mm
01:35 PM 54.3°F12.4°C 38.9°F3.8°C 56% 7.5 mph SE12.1 kmh SE 11.0 mph17.7 kmh 29.89 in1012.2 mb 0.00 in0.0 mm 0.00 in0.0 mm 0.00 in0.0 mm
01:36 PM 54.3°F12.4°C 39.4°F4.1°C 57% 5.1 mph SSE8.2 kmh SSE 11.0 mph17.7 kmh 29.89 in1012.2 mb 0.00 in0.0 mm 0.00 in0.0 mm 0.00 in0.0 mm
01:37 PM 54.5°F12.5°C 39.6°F4.2°C 57% 3.8 mph S6.1 kmh S 7.0 mph11.3 kmh 29.89 in1012.2 mb 0.00 in0.0 mm 0.00 in0.0 mm 0.00 in0.0 mm
01:38 PM 54.7°F12.6°C 38.9°F3.8°C 55% 5.0 mph S8.0 kmh S 7.0 mph11.3 kmh 29.89 in1012.2 mb 0.00 in0.0 mm 0.00 in0.0 mm 0.00 in0.0 mm
01:39 PM 54.8°F12.7°C 39.4°F4.1°C 56% 5.0 mph SSE8.0 kmh SSE 7.0 mph11.3 kmh 29.89 in1012.2 mb 0.00 in0.0 mm 0.00 in0.0 mm 0.00 in0.0 mm
01:40 PM 55.0°F12.8°C 39.1°F3.9°C 55% 3.6 mph SSW5.8 kmh SSW 4.0 mph6.4 kmh 29.89 in1012.2 mb 0.00 in0.0 mm 0.00 in0.0 mm 0.00 in0.0 mm
01:41 PM 55.2°F12.9°C 39.3°F4.1°C 55% 4.8 mph SSW7.7 kmh SSW 8.0 mph12.9 kmh 29.89 in1012.2 mb 0.00 in0.0 mm 0.00 in0.0 mm 0.00 in0.0 mm
01:42 PM 55.4°F13.0°C 38.6°F3.7°C 53% 8.2 mph S13.2 kmh S 11.0 mph17.7 kmh 29.89 in1012.2 mb 0.00 in0.0 mm 0.00 in0.0 mm 0.00 in0.0 mm
01:43 PM 55.4°F13.0°C 38.6°F3.7°C 53% 7.5 mph S12.1 kmh S 11.0 mph17.7 kmh 29.89 in1012.2 mb 0.00 in0.0 mm 0.00 in0.0 mm 0.00 in0.0 mm
01:44 PM 55.5°F13.1°C 38.2°F3.4°C 52% 9.0 mph S14.5 kmh S 11.0 mph17.7 kmh 29.89 in1012.2 mb 0.00 in0.0 mm 0.00 in0.0 mm 0.00 in0.0 mm
01:45 PM 55.6°F13.1°C 37.8°F3.2°C 51% 7.0 mph S11.3 kmh S 12.0 mph19.3 kmh 29.89 in1012.2 mb 0.00 in0.0 mm 0.00 in0.0 mm 0.00 in0.0 mm
01:46 PM 55.7°F13.2°C 38.3°F3.5°C 52% 8.0 mph SSE12.9 kmh SSE 11.0 mph17.7 kmh 29.89 in1012.2 mb 0.00 in0.0 mm 0.00 in0.0 mm 0.00 in0.0 mm
01:47 PM 55.8°F13.2°C 37.9°F3.3°C 51% 9.5 mph SSE15.3 kmh SSE 11.0 mph17.7 kmh 29.89 in1012.2 mb 0.00 in0.0 mm 0.00 in0.0 mm 0.00 in0.0 mm
01:48 PM 55.9°F13.3°C 38.5°F3.6°C 52% 8.6 mph S13.8 kmh S 11.0 mph17.7 kmh 29.89 in1012.2 mb 0.00 in0.0 mm 0.00 in0.0 mm 0.00 in0.0 mm
01:49 PM 56.0°F13.3°C 38.6°F3.7°C 52% 7.3 mph S11.7 kmh S 11.0 mph17.7 kmh 29.89 in1012.2 mb 0.00 in0.0 mm 0.00 in0.0 mm 0.00 in0.0 mm
01:50 PM 56.0°F13.3°C 39.1°F3.9°C 53% 7.7 mph SE12.4 kmh SE 10.0 mph16.1 kmh 29.89 in1012.2 mb 0.00 in0.0 mm 0.00 in0.0 mm 0.00 in0.0 mm
01:51 PM 56.1°F13.4°C 39.2°F4.0°C 53% 5.9 mph SE9.5 kmh SE 10.0 mph16.1 kmh 29.89 in1012.2 mb 0.00 in0.0 mm 0.00 in0.0 mm 0.00 in0.0 mm
01:52 PM 56.3°F13.5°C 39.4°F4.1°C 53% 7.4 mph S11.9 kmh S 10.0 mph16.1 kmh 29.89 in1012.2 mb 0.00 in0.0 mm 0.00 in0.0 mm 0.00 in0.0 mm
01:53 PM 56.3°F13.5°C 38.9°F3.8°C 52% 7.0 mph S11.3 kmh S 10.0 mph16.1 kmh 29.89 in1012.2 mb 0.00 in0.0 mm 0.00 in0.0 mm 0.00 in0.0 mm
01:54 PM 56.3°F13.5°C 38.9°F3.8°C 52% 6.0 mph S9.7 kmh S 9.0 mph14.5 kmh 29.89 in1012.2 mb 0.00 in0.0 mm 0.00 in0.0 mm 0.00 in0.0 mm
01:55 PM 56.3°F13.5°C 38.9°F3.8°C 52% 7.0 mph SSE11.3 kmh SSE 10.0 mph16.1 kmh 29.89 in1012.2 mb 0.00 in0.0 mm 0.00 in0.0 mm 0.00 in0.0 mm
01:56 PM 56.3°F13.5°C 38.9°F3.8°C 52% 5.0 mph SE8.0 kmh SE 9.0 mph14.5 kmh 29.89 in1012.2 mb 0.00 in0.0 mm 0.00 in0.0 mm 0.00 in0.0 mm
01:57 PM 56.3°F13.5°C 38.9°F3.8°C 52% 7.4 mph SSE11.9 kmh SSE 10.0 mph16.1 kmh 29.89 in1012.2 mb 0.00 in0.0 mm 0.00 in0.0 mm 0.00 in0.0 mm
01:58 PM 56.3°F13.5°C 38.4°F3.6°C 51% 7.6 mph S12.2 kmh S 10.0 mph16.1 kmh 29.89 in1012.2 mb 0.00 in0.0 mm 0.00 in0.0 mm 0.00 in0.0 mm
01:59 PM 56.4°F13.6°C 38.5°F3.6°C 51% 5.7 mph S9.2 kmh S 10.0 mph16.1 kmh 29.89 in1012.2 mb 0.00 in0.0 mm 0.00 in0.0 mm 0.00 in0.0 mm
02:00 PM 56.4°F13.6°C 38.5°F3.6°C 51% 6.8 mph SSE10.9 kmh SSE 11.0 mph17.7 kmh 29.89 in1012.2 mb 0.00 in0.0 mm 0.00 in0.0 mm 0.00 in0.0 mm
02:01 PM 56.4°F13.6°C 38.5°F3.6°C 51% 9.0 mph SSE14.5 kmh SSE 12.0 mph19.3 kmh 29.89 in1012.2 mb 0.00 in0.0 mm 0.00 in0.0 mm 0.00 in0.0 mm
02:02 PM 56.4°F13.6°C 38.5°F3.6°C 51% 4.0 mph SSE6.4 kmh SSE 7.0 mph11.3 kmh 29.89 in1012.2 mb 0.00 in0.0 mm 0.00 in0.0 mm 0.00 in0.0 mm
02:03 PM 56.5°F13.6°C 38.6°F3.7°C 51% 6.4 mph SSE10.3 kmh SSE 9.0 mph14.5 kmh 29.89 in1012.2 mb 0.00 in0.0 mm 0.00 in0.0 mm 0.00 in0.0 mm
02:04 PM 56.5°F13.6°C 38.6°F3.7°C 51% 5.1 mph S8.2 kmh S 9.0 mph14.5 kmh 29.89 in1012.2 mb 0.00 in0.0 mm 0.00 in0.0 mm 0.00 in0.0 mm
02:05 PM 56.6°F13.7°C 38.7°F3.7°C 51% 7.3 mph S11.7 kmh S 11.0 mph17.7 kmh 29.89 in1012.2 mb 0.00 in0.0 mm 0.00 in0.0 mm 0.00 in0.0 mm
02:06 PM 56.5°F13.6°C 37.6°F3.1°C 49% 8.2 mph S13.2 kmh S 11.0 mph17.7 kmh 29.89 in1012.2 mb 0.00 in0.0 mm 0.00 in0.0 mm 0.00 in0.0 mm
02:07 PM 56.6°F13.7°C 37.7°F3.2°C 49% 6.3 mph S10.1 kmh S 11.0 mph17.7 kmh 29.89 in1012.2 mb 0.00 in0.0 mm 0.00 in0.0 mm 0.00 in0.0 mm
02:08 PM 56.4°F13.6°C 37.0°F2.8°C 48% 7.2 mph S11.6 kmh S 9.0 mph14.5 kmh 29.89 in1012.2 mb 0.00 in0.0 mm 0.00 in0.0 mm 0.00 in0.0 mm
02:09 PM 56.4°F13.6°C 37.5°F3.1°C 49% 7.0 mph S11.3 kmh S 9.0 mph14.5 kmh 29.89 in1012.2 mb 0.00 in0.0 mm 0.00 in0.0 mm 0.00 in0.0 mm
02:10 PM 56.3°F13.5°C 37.4°F3.0°C 49% 6.3 mph S10.1 kmh S 9.0 mph14.5 kmh 29.89 in1012.2 mb 0.00 in0.0 mm 0.00 in0.0 mm 0.00 in0.0 mm
02:11 PM 56.3°F13.5°C 37.9°F3.3°C 50% 7.0 mph S11.3 kmh S 9.0 mph14.5 kmh 29.89 in1012.2 mb 0.00 in0.0 mm 0.00 in0.0 mm 0.00 in0.0 mm
02:12 PM 56.3°F13.5°C 37.9°F3.3°C 50% 6.0 mph S9.7 kmh S 10.0 mph16.1 kmh 29.89 in1012.2 mb 0.00 in0.0 mm 0.00 in0.0 mm 0.00 in0.0 mm
02:13 PM 56.4°F13.6°C 37.5°F3.1°C 49% 8.0 mph S12.9 kmh S 11.0 mph17.7 kmh 29.89 in1012.2 mb 0.00 in0.0 mm 0.00 in0.0 mm 0.00 in0.0 mm
02:14 PM 56.4°F13.6°C 38.0°F3.3°C 50% 8.2 mph S13.2 kmh S 10.0 mph16.1 kmh 29.89 in1012.2 mb 0.00 in0.0 mm 0.00 in0.0 mm 0.00 in0.0 mm
02:15 PM 56.3°F13.5°C 37.9°F3.3°C 50% 7.0 mph S11.3 kmh S 9.0 mph14.5 kmh 29.89 in1012.2 mb 0.00 in0.0 mm 0.00 in0.0 mm 0.00 in0.0 mm
02:16 PM 56.3°F13.5°C 37.4°F3.0°C 49% 6.0 mph S9.7 kmh S 8.0 mph12.9 kmh 29.89 in1012.2 mb 0.00 in0.0 mm 0.00 in0.0 mm 0.00 in0.0 mm
02:17 PM 56.3°F13.5°C 37.4°F3.0°C 49% 8.5 mph S13.7 kmh S 10.0 mph16.1 kmh 29.89 in1012.2 mb 0.00 in0.0 mm 0.00 in0.0 mm 0.00 in0.0 mm
02:18 PM 56.3°F13.5°C 37.4°F3.0°C 49% 7.0 mph S11.3 kmh S 10.0 mph16.1 kmh 29.89 in1012.2 mb 0.00 in0.0 mm 0.00 in0.0 mm 0.00 in0.0 mm
02:19 PM 56.3°F13.5°C 37.4°F3.0°C 49% 6.0 mph S9.7 kmh S 8.0 mph12.9 kmh 29.89 in1012.2 mb 0.00 in0.0 mm 0.00 in0.0 mm 0.00 in0.0 mm
02:20 PM 56.3°F13.5°C 37.4°F3.0°C 49% 6.0 mph SSW9.7 kmh SSW 8.0 mph12.9 kmh 29.89 in1012.2 mb 0.00 in0.0 mm 0.00 in0.0 mm 0.00 in0.0 mm
02:21 PM 56.3°F13.5°C 37.4°F3.0°C 49% 4.0 mph SSW6.4 kmh SSW 8.0 mph12.9 kmh 29.89 in1012.2 mb 0.00 in0.0 mm 0.00 in0.0 mm 0.00 in0.0 mm
02:22 PM 56.4°F13.6°C 38.0°F3.3°C 50% 2.9 mph SSW4.7 kmh SSW 5.0 mph8.0 kmh 29.89 in1012.2 mb 0.00 in0.0 mm 0.00 in0.0 mm 0.00 in0.0 mm
02:23 PM 56.4°F13.6°C 37.5°F3.1°C 49% 6.0 mph SW9.7 kmh SW 8.0 mph12.9 kmh 29.89 in1012.2 mb 0.00 in0.0 mm 0.00 in0.0 mm 0.00 in0.0 mm
02:24 PM 56.4°F13.6°C 38.0°F3.3°C 50% 5.0 mph S8.0 kmh S 7.0 mph11.3 kmh 29.89 in1012.2 mb 0.00 in0.0 mm 0.00 in0.0 mm 0.00 in0.0 mm
02:25 PM 56.5°F13.6°C 37.6°F3.1°C 49% 4.6 mph SSW7.4 kmh SSW 5.0 mph8.0 kmh 29.89 in1012.2 mb 0.00 in0.0 mm 0.00 in0.0 mm 0.00 in0.0 mm
02:26 PM 56.5°F13.6°C 37.6°F3.1°C 49% 4.2 mph SSW6.8 kmh SSW 6.0 mph9.7 kmh 29.89 in1012.2 mb 0.00 in0.0 mm 0.00 in0.0 mm 0.00 in0.0 mm
02:27 PM 56.6°F13.7°C 37.7°F3.2°C 49% 5.0 mph SSW8.0 kmh SSW 7.0 mph11.3 kmh 29.89 in1012.2 mb 0.00 in0.0 mm 0.00 in0.0 mm 0.00 in0.0 mm
02:28 PM 56.6°F13.7°C 38.2°F3.4°C 50% 4.0 mph SSE6.4 kmh SSE 6.0 mph9.7 kmh 29.89 in1012.2 mb 0.00 in0.0 mm 0.00 in0.0 mm 0.00 in0.0 mm
02:29 PM 56.8°F13.8°C 38.4°F3.6°C 50% 4.0 mph SSE6.4 kmh SSE 7.0 mph11.3 kmh 29.89 in1012.2 mb 0.00 in0.0 mm 0.00 in0.0 mm 0.00 in0.0 mm
02:30 PM 56.8°F13.8°C 38.4°F3.6°C 50% 6.0 mph S9.7 kmh S 8.0 mph12.9 kmh 29.89 in1012.2 mb 0.00 in0.0 mm 0.00 in0.0 mm 0.00 in0.0 mm
02:31 PM 56.8°F13.8°C 37.8°F3.2°C 49% 5.8 mph S9.3 kmh S 7.0 mph11.3 kmh 29.89 in1012.2 mb 0.00 in0.0 mm 0.00 in0.0 mm 0.00 in0.0 mm
02:32 PM 56.8°F13.8°C 37.8°F3.2°C 49% 5.0 mph SSW8.0 kmh SSW 7.0 mph11.3 kmh 29.89 in1012.2 mb 0.00 in0.0 mm 0.00 in0.0 mm 0.00 in0.0 mm
02:33 PM 56.8°F13.8°C 37.8°F3.2°C 49% 6.0 mph S9.7 kmh S 7.0 mph11.3 kmh 29.88 in1011.9 mb 0.00 in0.0 mm 0.00 in0.0 mm 0.00 in0.0 mm
02:34 PM 56.8°F13.8°C 37.8°F3.2°C 49% 5.8 mph S9.3 kmh S 7.0 mph11.3 kmh 29.89 in1012.2 mb 0.00 in0.0 mm 0.00 in0.0 mm 0.00 in0.0 mm
02:35 PM 56.8°F13.8°C 37.8°F3.2°C 49% 6.0 mph S9.7 kmh S 9.0 mph14.5 kmh 29.89 in1012.2 mb 0.00 in0.0 mm 0.00 in0.0 mm 0.00 in0.0 mm
02:36 PM 56.7°F13.7°C 37.2°F2.9°C 48% 7.0 mph SSW11.3 kmh SSW 9.0 mph14.5 kmh 29.89 in1012.2 mb 0.00 in0.0 mm 0.00 in0.0 mm 0.00 in0.0 mm
02:37 PM 56.7°F13.7°C 37.8°F3.2°C 49% 5.2 mph S8.4 kmh S 6.0 mph9.7 kmh 29.89 in1012.2 mb 0.00 in0.0 mm 0.00 in0.0 mm 0.00 in0.0 mm
02:38 PM 56.6°F13.7°C 37.7°F3.2°C 49% 6.4 mph SSW10.3 kmh SSW 8.0 mph12.9 kmh 29.89 in1012.2 mb 0.00 in0.0 mm 0.00 in0.0 mm 0.00 in0.0 mm
02:39 PM 56.7°F13.7°C 37.8°F3.2°C 49% 4.6 mph SW7.4 kmh SW 8.0 mph12.9 kmh 29.89 in1012.2 mb 0.00 in0.0 mm 0.00 in0.0 mm 0.00 in0.0 mm
02:40 PM 56.7°F13.7°C 37.8°F3.2°C 49% 4.0 mph SSW6.4 kmh SSW 5.0 mph8.0 kmh 29.89 in1012.2 mb 0.00 in0.0 mm 0.00 in0.0 mm 0.00 in0.0 mm
02:41 PM 56.7°F13.7°C 37.8°F3.2°C 49% 5.0 mph SSW8.0 kmh SSW 8.0 mph12.9 kmh 29.89 in1012.2 mb 0.00 in0.0 mm 0.00 in0.0 mm 0.00 in0.0 mm
02:42 PM 56.6°F13.7°C 36.6°F2.6°C 47% 4.8 mph S7.7 kmh S 7.0 mph11.3 kmh 29.89 in1012.2 mb 0.00 in0.0 mm 0.00 in0.0 mm 0.00 in0.0 mm
02:43 PM 56.5°F13.6°C 37.0°F2.8°C 48% 5.0 mph SSW8.0 kmh SSW 5.0 mph8.0 kmh 29.89 in1012.2 mb 0.00 in0.0 mm 0.00 in0.0 mm 0.00 in0.0 mm
02:44 PM 56.5°F13.6°C 37.0°F2.8°C 48% 4.0 mph SSW6.4 kmh SSW 5.0 mph8.0 kmh 29.89 in1012.2 mb 0.00 in0.0 mm 0.00 in0.0 mm 0.00 in0.0 mm
02:45 PM 56.4°F13.6°C 37.0°F2.8°C 48% 3.2 mph SSW5.1 kmh SSW 4.0 mph6.4 kmh 29.89 in1012.2 mb 0.00 in0.0 mm 0.00 in0.0 mm 0.00 in0.0 mm
02:46 PM 56.4°F13.6°C 37.5°F3.1°C 49% 4.0 mph SSW6.4 kmh SSW 6.0 mph9.7 kmh 29.89 in1012.2 mb 0.00 in0.0 mm 0.00 in0.0 mm 0.00 in0.0 mm
02:47 PM 56.4°F13.6°C 38.5°F3.6°C 51% 3.0 mph SSW4.8 kmh SSW 5.0 mph8.0 kmh 29.89 in1012.2 mb 0.00 in0.0 mm 0.00 in0.0 mm 0.00 in0.0 mm
02:48 PM 56.0°F13.3°C 38.1°F3.4°C 51% 4.0 mph WSW6.4 kmh WSW 5.0 mph8.0 kmh 29.89 in1012.2 mb 0.00 in0.0 mm 0.00 in0.0 mm 0.00 in0.0 mm
02:49 PM 55.6°F13.1°C 38.3°F3.5°C 52% 4.0 mph WSW6.4 kmh WSW 6.0 mph9.7 kmh 29.89 in1012.2 mb 0.00 in0.0 mm 0.00 in0.0 mm 0.00 in0.0 mm
02:50 PM 55.2°F12.9°C 38.4°F3.6°C 53% 5.0 mph WSW8.0 kmh WSW 8.0 mph12.9 kmh 29.89 in1012.2 mb 0.00 in0.0 mm 0.00 in0.0 mm 0.00 in0.0 mm
02:51 PM 55.0°F12.8°C 38.2°F3.4°C 53% 4.3 mph WSW6.9 kmh WSW 5.0 mph8.0 kmh 29.89 in1012.2 mb 0.00 in0.0 mm 0.00 in0.0 mm 0.00 in0.0 mm
02:52 PM 54.5°F12.5°C 38.7°F3.7°C 55% 4.0 mph WSW6.4 kmh WSW 7.0 mph11.3 kmh 29.88 in1011.9 mb 0.00 in0.0 mm 0.00 in0.0 mm 0.00 in0.0 mm
02:53 PM 54.0°F12.2°C 39.1°F3.9°C 57% 7.0 mph WSW11.3 kmh WSW 8.0 mph12.9 kmh 29.88 in1011.9 mb 0.00 in0.0 mm 0.00 in0.0 mm 0.00 in0.0 mm
02:54 PM 53.4°F11.9°C 39.0°F3.9°C 58% 8.0 mph WSW12.9 kmh WSW 9.0 mph14.5 kmh 29.88 in1011.9 mb 0.00 in0.0 mm 0.00 in0.0 mm 0.00 in0.0 mm
02:55 PM 52.7°F11.5°C 38.8°F3.8°C 59% 9.0 mph WSW14.5 kmh WSW 10.0 mph16.1 kmh 29.88 in1011.9 mb 0.00 in0.0 mm 0.00 in0.0 mm 0.00 in0.0 mm
02:56 PM 52.3°F11.3°C 38.4°F3.6°C 59% 8.0 mph SW12.9 kmh SW 8.0 mph12.9 kmh 29.88 in1011.9 mb 0.00 in0.0 mm 0.00 in0.0 mm 0.00 in0.0 mm
02:57 PM 51.9°F11.1°C 38.5°F3.6°C 60% 6.2 mph SW10.0 kmh SW 8.0 mph12.9 kmh 29.88 in1011.9 mb 0.00 in0.0 mm 0.00 in0.0 mm 0.00 in0.0 mm
02:58 PM 51.8°F11.0°C 38.4°F3.6°C 60% 5.0 mph SW8.0 kmh SW 6.0 mph9.7 kmh 29.88 in1011.9 mb 0.00 in0.0 mm 0.00 in0.0 mm 0.00 in0.0 mm
02:59 PM 51.6°F10.9°C 38.2°F3.4°C 60% 6.0 mph WSW9.7 kmh WSW 7.0 mph11.3 kmh 29.88 in1011.9 mb 0.00 in0.0 mm 0.00 in0.0 mm 0.00 in0.0 mm
03:00 PM 51.5°F10.8°C 38.1°F3.4°C 60% 5.6 mph SW9.0 kmh SW 6.0 mph9.7 kmh 29.88 in1011.9 mb 0.00 in0.0 mm 0.00 in0.0 mm 0.00 in0.0 mm
03:01 PM 51.5°F10.8°C 38.5°F3.6°C 61% 5.1 mph SW8.2 kmh SW 6.0 mph9.7 kmh 29.88 in1011.9 mb 0.00 in0.0 mm 0.00 in0.0 mm 0.00 in0.0 mm
03:02 PM 51.5°F10.8°C 38.5°F3.6°C 61% 5.0 mph WSW8.0 kmh WSW 6.0 mph9.7 kmh 29.88 in1011.9 mb 0.00 in0.0 mm 0.00 in0.0 mm 0.00 in0.0 mm
03:03 PM 51.5°F10.8°C 38.1°F3.4°C 60% 5.0 mph WSW8.0 kmh WSW 6.0 mph9.7 kmh 29.88 in1011.9 mb 0.00 in0.0 mm 0.00 in0.0 mm 0.00 in0.0 mm
03:04 PM 51.6°F10.9°C 38.2°F3.4°C 60% 5.0 mph WSW8.0 kmh WSW 6.0 mph9.7 kmh 29.88 in1011.9 mb 0.00 in0.0 mm 0.00 in0.0 mm 0.00 in0.0 mm
03:05 PM 51.7°F10.9°C 37.8°F3.2°C 59% 4.8 mph SW7.7 kmh SW 6.0 mph9.7 kmh 29.88 in1011.9 mb 0.00 in0.0 mm 0.00 in0.0 mm 0.00 in0.0 mm
03:06 PM 51.9°F11.1°C 38.0°F3.3°C 59% 4.8 mph SW7.7 kmh SW 6.0 mph9.7 kmh 29.88 in1011.9 mb 0.00 in0.0 mm 0.00 in0.0 mm 0.00 in0.0 mm
03:07 PM 51.9°F11.1°C 38.0°F3.3°C 59% 4.8 mph SW7.7 kmh SW 6.0 mph9.7 kmh 29.88 in1011.9 mb 0.00 in0.0 mm 0.00 in0.0 mm 0.00 in0.0 mm
03:08 PM 52.0°F11.1°C 38.6°F3.7°C 60% 6.0 mph WSW9.7 kmh WSW 8.0 mph12.9 kmh 29.88 in1011.9 mb 0.00 in0.0 mm 0.00 in0.0 mm 0.00 in0.0 mm
03:09 PM 52.0°F11.1°C 38.1°F3.4°C 59% 6.0 mph WSW9.7 kmh WSW 6.0 mph9.7 kmh 29.88 in1011.9 mb 0.00 in0.0 mm 0.00 in0.0 mm 0.00 in0.0 mm
03:10 PM 52.0°F11.1°C 38.6°F3.7°C 60% 6.2 mph SW10.0 kmh SW 8.0 mph12.9 kmh 29.88 in1011.9 mb 0.00 in0.0 mm 0.00 in0.0 mm 0.00 in0.0 mm
03:11 PM 52.0°F11.1°C 38.6°F3.7°C 60% 5.9 mph SW9.5 kmh SW 8.0 mph12.9 kmh 29.88 in1011.9 mb 0.00 in0.0 mm 0.00 in0.0 mm 0.00 in0.0 mm
03:12 PM 52.0°F11.1°C 38.1°F3.4°C 59% 5.3 mph SW8.5 kmh SW 8.0 mph12.9 kmh 29.88 in1011.9 mb 0.00 in0.0 mm 0.00 in0.0 mm 0.00 in0.0 mm
03:13 PM 52.0°F11.1°C 38.6°F3.7°C 60% 5.0 mph WSW8.0 kmh WSW 6.0 mph9.7 kmh 29.88 in1011.9 mb 0.00 in0.0 mm 0.00 in0.0 mm 0.00 in0.0 mm
03:14 PM 52.0°F11.1°C 38.6°F3.7°C 60% 6.0 mph WSW9.7 kmh WSW 6.0 mph9.7 kmh 29.88 in1011.9 mb 0.00 in0.0 mm 0.00 in0.0 mm 0.00 in0.0 mm
03:15 PM 52.0°F11.1°C 38.6°F3.7°C 60% 6.0 mph WSW9.7 kmh WSW 6.0 mph9.7 kmh 29.88 in1011.9 mb 0.00 in0.0 mm 0.00 in0.0 mm 0.00 in0.0 mm
03:16 PM 51.9°F11.1°C 38.5°F3.6°C 60% 5.0 mph SW8.0 kmh SW 6.0 mph9.7 kmh 29.88 in1011.9 mb 0.00 in0.0 mm 0.00 in0.0 mm 0.00 in0.0 mm
03:17 PM 51.9°F11.1°C 38.5°F3.6°C 60% 5.1 mph SW8.2 kmh SW 6.0 mph9.7 kmh 29.88 in1011.9 mb 0.00 in0.0 mm 0.00 in0.0 mm 0.00 in0.0 mm
03:18 PM 51.8°F11.0°C 38.4°F3.6°C 60% 4.5 mph SW7.2 kmh SW 6.0 mph9.7 kmh 29.88 in1011.9 mb 0.00 in0.0 mm 0.00 in0.0 mm 0.00 in0.0 mm
03:19 PM 51.8°F11.0°C 38.4°F3.6°C 60% 4.0 mph WSW6.4 kmh WSW 5.0 mph8.0 kmh 29.88 in1011.9 mb 0.00 in0.0 mm 0.00 in0.0 mm 0.00 in0.0 mm
03:20 PM 51.6°F10.9°C 38.6°F3.7°C 61% 3.0 mph WSW4.8 kmh WSW 4.0 mph6.4 kmh 29.89 in1012.2 mb 0.00 in0.0 mm 0.00 in0.0 mm 0.00 in0.0 mm
03:21 PM 51.4°F10.8°C 38.8°F3.8°C 62% 4.0 mph WSW6.4 kmh WSW 5.0 mph8.0 kmh 29.89 in1012.2 mb 0.00 in0.0 mm 0.00 in0.0 mm 0.00 in0.0 mm
03:22 PM 51.2°F10.7°C 39.0°F3.9°C 63% 4.0 mph WSW6.4 kmh WSW 5.0 mph8.0 kmh 29.88 in1011.9 mb 0.00 in0.0 mm 0.00 in0.0 mm 0.00 in0.0 mm
03:23 PM 51.0°F10.6°C 38.9°F3.8°C 63% 4.0 mph WSW6.4 kmh WSW 4.0 mph6.4 kmh 29.88 in1011.9 mb 0.00 in0.0 mm 0.00 in0.0 mm 0.00 in0.0 mm
03:24 PM 50.9°F10.5°C 39.2°F4.0°C 64% 3.0 mph WSW4.8 kmh WSW 4.0 mph6.4 kmh 29.88 in1011.9 mb 0.00 in0.0 mm 0.00 in0.0 mm 0.00 in0.0 mm
03:25 PM 50.8°F10.4°C 39.1°F3.9°C 64% 2.7 mph SW4.3 kmh SW 3.0 mph4.8 kmh 29.88 in1011.9 mb 0.00 in0.0 mm 0.00 in0.0 mm 0.00 in0.0 mm
03:26 PM 50.8°F10.4°C 39.1°F3.9°C 64% 2.3 mph SW3.7 kmh SW 3.0 mph4.8 kmh 29.88 in1011.9 mb 0.00 in0.0 mm 0.00 in0.0 mm 0.00 in0.0 mm
03:27 PM 50.7°F10.4°C 39.0°F3.9°C 64% 2.2 mph SW3.5 kmh SW 3.0 mph4.8 kmh 29.88 in1011.9 mb 0.00 in0.0 mm 0.00 in0.0 mm 0.00 in0.0 mm
03:28 PM 50.7°F10.4°C 39.0°F3.9°C 64% 1.9 mph SW3.1 kmh SW 3.0 mph4.8 kmh 29.88 in1011.9 mb 0.00 in0.0 mm 0.00 in0.0 mm 0.00 in0.0 mm
03:29 PM 50.6°F10.3°C 38.9°F3.8°C 64% 0.7 mph SW1.1 kmh SW 3.0 mph4.8 kmh 29.88 in1011.9 mb 0.00 in0.0 mm 0.00 in0.0 mm 0.00 in0.0 mm
03:30 PM 50.6°F10.3°C 38.9°F3.8°C 64% 0.7 mph SW1.1 kmh SW 2.0 mph3.2 kmh 29.88 in1011.9 mb 0.00 in0.0 mm 0.00 in0.0 mm 0.00 in0.0 mm
03:31 PM 50.7°F10.4°C 39.0°F3.9°C 64% 1.3 mph SW2.1 kmh SW 2.0 mph3.2 kmh 29.88 in1011.9 mb 0.00 in0.0 mm 0.00 in0.0 mm 0.00 in0.0 mm
03:32 PM 50.7°F10.4°C 38.6°F3.7°C 63% 1.0 mph WSW1.6 kmh WSW 2.0 mph3.2 kmh 29.88 in1011.9 mb 0.00 in0.0 mm 0.00 in0.0 mm 0.00 in0.0 mm
03:33 PM 50.7°F10.4°C 39.0°F3.9°C 64% Calm Calm -- 29.88 in1011.9 mb 0.00 in0.0 mm 0.00 in0.0 mm 0.00 in0.0 mm
03:34 PM 50.7°F10.4°C 39.0°F3.9°C 64% Calm Calm -- 29.88 in1011.9 mb 0.00 in0.0 mm 0.00 in0.0 mm 0.00 in0.0 mm
03:35 PM 50.8°F10.4°C 38.7°F3.7°C 63% 1.0 mph WSW1.6 kmh WSW 2.0 mph3.2 kmh 29.88 in1011.9 mb 0.00 in0.0 mm 0.00 in0.0 mm 0.00 in0.0 mm
03:36 PM 50.8°F10.4°C 38.7°F3.7°C 63% 0.6 mph SW1.0 kmh SW 1.0 mph1.6 kmh 29.88 in1011.9 mb 0.00 in0.0 mm 0.00 in0.0 mm 0.00 in0.0 mm
03:37 PM 50.9°F10.5°C 38.4°F3.6°C 62% 1.0 mph WSW1.6 kmh WSW 2.0 mph3.2 kmh 29.88 in1011.9 mb 0.00 in0.0 mm 0.00 in0.0 mm 0.00 in0.0 mm
03:38 PM 50.9°F10.5°C 38.4°F3.6°C 62% 1.0 mph WSW1.6 kmh WSW 2.0 mph3.2 kmh 29.88 in1011.9 mb 0.00 in0.0 mm 0.00 in0.0 mm 0.00 in0.0 mm
03:39 PM 50.9°F10.5°C 38.4°F3.6°C 62% 2.0 mph WSW3.2 kmh WSW 3.0 mph4.8 kmh 29.89 in1012.2 mb 0.00 in0.0 mm 0.00 in0.0 mm 0.00 in0.0 mm
03:40 PM 51.0°F10.6°C 38.4°F3.6°C 62% 2.0 mph WSW3.2 kmh WSW 2.0 mph3.2 kmh 29.89 in1012.2 mb 0.00 in0.0 mm 0.00 in0.0 mm 0.00 in0.0 mm
03:41 PM 51.0°F10.6°C 38.4°F3.6°C 62% 2.0 mph WSW3.2 kmh WSW 3.0 mph4.8 kmh 29.88 in1011.9 mb 0.00 in0.0 mm 0.00 in0.0 mm 0.00 in0.0 mm
03:42 PM 50.9°F10.5°C 38.8°F3.8°C 63% 1.0 mph WSW1.6 kmh WSW 2.0 mph3.2 kmh 29.88 in1011.9 mb 0.00 in0.0 mm 0.00 in0.0 mm 0.00 in0.0 mm
03:43 PM 51.0°F10.6°C 38.4°F3.6°C 62% 3.0 mph WSW4.8 kmh WSW 3.0 mph4.8 kmh 29.88 in1011.9 mb 0.00 in0.0 mm 0.00 in0.0 mm 0.00 in0.0 mm
03:44 PM 51.0°F10.6°C 38.4°F3.6°C 62% 4.0 mph SW6.4 kmh SW 4.0 mph6.4 kmh 29.88 in1011.9 mb 0.00 in0.0 mm 0.00 in0.0 mm 0.00 in0.0 mm
03:45 PM 51.0°F10.6°C 38.4°F3.6°C 62% 3.0 mph WSW4.8 kmh WSW 4.0 mph6.4 kmh 29.89 in1012.2 mb 0.00 in0.0 mm 0.00 in0.0 mm 0.00 in0.0 mm
03:46 PM 51.1°F10.6°C 38.5°F3.6°C 62% 3.0 mph WSW4.8 kmh WSW 3.0 mph4.8 kmh 29.89 in1012.2 mb 0.00 in0.0 mm 0.00 in0.0 mm 0.00 in0.0 mm
03:47 PM 51.1°F10.6°C 38.5°F3.6°C 62% 1.4 mph SW2.3 kmh SW 2.0 mph3.2 kmh 29.88 in1011.9 mb 0.00 in0.0 mm 0.00 in0.0 mm 0.00 in0.0 mm
03:48 PM 51.2°F10.7°C 38.6°F3.7°C 62% 2.0 mph WSW3.2 kmh WSW 2.0 mph3.2 kmh 29.88 in1011.9 mb 0.00 in0.0 mm 0.00 in0.0 mm 0.00 in0.0 mm
03:49 PM 51.2°F10.7°C 38.6°F3.7°C 62% 1.0 mph WSW1.6 kmh WSW 2.0 mph3.2 kmh 29.88 in1011.9 mb 0.00 in0.0 mm 0.00 in0.0 mm 0.00 in0.0 mm
03:50 PM 51.3°F10.7°C 38.7°F3.7°C 62% 0.1 mph SW0.2 kmh SW 1.0 mph1.6 kmh 29.87 in1011.5 mb 0.00 in0.0 mm 0.00 in0.0 mm 0.00 in0.0 mm
03:51 PM 51.3°F10.7°C 38.7°F3.7°C 62% Calm Calm 2.0 mph3.2 kmh 29.87 in1011.5 mb 0.00 in0.0 mm 0.00 in0.0 mm 0.00 in0.0 mm
03:52 PM 51.5°F10.8°C 39.3°F4.1°C 63% 1.0 mph WSW1.6 kmh WSW 2.0 mph3.2 kmh 29.87 in1011.5 mb 0.00 in0.0 mm 0.00 in0.0 mm 0.00 in0.0 mm
03:53 PM 51.6°F10.9°C 39.0°F3.9°C 62% 1.0 mph WSW1.6 kmh WSW 2.0 mph3.2 kmh 29.87 in1011.5 mb 0.00 in0.0 mm 0.00 in0.0 mm 0.00 in0.0 mm
03:54 PM 51.9°F11.1°C 39.3°F4.1°C 62% 2.0 mph WSW3.2 kmh WSW 2.0 mph3.2 kmh 29.87 in1011.5 mb 0.00 in0.0 mm 0.00 in0.0 mm 0.00 in0.0 mm
03:55 PM 52.1°F11.2°C 39.1°F3.9°C 61% 1.0 mph WSW1.6 kmh WSW 2.0 mph3.2 kmh 29.87 in1011.5 mb 0.00 in0.0 mm 0.00 in0.0 mm 0.00 in0.0 mm
03:56 PM 52.3°F11.3°C 38.8°F3.8°C 60% 1.9 mph SW3.1 kmh SW 2.0 mph3.2 kmh 29.87 in1011.5 mb 0.00 in0.0 mm 0.00 in0.0 mm 0.00 in0.0 mm
03:57 PM 52.5°F11.4°C 39.0°F3.9°C 60% 0.7 mph SW1.1 kmh SW 2.0 mph3.2 kmh 29.87 in1011.5 mb 0.00 in0.0 mm 0.00 in0.0 mm 0.00 in0.0 mm
03:58 PM 52.8°F11.6°C 39.7°F4.3°C 61% Calm Calm 1.0 mph1.6 kmh 29.87 in1011.5 mb 0.00 in0.0 mm 0.00 in0.0 mm 0.00 in0.0 mm
03:59 PM 52.9°F11.6°C 39.0°F3.9°C 59% 1.0 mph WSW1.6 kmh WSW 2.0 mph3.2 kmh 29.87 in1011.5 mb 0.00 in0.0 mm 0.00 in0.0 mm 0.00 in0.0 mm
04:00 PM 53.0°F11.7°C 39.1°F3.9°C 59% 1.0 mph WSW1.6 kmh WSW 2.0 mph3.2 kmh 29.87 in1011.5 mb 0.00 in0.0 mm 0.00 in0.0 mm 0.00 in0.0 mm
04:01 PM 53.1°F11.7°C 39.2°F4.0°C 59% 1.1 mph SW1.8 kmh SW 2.0 mph3.2 kmh 29.87 in1011.5 mb 0.00 in0.0 mm 0.00 in0.0 mm 0.00 in0.0 mm
04:02 PM 53.2°F11.8°C 38.4°F3.6°C 57% 1.0 mph WSW1.6 kmh WSW 2.0 mph3.2 kmh 29.87 in1011.5 mb 0.00 in0.0 mm 0.00 in0.0 mm 0.00 in0.0 mm
04:03 PM 53.3°F11.8°C 38.5°F3.6°C 57% 2.0 mph WSW3.2 kmh WSW 2.0 mph3.2 kmh 29.87 in1011.5 mb 0.00 in0.0 mm 0.00 in0.0 mm 0.00 in0.0 mm
04:04 PM 53.4°F11.9°C 39.0°F3.9°C 58% 0.1 mph SW0.2 kmh SW 1.0 mph1.6 kmh 29.87 in1011.5 mb 0.00 in0.0 mm 0.00 in0.0 mm 0.00 in0.0 mm
04:05 PM 53.4°F11.9°C 39.0°F3.9°C 58% Calm Calm 1.0 mph1.6 kmh 29.86 in1011.2 mb 0.00 in0.0 mm 0.00 in0.0 mm 0.00 in0.0 mm
04:06 PM 53.3°F11.8°C 38.9°F3.8°C 58% 0.3 mph SW0.5 kmh SW 1.0 mph1.6 kmh 29.86 in1011.2 mb 0.00 in0.0 mm 0.00 in0.0 mm 0.00 in0.0 mm
04:07 PM 53.2°F11.8°C 38.8°F3.8°C 58% 0.1 mph SW0.2 kmh SW 1.0 mph1.6 kmh 29.86 in1011.2 mb 0.00 in0.0 mm 0.00 in0.0 mm 0.00 in0.0 mm
04:08 PM 53.1°F11.7°C 38.3°F3.5°C 57% Calm Calm -- 29.86 in1011.2 mb 0.00 in0.0 mm 0.00 in0.0 mm 0.00 in0.0 mm
04:09 PM 53.0°F11.7°C 39.1°F3.9°C 59% Calm Calm -- 29.86 in1011.2 mb 0.00 in0.0 mm 0.00 in0.0 mm 0.00 in0.0 mm
04:10 PM 53.0°F11.7°C 39.1°F3.9°C 59% Calm Calm -- 29.87 in1011.5 mb 0.00 in0.0 mm 0.00 in0.0 mm 0.00 in0.0 mm
04:11 PM 53.0°F11.7°C 39.1°F3.9°C 59% Calm Calm -- 29.87 in1011.5 mb 0.00 in0.0 mm 0.00 in0.0 mm 0.00 in0.0 mm
04:12 PM 53.0°F11.7°C 39.1°F3.9°C 59% Calm Calm -- 29.87 in1011.5 mb 0.00 in0.0 mm 0.00 in0.0 mm 0.00 in0.0 mm
04:13 PM 53.0°F11.7°C 39.1°F3.9°C 59% Calm Calm -- 29.87 in1011.5 mb 0.00 in0.0 mm 0.00 in0.0 mm 0.00 in0.0 mm
04:14 PM 53.0°F11.7°C 39.1°F3.9°C 59% Calm Calm -- 29.87 in1011.5 mb 0.00 in0.0 mm 0.00 in0.0 mm 0.00 in0.0 mm
04:15 PM 53.0°F11.7°C 39.1°F3.9°C 59% Calm Calm -- 29.87 in1011.5 mb 0.00 in0.0 mm 0.00 in0.0 mm 0.00 in0.0 mm
04:16 PM 53.0°F11.7°C 39.1°F3.9°C 59% Calm Calm -- 29.87 in1011.5 mb 0.00 in0.0 mm 0.00 in0.0 mm 0.00 in0.0 mm
04:17 PM 53.1°F11.7°C 38.7°F3.7°C 58% Calm Calm -- 29.87 in1011.5 mb 0.00 in0.0 mm 0.00 in0.0 mm 0.00 in0.0 mm
04:18 PM 53.1°F11.7°C 38.7°F3.7°C 58% Calm Calm -- 29.87 in1011.5 mb 0.00 in0.0 mm 0.00 in0.0 mm 0.00 in0.0 mm
04:19 PM 53.2°F11.8°C 39.2°F4.0°C 59% Calm Calm -- 29.87 in1011.5 mb 0.00 in0.0 mm 0.00 in0.0 mm 0.00 in0.0 mm
04:20 PM 53.2°F11.8°C 38.8°F3.8°C 58% Calm Calm -- 29.87 in1011.5 mb 0.00 in0.0 mm 0.00 in0.0 mm 0.00 in0.0 mm
04:21 PM 53.2°F11.8°C 39.2°F4.0°C 59% Calm Calm -- 29.87 in1011.5 mb 0.00 in0.0 mm 0.00 in0.0 mm 0.00 in0.0 mm
04:22 PM 53.1°F11.7°C 39.6°F4.2°C 60% Calm Calm -- 29.87 in1011.5 mb 0.00 in0.0 mm 0.00 in0.0 mm 0.00 in0.0 mm
04:23 PM 53.1°F11.7°C 40.4°F4.7°C 62% Calm Calm -- 29.87 in1011.5 mb 0.00 in0.0 mm 0.00 in0.0 mm 0.00 in0.0 mm
04:24 PM 53.1°F11.7°C 40.0°F4.4°C 61% 1.0 mph WSW1.6 kmh WSW 2.0 mph3.2 kmh 29.87 in1011.5 mb 0.00 in0.0 mm 0.00 in0.0 mm 0.00 in0.0 mm
04:25 PM 52.9°F11.6°C 39.8°F4.3°C 61% 1.6 mph SW2.6 kmh SW 2.0 mph3.2 kmh 29.87 in1011.5 mb 0.00 in0.0 mm 0.00 in0.0 mm 0.00 in0.0 mm
04:26 PM 52.9°F11.6°C 39.8°F4.3°C 61% 1.4 mph SW2.3 kmh SW 2.0 mph3.2 kmh 29.87 in1011.5 mb 0.00 in0.0 mm 0.00 in0.0 mm 0.00 in0.0 mm
04:27 PM 52.8°F11.6°C 39.7°F4.3°C 61% 0.5 mph SW0.8 kmh SW 2.0 mph3.2 kmh 29.87 in1011.5 mb 0.00 in0.0 mm 0.00 in0.0 mm 0.00 in0.0 mm
04:28 PM 52.7°F11.5°C 40.1°F4.5°C 62% Calm Calm 1.0 mph1.6 kmh 29.87 in1011.5 mb 0.00 in0.0 mm 0.00 in0.0 mm 0.00 in0.0 mm
04:29 PM 52.5°F11.4°C 40.3°F4.6°C 63% 2.0 mph WSW3.2 kmh WSW 2.0 mph3.2 kmh 29.87 in1011.5 mb 0.00 in0.0 mm 0.00 in0.0 mm 0.00 in0.0 mm
04:30 PM 52.4°F11.3°C 40.2°F4.6°C 63% 2.2 mph SW3.5 kmh SW 3.0 mph4.8 kmh 29.87 in1011.5 mb 0.00 in0.0 mm 0.00 in0.0 mm 0.00 in0.0 mm
04:31 PM 52.3°F11.3°C 40.1°F4.5°C 63% 2.5 mph SW4.0 kmh SW 3.0 mph4.8 kmh 29.86 in1011.2 mb 0.00 in0.0 mm 0.00 in0.0 mm 0.00 in0.0 mm
04:32 PM 52.3°F11.3°C 39.7°F4.3°C 62% 2.0 mph WSW3.2 kmh WSW 3.0 mph4.8 kmh 29.86 in1011.2 mb 0.00 in0.0 mm 0.00 in0.0 mm 0.00 in0.0 mm
04:33 PM 52.2°F11.2°C 39.6°F4.2°C 62% 2.0 mph WSW3.2 kmh WSW 3.0 mph4.8 kmh 29.86 in1011.2 mb 0.00 in0.0 mm 0.00 in0.0 mm 0.00 in0.0 mm
04:34 PM 52.2°F11.2°C 39.6°F4.2°C 62% 1.1 mph SW1.8 kmh SW 2.0 mph3.2 kmh 29.86 in1011.2 mb 0.00 in0.0 mm 0.00 in0.0 mm 0.00 in0.0 mm
04:35 PM 52.2°F11.2°C 39.2°F4.0°C 61% 1.0 mph WSW1.6 kmh WSW 2.0 mph3.2 kmh 29.86 in1011.2 mb 0.00 in0.0 mm 0.00 in0.0 mm 0.00 in0.0 mm
04:36 PM 52.3°F11.3°C 39.7°F4.3°C 62% Calm Calm 1.0 mph1.6 kmh 29.86 in1011.2 mb 0.00 in0.0 mm 0.00 in0.0 mm 0.00 in0.0 mm
04:37 PM 52.3°F11.3°C 39.3°F4.1°C 61% Calm Calm -- 29.86 in1011.2 mb 0.00 in0.0 mm 0.00 in0.0 mm 0.00 in0.0 mm
04:38 PM 52.4°F11.3°C 39.3°F4.1°C 61% Calm Calm -- 29.86 in1011.2 mb 0.00 in0.0 mm 0.00 in0.0 mm 0.00 in0.0 mm
04:39 PM 52.4°F11.3°C 39.8°F4.3°C 62% 0.1 mph SW0.2 kmh SW 1.0 mph1.6 kmh 29.86 in1011.2 mb 0.00 in0.0 mm 0.00 in0.0 mm 0.00 in0.0 mm
04:40 PM 52.5°F11.4°C 39.9°F4.4°C 62% 1.0 mph WSW1.6 kmh WSW 1.0 mph1.6 kmh 29.86 in1011.2 mb 0.00 in0.0 mm 0.00 in0.0 mm 0.00 in0.0 mm
04:41 PM 52.5°F11.4°C 39.9°F4.4°C 62% 1.0 mph WSW1.6 kmh WSW 2.0 mph3.2 kmh 29.86 in1011.2 mb 0.00 in0.0 mm 0.00 in0.0 mm 0.00 in0.0 mm
04:42 PM 52.4°F11.3°C 39.8°F4.3°C 62% 1.0 mph WSW1.6 kmh WSW 2.0 mph3.2 kmh 29.86 in1011.2 mb 0.00 in0.0 mm 0.00 in0.0 mm 0.00 in0.0 mm
04:43 PM 52.4°F11.3°C 40.2°F4.6°C 63% 2.0 mph WSW3.2 kmh WSW 2.0 mph3.2 kmh 29.86 in1011.2 mb 0.00 in0.0 mm 0.00 in0.0 mm 0.00 in0.0 mm
04:44 PM 52.4°F11.3°C 39.8°F4.3°C 62% 2.0 mph WSW3.2 kmh WSW 2.0 mph3.2 kmh 29.87 in1011.5 mb 0.00 in0.0 mm 0.00 in0.0 mm 0.00 in0.0 mm
04:45 PM 52.4°F11.3°C 39.8°F4.3°C 62% 2.0 mph SW3.2 kmh SW 3.0 mph4.8 kmh 29.87 in1011.5 mb 0.00 in0.0 mm 0.00 in0.0 mm 0.00 in0.0 mm
04:46 PM 52.3°F11.3°C 39.7°F4.3°C 62% 2.0 mph SW3.2 kmh SW 3.0 mph4.8 kmh 29.87 in1011.5 mb 0.00 in0.0 mm 0.00 in0.0 mm 0.00 in0.0 mm
04:47 PM 52.3°F11.3°C 39.7°F4.3°C 62% 2.0 mph SW3.2 kmh SW 2.0 mph3.2 kmh 29.87 in1011.5 mb 0.00 in0.0 mm 0.00 in0.0 mm 0.00 in0.0 mm
04:48 PM 52.2°F11.2°C 39.6°F4.2°C 62% 1.7 mph SW2.7 kmh SW 2.0 mph3.2 kmh 29.87 in1011.5 mb 0.00 in0.0 mm 0.00 in0.0 mm 0.00 in0.0 mm
04:49 PM 52.0°F11.1°C 39.4°F4.1°C 62% 2.0 mph WSW3.2 kmh WSW 2.0 mph3.2 kmh 29.87 in1011.5 mb 0.00 in0.0 mm 0.00 in0.0 mm 0.00 in0.0 mm
04:50 PM 51.9°F11.1°C 39.3°F4.1°C 62% 2.0 mph WSW3.2 kmh WSW 3.0 mph4.8 kmh 29.86 in1011.2 mb 0.00 in0.0 mm 0.00 in0.0 mm 0.00 in0.0 mm
04:51 PM 51.8°F11.0°C 39.6°F4.2°C 63% 2.0 mph WSW3.2 kmh WSW 3.0 mph4.8 kmh 29.86 in1011.2 mb 0.00 in0.0 mm 0.00 in0.0 mm 0.00 in0.0 mm
04:52 PM 51.8°F11.0°C 39.6°F4.2°C 63% 2.0 mph WSW3.2 kmh WSW 2.0 mph3.2 kmh 29.86 in1011.2 mb 0.00 in0.0 mm 0.00 in0.0 mm 0.00 in0.0 mm
04:53 PM 51.7°F10.9°C 39.5°F4.2°C 63% 1.0 mph WSW1.6 kmh WSW 2.0 mph3.2 kmh 29.86 in1011.2 mb 0.00 in0.0 mm 0.00 in0.0 mm 0.00 in0.0 mm
04:54 PM 51.7°F10.9°C 39.1°F3.9°C 62% 0.1 mph SW0.2 kmh SW 1.0 mph1.6 kmh 29.86 in1011.2 mb 0.00 in0.0 mm 0.00 in0.0 mm 0.00 in0.0 mm
04:55 PM 51.6°F10.9°C 39.0°F3.9°C 62% 1.0 mph WSW1.6 kmh WSW 1.0 mph1.6 kmh 29.86 in1011.2 mb 0.00 in0.0 mm 0.00 in0.0 mm 0.00 in0.0 mm
04:56 PM 51.6°F10.9°C 39.0°F3.9°C 62% 1.0 mph WSW1.6 kmh WSW 2.0 mph3.2 kmh 29.86 in1011.2 mb 0.00 in0.0 mm 0.00 in0.0 mm 0.00 in0.0 mm
04:57 PM 51.5°F10.8°C 38.9°F3.8°C 62% 1.0 mph WSW1.6 kmh WSW 2.0 mph3.2 kmh 29.86 in1011.2 mb 0.00 in0.0 mm 0.00 in0.0 mm 0.00 in0.0 mm
04:58 PM 51.6°F10.9°C 39.0°F3.9°C 62% 2.0 mph WSW3.2 kmh WSW 3.0 mph4.8 kmh 29.86 in1011.2 mb 0.00 in0.0 mm 0.00 in0.0 mm 0.00 in0.0 mm
04:59 PM 51.6°F10.9°C 39.4°F4.1°C 63% 2.0 mph WSW3.2 kmh WSW 3.0 mph4.8 kmh 29.86 in1011.2 mb 0.00 in0.0 mm 0.00 in0.0 mm 0.00 in0.0 mm
05:00 PM 51.7°F10.9°C 39.5°F4.2°C 63% 3.0 mph WSW4.8 kmh WSW 5.0 mph8.0 kmh 29.86 in1011.2 mb 0.00 in0.0 mm 0.00 in0.0 mm 0.00 in0.0 mm
05:01 PM 51.7°F10.9°C 38.7°F3.7°C 61% 4.0 mph ENE6.4 kmh ENE 5.0 mph8.0 kmh 29.86 in1011.2 mb 0.00 in0.0 mm 0.00 in0.0 mm 0.00 in0.0 mm
05:02 PM 51.8°F11.0°C 38.8°F3.8°C 61% 4.2 mph NE6.8 kmh NE 5.0 mph8.0 kmh 29.86 in1011.2 mb 0.00 in0.0 mm 0.00 in0.0 mm 0.00 in0.0 mm
05:03 PM 51.9°F11.1°C 38.9°F3.8°C 61% 5.2 mph NE8.4 kmh NE 8.0 mph12.9 kmh 29.86 in1011.2 mb 0.00 in0.0 mm 0.00 in0.0 mm 0.00 in0.0 mm
05:04 PM 52.1°F11.2°C 39.5°F4.2°C 62% 6.0 mph ENE9.7 kmh ENE 8.0 mph12.9 kmh 29.86 in1011.2 mb 0.00 in0.0 mm 0.00 in0.0 mm 0.00 in0.0 mm
05:05 PM 52.3°F11.3°C 40.5°F4.7°C 64% 6.0 mph ENE9.7 kmh ENE 9.0 mph14.5 kmh 29.86 in1011.2 mb 0.00 in0.0 mm 0.00 in0.0 mm 0.00 in0.0 mm
05:06 PM 52.5°F11.4°C 41.1°F5.1°C 65% 8.4 mph E13.5 kmh E 10.0 mph16.1 kmh 29.86 in1011.2 mb 0.00 in0.0 mm 0.00 in0.0 mm 0.00 in0.0 mm
05:07 PM 52.8°F11.6°C 41.4°F5.2°C 65% 7.9 mph E12.7 kmh E 10.0 mph16.1 kmh 29.85 in1010.8 mb 0.00 in0.0 mm 0.00 in0.0 mm 0.00 in0.0 mm
05:08 PM 52.9°F11.6°C 41.5°F5.3°C 65% 9.0 mph E14.5 kmh E 11.0 mph17.7 kmh 29.85 in1010.8 mb 0.00 in0.0 mm 0.00 in0.0 mm 0.00 in0.0 mm
05:09 PM 53.1°F11.7°C 41.6°F5.3°C 65% 9.0 mph E14.5 kmh E 11.0 mph17.7 kmh 29.85 in1010.8 mb 0.00 in0.0 mm 0.00 in0.0 mm 0.00 in0.0 mm
05:10 PM 53.2°F11.8°C 41.7°F5.4°C 65% 9.1 mph E14.6 kmh E 11.0 mph17.7 kmh 29.85 in1010.8 mb 0.00 in0.0 mm 0.00 in0.0 mm 0.00 in0.0 mm
05:11 PM 53.3°F11.8°C 41.8°F5.4°C 65% 9.0 mph E14.5 kmh E 11.0 mph17.7 kmh 29.85 in1010.8 mb 0.00 in0.0 mm 0.00 in0.0 mm 0.00 in0.0 mm
05:12 PM 53.3°F11.8°C 41.8°F5.4°C 65% 8.0 mph E12.9 kmh E 10.0 mph16.1 kmh 29.85 in1010.8 mb 0.00 in0.0 mm 0.00 in0.0 mm 0.00 in0.0 mm
05:13 PM 53.4°F11.9°C 41.9°F5.5°C 65% 8.0 mph E12.9 kmh E 10.0 mph16.1 kmh 29.85 in1010.8 mb 0.00 in0.0 mm 0.00 in0.0 mm 0.00 in0.0 mm
05:14 PM 53.4°F11.9°C 41.9°F5.5°C 65% 9.0 mph E14.5 kmh E 11.0 mph17.7 kmh 29.84 in1010.5 mb 0.00 in0.0 mm 0.00 in0.0 mm 0.00 in0.0 mm
05:15 PM 53.4°F11.9°C 41.9°F5.5°C 65% 8.0 mph E12.9 kmh E 10.0 mph16.1 kmh 29.84 in1010.5 mb 0.00 in0.0 mm 0.00 in0.0 mm 0.00 in0.0 mm
05:16 PM 53.4°F11.9°C 41.9°F5.5°C 65% 9.0 mph E14.5 kmh E 11.0 mph17.7 kmh 29.84 in1010.5 mb 0.00 in0.0 mm 0.00 in0.0 mm 0.00 in0.0 mm
05:17 PM 53.4°F11.9°C 41.9°F5.5°C 65% 8.0 mph E12.9 kmh E 9.0 mph14.5 kmh 29.84 in1010.5 mb 0.00 in0.0 mm 0.00 in0.0 mm 0.00 in0.0 mm
05:18 PM 53.5°F11.9°C 42.0°F5.6°C 65% 9.9 mph E15.9 kmh E 11.0 mph17.7 kmh 29.84 in1010.5 mb 0.00 in0.0 mm 0.00 in0.0 mm 0.00 in0.0 mm
05:19 PM 53.4°F11.9°C 41.9°F5.5°C 65% 9.0 mph E14.5 kmh E 11.0 mph17.7 kmh 29.84 in1010.5 mb 0.00 in0.0 mm 0.00 in0.0 mm 0.00 in0.0 mm
05:20 PM 53.4°F11.9°C 41.9°F5.5°C 65% 8.0 mph ESE12.9 kmh ESE 10.0 mph16.1 kmh 29.84 in1010.5 mb 0.00 in0.0 mm 0.00 in0.0 mm 0.00 in0.0 mm
05:21 PM 53.4°F11.9°C 41.9°F5.5°C 65% 6.0 mph ESE9.7 kmh ESE 9.0 mph14.5 kmh 29.84 in1010.5 mb 0.00 in0.0 mm 0.00 in0.0 mm 0.00 in0.0 mm
05:22 PM 53.4°F11.9°C 42.3°F5.7°C 66% 9.0 mph ESE14.5 kmh ESE 11.0 mph17.7 kmh 29.84 in1010.5 mb 0.00 in0.0 mm 0.00 in0.0 mm 0.00 in0.0 mm
05:23 PM 53.4°F11.9°C 42.3°F5.7°C 66% 8.5 mph E13.7 kmh E 11.0 mph17.7 kmh 29.84 in1010.5 mb 0.00 in0.0 mm 0.00 in0.0 mm 0.00 in0.0 mm
05:24 PM 53.4°F11.9°C 41.9°F5.5°C 65% 9.0 mph E14.5 kmh E 12.0 mph19.3 kmh 29.84 in1010.5 mb 0.00 in0.0 mm 0.00 in0.0 mm 0.00 in0.0 mm
05:25 PM 53.3°F11.8°C 41.8°F5.4°C 65% 9.0 mph E14.5 kmh E 11.0 mph17.7 kmh 29.84 in1010.5 mb 0.00 in0.0 mm 0.00 in0.0 mm 0.00 in0.0 mm
05:26 PM 53.4°F11.9°C 41.9°F5.5°C 65% 10.0 mph E16.1 kmh E 12.0 mph19.3 kmh 29.84 in1010.5 mb 0.00 in0.0 mm 0.00 in0.0 mm 0.00 in0.0 mm
05:27 PM 53.4°F11.9°C 41.9°F5.5°C 65% 8.0 mph E12.9 kmh E 11.0 mph17.7 kmh 29.84 in1010.5 mb 0.00 in0.0 mm 0.00 in0.0 mm 0.00 in0.0 mm
05:28 PM 53.3°F11.8°C 41.8°F5.4°C 65% 9.3 mph E15.0 kmh E 11.0 mph17.7 kmh 29.84 in1010.5 mb 0.00 in0.0 mm 0.00 in0.0 mm 0.00 in0.0 mm
05:29 PM 53.3°F11.8°C 41.8°F5.4°C 65% 8.4 mph E13.5 kmh E 11.0 mph17.7 kmh 29.84 in1010.5 mb 0.00 in0.0 mm 0.00 in0.0 mm 0.00 in0.0 mm
05:30 PM 53.3°F11.8°C 41.8°F5.4°C 65% 10.4 mph E16.7 kmh E 13.0 mph20.9 kmh 29.83 in1010.2 mb 0.00 in0.0 mm 0.00 in0.0 mm 0.00 in0.0 mm
05:31 PM 53.3°F11.8°C 41.8°F5.4°C 65% 10.2 mph E16.4 kmh E 13.0 mph20.9 kmh 29.83 in1010.2 mb 0.00 in0.0 mm 0.00 in0.0 mm 0.00 in0.0 mm
05:32 PM 53.3°F11.8°C 41.8°F5.4°C 65% 7.9 mph E12.7 kmh E 13.0 mph20.9 kmh 29.83 in1010.2 mb 0.00 in0.0 mm 0.00 in0.0 mm 0.00 in0.0 mm
05:33 PM 53.3°F11.8°C 41.8°F5.4°C 65% 9.0 mph E14.5 kmh E 12.0 mph19.3 kmh 29.83 in1010.2 mb 0.00 in0.0 mm 0.00 in0.0 mm 0.00 in0.0 mm
05:34 PM 53.3°F11.8°C 41.8°F5.4°C 65% 7.0 mph E11.3 kmh E 10.0 mph16.1 kmh 29.83 in1010.2 mb 0.00 in0.0 mm 0.00 in0.0 mm 0.00 in0.0 mm
05:35 PM 53.4°F11.9°C 41.9°F5.5°C 65% 6.4 mph E10.3 kmh E 9.0 mph14.5 kmh 29.83 in1010.2 mb 0.00 in0.0 mm 0.00 in0.0 mm 0.00 in0.0 mm
05:36 PM 53.4°F11.9°C 41.9°F5.5°C 65% 9.2 mph E14.8 kmh E 12.0 mph19.3 kmh 29.84 in1010.5 mb 0.00 in0.0 mm 0.00 in0.0 mm 0.00 in0.0 mm
05:37 PM 53.4°F11.9°C 41.9°F5.5°C 65% 9.0 mph E14.5 kmh E 11.0 mph17.7 kmh 29.83 in1010.2 mb 0.00 in0.0 mm 0.00 in0.0 mm 0.00 in0.0 mm
05:38 PM 53.3°F11.8°C 41.8°F5.4°C 65% 7.0 mph ESE11.3 kmh ESE 10.0 mph16.1 kmh 29.84 in1010.5 mb 0.00 in0.0 mm 0.00 in0.0 mm 0.00 in0.0 mm
05:39 PM 53.4°F11.9°C 41.9°F5.5°C 65% 9.0 mph ESE14.5 kmh ESE 11.0 mph17.7 kmh 29.84 in1010.5 mb 0.00 in0.0 mm 0.00 in0.0 mm 0.00 in0.0 mm
05:40 PM 53.4°F11.9°C 41.9°F5.5°C 65% 10.0 mph ESE16.1 kmh ESE 13.0 mph20.9 kmh 29.84 in1010.5 mb 0.00 in0.0 mm 0.00 in0.0 mm 0.00 in0.0 mm
05:41 PM 53.4°F11.9°C 41.9°F5.5°C 65% 7.3 mph ESE11.7 kmh ESE 9.0 mph14.5 kmh 29.84 in1010.5 mb 0.00 in0.0 mm 0.00 in0.0 mm 0.00 in0.0 mm
05:42 PM 53.4°F11.9°C 41.9°F5.5°C 65% 8.5 mph ESE13.7 kmh ESE 13.0 mph20.9 kmh 29.83 in1010.2 mb 0.00 in0.0 mm 0.00 in0.0 mm 0.00 in0.0 mm
05:43 PM 53.4°F11.9°C 41.9°F5.5°C 65% 9.4 mph E15.1 kmh E 13.0 mph20.9 kmh 29.83 in1010.2 mb 0.00 in0.0 mm 0.00 in0.0 mm 0.00 in0.0 mm
05:44 PM 53.4°F11.9°C 41.9°F5.5°C 65% 8.2 mph ESE13.2 kmh ESE 13.0 mph20.9 kmh 29.83 in1010.2 mb 0.00 in0.0 mm 0.00 in0.0 mm 0.00 in0.0 mm
05:45 PM 53.3°F11.8°C 41.8°F5.4°C 65% 7.5 mph E12.1 kmh E 11.0 mph17.7 kmh 29.84 in1010.5 mb 0.00 in0.0 mm 0.00 in0.0 mm 0.00 in0.0 mm
05:46 PM 53.3°F11.8°C 41.8°F5.4°C 65% 6.5 mph E10.5 kmh E 11.0 mph17.7 kmh 29.84 in1010.5 mb 0.00 in0.0 mm 0.00 in0.0 mm 0.00 in0.0 mm
05:47 PM 53.3°F11.8°C 41.8°F5.4°C 65% 6.1 mph E9.8 kmh E 9.0 mph14.5 kmh 29.84 in1010.5 mb 0.00 in0.0 mm 0.00 in0.0 mm 0.00 in0.0 mm
05:48 PM 53.3°F11.8°C 41.8°F5.4°C 65% 8.0 mph E12.9 kmh E 11.0 mph17.7 kmh 29.84 in1010.5 mb 0.00 in0.0 mm 0.00 in0.0 mm 0.00 in0.0 mm
05:49 PM 53.3°F11.8°C 41.8°F5.4°C 65% 7.0 mph E11.3 kmh E 9.0 mph14.5 kmh 29.84 in1010.5 mb 0.00 in0.0 mm 0.00 in0.0 mm 0.00 in0.0 mm
05:50 PM 53.3°F11.8°C 41.8°F5.4°C 65% 7.7 mph ESE12.4 kmh ESE 10.0 mph16.1 kmh 29.84 in1010.5 mb 0.00 in0.0 mm 0.00 in0.0 mm 0.00 in0.0 mm
05:51 PM 53.3°F11.8°C 41.8°F5.4°C 65% 7.0 mph ESE11.3 kmh ESE 12.0 mph19.3 kmh 29.84 in1010.5 mb 0.00 in0.0 mm 0.00 in0.0 mm 0.00 in0.0 mm
05:52 PM 53.3°F11.8°C 41.8°F5.4°C 65% 8.0 mph ESE12.9 kmh ESE 10.0 mph16.1 kmh 29.84 in1010.5 mb 0.00 in0.0 mm 0.00 in0.0 mm 0.00 in0.0 mm
05:53 PM 53.3°F11.8°C 41.8°F5.4°C 65% 7.0 mph ESE11.3 kmh ESE 10.0 mph16.1 kmh 29.83 in1010.2 mb 0.00 in0.0 mm 0.00 in0.0 mm 0.00 in0.0 mm
05:54 PM 53.3°F11.8°C 41.8°F5.4°C 65% 9.0 mph ESE14.5 kmh ESE 13.0 mph20.9 kmh 29.83 in1010.2 mb 0.00 in0.0 mm 0.00 in0.0 mm 0.00 in0.0 mm
05:55 PM 53.2°F11.8°C 41.7°F5.4°C 65% 9.0 mph ESE14.5 kmh ESE 11.0 mph17.7 kmh 29.83 in1010.2 mb 0.00 in0.0 mm 0.00 in0.0 mm 0.00 in0.0 mm
05:56 PM 53.2°F11.8°C 41.7°F5.4°C 65% 10.5 mph ESE16.9 kmh ESE 12.0 mph19.3 kmh 29.83 in1010.2 mb 0.00 in0.0 mm 0.00 in0.0 mm 0.00 in0.0 mm
05:57 PM 53.2°F11.8°C 41.7°F5.4°C 65% 9.0 mph ESE14.5 kmh ESE 11.0 mph17.7 kmh 29.83 in1010.2 mb 0.00 in0.0 mm 0.00 in0.0 mm 0.00 in0.0 mm
05:58 PM 53.2°F11.8°C 41.7°F5.4°C 65% 10.0 mph ESE16.1 kmh ESE 15.0 mph24.1 kmh 29.83 in1010.2 mb 0.00 in0.0 mm 0.00 in0.0 mm 0.00 in0.0 mm
05:59 PM 53.1°F11.7°C 41.6°F5.3°C 65% 9.0 mph E14.5 kmh E 12.0 mph19.3 kmh 29.83 in1010.2 mb 0.00 in0.0 mm 0.00 in0.0 mm 0.00 in0.0 mm
06:00 PM 53.1°F11.7°C 41.6°F5.3°C 65% 10.0 mph ESE16.1 kmh ESE 14.0 mph22.5 kmh 29.83 in1010.2 mb 0.00 in0.0 mm 0.00 in0.0 mm 0.00 in0.0 mm
06:01 PM 53.1°F11.7°C 41.6°F5.3°C 65% 10.0 mph ESE16.1 kmh ESE 13.0 mph20.9 kmh 29.83 in1010.2 mb 0.00 in0.0 mm 0.00 in0.0 mm 0.00 in0.0 mm
06:02 PM 53.1°F11.7°C 41.6°F5.3°C 65% 9.3 mph E15.0 kmh E 10.0 mph16.1 kmh 29.83 in1010.2 mb 0.00 in0.0 mm 0.00 in0.0 mm 0.00 in0.0 mm
06:03 PM 53.0°F11.7°C 41.6°F5.3°C 65% 7.0 mph ESE11.3 kmh ESE 9.0 mph14.5 kmh 29.83 in1010.2 mb 0.00 in0.0 mm 0.00 in0.0 mm 0.00 in0.0 mm
06:04 PM 53.0°F11.7°C 41.9°F5.5°C 66% 9.0 mph ESE14.5 kmh ESE 13.0 mph20.9 kmh 29.83 in1010.2 mb 0.00 in0.0 mm 0.00 in0.0 mm 0.00 in0.0 mm
06:05 PM 53.0°F11.7°C 41.6°F5.3°C 65% 7.0 mph ESE11.3 kmh ESE 9.0 mph14.5 kmh 29.83 in1010.2 mb 0.00 in0.0 mm 0.00 in0.0 mm 0.00 in0.0 mm
06:06 PM 53.0°F11.7°C 41.9°F5.5°C 66% 9.0 mph ESE14.5 kmh ESE 11.0 mph17.7 kmh 29.83 in1010.2 mb 0.00 in0.0 mm 0.00 in0.0 mm 0.00 in0.0 mm
06:07 PM 53.0°F11.7°C 41.6°F5.3°C 65% 9.0 mph ESE14.5 kmh ESE 13.0 mph20.9 kmh 29.83 in1010.2 mb 0.00 in0.0 mm 0.00 in0.0 mm 0.00 in0.0 mm
06:08 PM 52.9°F11.6°C 41.9°F5.5°C 66% 6.0 mph ESE9.7 kmh ESE 9.0 mph14.5 kmh 29.83 in1010.2 mb 0.00 in0.0 mm 0.00 in0.0 mm 0.00 in0.0 mm
06:09 PM 52.9°F11.6°C 41.9°F5.5°C 66% 8.0 mph ESE12.9 kmh ESE 10.0 mph16.1 kmh 29.83 in1010.2 mb 0.00 in0.0 mm 0.00 in0.0 mm 0.00 in0.0 mm
06:10 PM 52.9°F11.6°C 41.5°F5.3°C 65% 7.0 mph ESE11.3 kmh ESE 11.0 mph17.7 kmh 29.83 in1010.2 mb 0.00 in0.0 mm 0.00 in0.0 mm 0.00 in0.0 mm
06:11 PM 52.9°F11.6°C 41.5°F5.3°C 65% 5.2 mph E8.4 kmh E 9.0 mph14.5 kmh 29.84 in1010.5 mb 0.00 in0.0 mm 0.00 in0.0 mm 0.00 in0.0 mm
06:12 PM 52.9°F11.6°C 41.5°F5.3°C 65% 5.0 mph ESE8.0 kmh ESE 8.0 mph12.9 kmh 29.84 in1010.5 mb 0.00 in0.0 mm 0.00 in0.0 mm 0.00 in0.0 mm
06:13 PM 52.8°F11.6°C 41.4°F5.2°C 65% 5.0 mph E8.0 kmh E 7.0 mph11.3 kmh 29.84 in1010.5 mb 0.00 in0.0 mm 0.00 in0.0 mm 0.00 in0.0 mm
06:14 PM 52.8°F11.6°C 41.4°F5.2°C 65% 3.4 mph E5.5 kmh E 4.0 mph6.4 kmh 29.84 in1010.5 mb 0.00 in0.0 mm 0.00 in0.0 mm 0.00 in0.0 mm
06:15 PM 52.9°F11.6°C 41.5°F5.3°C 65% 3.7 mph E6.0 kmh E 7.0 mph11.3 kmh 29.84 in1010.5 mb 0.00 in0.0 mm 0.00 in0.0 mm 0.00 in0.0 mm
06:16 PM 52.8°F11.6°C 41.4°F5.2°C 65% 4.4 mph E7.1 kmh E 7.0 mph11.3 kmh 29.84 in1010.5 mb 0.00 in0.0 mm 0.00 in0.0 mm 0.00 in0.0 mm
06:17 PM 52.8°F11.6°C 41.4°F5.2°C 65% 4.8 mph ESE7.7 kmh ESE 8.0 mph12.9 kmh 29.84 in1010.5 mb 0.00 in0.0 mm 0.00 in0.0 mm 0.00 in0.0 mm
06:18 PM 52.8°F11.6°C 41.4°F5.2°C 65% 4.0 mph E6.4 kmh E 8.0 mph12.9 kmh 29.84 in1010.5 mb 0.00 in0.0 mm 0.00 in0.0 mm 0.00 in0.0 mm
06:19 PM 52.8°F11.6°C 41.8°F5.4°C 66% 4.0 mph E6.4 kmh E 8.0 mph12.9 kmh 29.84 in1010.5 mb 0.00 in0.0 mm 0.00 in0.0 mm 0.00 in0.0 mm
06:20 PM 52.8°F11.6°C 41.4°F5.2°C 65% 4.7 mph ESE7.6 kmh ESE 7.0 mph11.3 kmh 29.85 in1010.8 mb 0.00 in0.0 mm 0.00 in0.0 mm 0.00 in0.0 mm
06:21 PM 52.8°F11.6°C 41.8°F5.4°C 66% 3.8 mph ESE6.1 kmh ESE 7.0 mph11.3 kmh 29.84 in1010.5 mb 0.00 in0.0 mm 0.00 in0.0 mm 0.00 in0.0 mm
06:22 PM 52.8°F11.6°C 41.8°F5.4°C 66% 5.0 mph ESE8.0 kmh ESE 7.0 mph11.3 kmh 29.84 in1010.5 mb 0.00 in0.0 mm 0.00 in0.0 mm 0.00 in0.0 mm
06:23 PM 52.7°F11.5°C 41.7°F5.4°C 66% 5.0 mph ESE8.0 kmh ESE 7.0 mph11.3 kmh 29.84 in1010.5 mb 0.00 in0.0 mm 0.00 in0.0 mm 0.00 in0.0 mm
06:24 PM 52.7°F11.5°C 41.7°F5.4°C 66% 6.0 mph ESE9.7 kmh ESE 8.0 mph12.9 kmh 29.84 in1010.5 mb 0.00 in0.0 mm 0.00 in0.0 mm 0.00 in0.0 mm
06:25 PM 52.6°F11.4°C 41.6°F5.3°C 66% 5.6 mph ESE9.0 kmh ESE 8.0 mph12.9 kmh 29.85 in1010.8 mb 0.00 in0.0 mm 0.00 in0.0 mm 0.00 in0.0 mm
06:26 PM 52.6°F11.4°C 41.6°F5.3°C 66% 4.9 mph ESE7.9 kmh ESE 8.0 mph12.9 kmh 29.85 in1010.8 mb 0.00 in0.0 mm 0.00 in0.0 mm 0.00 in0.0 mm
06:27 PM 52.6°F11.4°C 41.6°F5.3°C 66% 4.8 mph ESE7.7 kmh ESE 7.0 mph11.3 kmh 29.85 in1010.8 mb 0.00 in0.0 mm 0.00 in0.0 mm 0.00 in0.0 mm
06:28 PM 52.5°F11.4°C 41.5°F5.3°C 66% 4.0 mph ESE6.4 kmh ESE 7.0 mph11.3 kmh 29.85 in1010.8 mb 0.00 in0.0 mm 0.00 in0.0 mm 0.00 in0.0 mm
06:29 PM 52.5°F11.4°C 41.5°F5.3°C 66% 5.0 mph ESE8.0 kmh ESE 8.0 mph12.9 kmh 29.85 in1010.8 mb 0.00 in0.0 mm 0.00 in0.0 mm 0.00 in0.0 mm
06:30 PM 52.5°F11.4°C 41.5°F5.3°C 66% 5.0 mph ESE8.0 kmh ESE 7.0 mph11.3 kmh 29.85 in1010.8 mb 0.00 in0.0 mm 0.00 in0.0 mm 0.00 in0.0 mm
06:31 PM 52.5°F11.4°C 41.5°F5.3°C 66% 6.0 mph ESE9.7 kmh ESE 9.0 mph14.5 kmh 29.85 in1010.8 mb 0.00 in0.0 mm 0.00 in0.0 mm 0.00 in0.0 mm
06:32 PM 52.4°F11.3°C 41.4°F5.2°C 66% 6.0 mph ESE9.7 kmh ESE 7.0 mph11.3 kmh 29.85 in1010.8 mb 0.00 in0.0 mm 0.00 in0.0 mm 0.00 in0.0 mm
06:33 PM 52.4°F11.3°C 41.4°F5.2°C 66% 5.0 mph ESE8.0 kmh ESE 7.0 mph11.3 kmh 29.85 in1010.8 mb 0.00 in0.0 mm 0.00 in0.0 mm 0.00 in0.0 mm
06:34 PM 52.3°F11.3°C 41.3°F5.2°C 66% 6.0 mph ESE9.7 kmh ESE 9.0 mph14.5 kmh 29.85 in1010.8 mb 0.00 in0.0 mm 0.00 in0.0 mm 0.00 in0.0 mm
06:35 PM 52.3°F11.3°C 41.3°F5.2°C 66% 7.0 mph ESE11.3 kmh ESE 8.0 mph12.9 kmh 29.85 in1010.8 mb 0.00 in0.0 mm 0.00 in0.0 mm 0.00 in0.0 mm
06:36 PM 52.2°F11.2°C 41.2°F5.1°C 66% 8.0 mph ESE12.9 kmh ESE 9.0 mph14.5 kmh 29.84 in1010.5 mb 0.00 in0.0 mm 0.00 in0.0 mm 0.00 in0.0 mm
06:37 PM 52.2°F11.2°C 41.2°F5.1°C 66% 8.0 mph ESE12.9 kmh ESE 10.0 mph16.1 kmh 29.84 in1010.5 mb 0.00 in0.0 mm 0.00 in0.0 mm 0.00 in0.0 mm
06:38 PM 52.1°F11.2°C 41.1°F5.1°C 66% 7.0 mph ESE11.3 kmh ESE 9.0 mph14.5 kmh 29.84 in1010.5 mb 0.00 in0.0 mm 0.00 in0.0 mm 0.00 in0.0 mm
06:39 PM 52.0°F11.1°C 41.0°F5.0°C 66% 7.9 mph ESE12.7 kmh ESE 11.0 mph17.7 kmh 29.84 in1010.5 mb 0.00 in0.0 mm 0.00 in0.0 mm 0.00 in0.0 mm
06:40 PM 52.0°F11.1°C 41.0°F5.0°C 66% 9.7 mph ESE15.6 kmh ESE 13.0 mph20.9 kmh 29.84 in1010.5 mb 0.00 in0.0 mm 0.00 in0.0 mm 0.00 in0.0 mm
06:41 PM 51.9°F11.1°C 40.9°F4.9°C 66% 9.0 mph ESE14.5 kmh ESE 11.0 mph17.7 kmh 29.84 in1010.5 mb 0.00 in0.0 mm 0.00 in0.0 mm 0.00 in0.0 mm
06:42 PM 51.8°F11.0°C 40.8°F4.9°C 66% 5.0 mph ESE8.0 kmh ESE 8.0 mph12.9 kmh 29.84 in1010.5 mb 0.00 in0.0 mm 0.00 in0.0 mm 0.00 in0.0 mm
06:43 PM 51.8°F11.0°C 40.8°F4.9°C 66% 3.6 mph ESE5.8 kmh ESE 4.0 mph6.4 kmh 29.84 in1010.5 mb 0.00 in0.0 mm 0.00 in0.0 mm 0.00 in0.0 mm
06:44 PM 51.7°F10.9°C 40.7°F4.8°C 66% 7.0 mph ESE11.3 kmh ESE 10.0 mph16.1 kmh 29.84 in1010.5 mb 0.00 in0.0 mm 0.00 in0.0 mm 0.00 in0.0 mm
06:45 PM 51.7°F10.9°C 40.7°F4.8°C 66% 7.0 mph ESE11.3 kmh ESE 10.0 mph16.1 kmh 29.84 in1010.5 mb 0.00 in0.0 mm 0.00 in0.0 mm 0.00 in0.0 mm
06:46 PM 51.7°F10.9°C 40.7°F4.8°C 66% 7.0 mph E11.3 kmh E 10.0 mph16.1 kmh 29.84 in1010.5 mb 0.00 in0.0 mm 0.00 in0.0 mm 0.00 in0.0 mm
06:47 PM 51.6°F10.9°C 40.6°F4.8°C 66% 6.0 mph E9.7 kmh E 8.0 mph12.9 kmh 29.84 in1010.5 mb 0.00 in0.0 mm 0.00 in0.0 mm 0.00 in0.0 mm
06:48 PM 51.5°F10.8°C 40.5°F4.7°C 66% 7.2 mph ESE11.6 kmh ESE 8.0 mph12.9 kmh 29.84 in1010.5 mb 0.00 in0.0 mm 0.00 in0.0 mm 0.00 in0.0 mm
06:49 PM 51.5°F10.8°C 40.9°F4.9°C 67% 5.7 mph E9.2 kmh E 9.0 mph14.5 kmh 29.84 in1010.5 mb 0.00 in0.0 mm 0.00 in0.0 mm 0.00 in0.0 mm
06:50 PM 51.5°F10.8°C 40.9°F4.9°C 67% 3.8 mph E6.1 kmh E 9.0 mph14.5 kmh 29.84 in1010.5 mb 0.00 in0.0 mm 0.00 in0.0 mm 0.00 in0.0 mm
06:51 PM 51.4°F10.8°C 40.8°F4.9°C 67% 5.5 mph E8.9 kmh E 8.0 mph12.9 kmh 29.84 in1010.5 mb 0.00 in0.0 mm 0.00 in0.0 mm 0.00 in0.0 mm
06:52 PM 51.4°F10.8°C 40.8°F4.9°C 67% 5.0 mph ESE8.0 kmh ESE 6.0 mph9.7 kmh 29.84 in1010.5 mb 0.00 in0.0 mm 0.00 in0.0 mm 0.00 in0.0 mm
06:53 PM 51.4°F10.8°C 40.8°F4.9°C 67% 5.0 mph ESE8.0 kmh ESE 7.0 mph11.3 kmh 29.85 in1010.8 mb 0.00 in0.0 mm 0.00 in0.0 mm 0.00 in0.0 mm
06:54 PM 51.4°F10.8°C 40.8°F4.9°C 67% 5.0 mph ESE8.0 kmh ESE 6.0 mph9.7 kmh 29.85 in1010.8 mb 0.00 in0.0 mm 0.00 in0.0 mm 0.00 in0.0 mm
06:55 PM 51.3°F10.7°C 40.7°F4.8°C 67% 6.2 mph E10.0 kmh E 8.0 mph12.9 kmh 29.84 in1010.5 mb 0.00 in0.0 mm 0.00 in0.0 mm 0.00 in0.0 mm
06:56 PM 51.3°F10.7°C 40.7°F4.8°C 67% 4.5 mph E7.2 kmh E 8.0 mph12.9 kmh 29.84 in1010.5 mb 0.00 in0.0 mm 0.00 in0.0 mm 0.00 in0.0 mm
06:57 PM 51.2°F10.7°C 40.6°F4.8°C 67% 6.0 mph ESE9.7 kmh ESE 8.0 mph12.9 kmh 29.84 in1010.5 mb 0.00 in0.0 mm 0.00 in0.0 mm 0.00 in0.0 mm
06:58 PM 51.2°F10.7°C 40.6°F4.8°C 67% 7.0 mph ESE11.3 kmh ESE 9.0 mph14.5 kmh 29.84 in1010.5 mb 0.00 in0.0 mm 0.00 in0.0 mm 0.00 in0.0 mm
06:59 PM 51.1°F10.6°C 40.5°F4.7°C 67% 5.4 mph SE8.7 kmh SE 7.0 mph11.3 kmh 29.84 in1010.5 mb 0.00 in0.0 mm 0.00 in0.0 mm 0.00 in0.0 mm
07:00 PM 51.1°F10.6°C 40.9°F4.9°C 68% 7.2 mph ESE11.6 kmh ESE 9.0 mph14.5 kmh 29.84 in1010.5 mb 0.00 in0.0 mm 0.00 in0.0 mm 0.00 in0.0 mm
07:01 PM 51.1°F10.6°C 40.9°F4.9°C 68% 5.4 mph ESE8.7 kmh ESE 9.0 mph14.5 kmh 29.84 in1010.5 mb 0.00 in0.0 mm 0.00 in0.0 mm 0.00 in0.0 mm
07:02 PM 51.1°F10.6°C 40.9°F4.9°C 68% 6.0 mph ESE9.7 kmh ESE 8.0 mph12.9 kmh 29.84 in1010.5 mb 0.00 in0.0 mm 0.00 in0.0 mm 0.00 in0.0 mm
07:03 PM 51.1°F10.6°C 40.9°F4.9°C 68% 4.0 mph ESE6.4 kmh ESE 7.0 mph11.3 kmh 29.84 in1010.5 mb 0.00 in0.0 mm 0.00 in0.0 mm 0.00 in0.0 mm
07:04 PM 51.0°F10.6°C 40.8°F4.9°C 68% 4.9 mph E7.9 kmh E 7.0 mph11.3 kmh 29.84 in1010.5 mb 0.00 in0.0 mm 0.00 in0.0 mm 0.00 in0.0 mm
07:05 PM 51.0°F10.6°C 40.8°F4.9°C 68% 4.0 mph E6.4 kmh E 7.0 mph11.3 kmh 29.84 in1010.5 mb 0.00 in0.0 mm 0.00 in0.0 mm 0.00 in0.0 mm
07:06 PM 51.0°F10.6°C 40.8°F4.9°C 68% 4.0 mph E6.4 kmh E 6.0 mph9.7 kmh 29.84 in1010.5 mb 0.00 in0.0 mm 0.00 in0.0 mm 0.00 in0.0 mm
07:07 PM 50.9°F10.5°C 40.7°F4.8°C 68% 4.2 mph E6.8 kmh E 7.0 mph11.3 kmh 29.84 in1010.5 mb 0.00 in0.0 mm 0.00 in0.0 mm 0.00 in0.0 mm
07:08 PM 50.9°F10.5°C 40.7°F4.8°C 68% 4.2 mph E6.8 kmh E 7.0 mph11.3 kmh 29.84 in1010.5 mb 0.00 in0.0 mm 0.00 in0.0 mm 0.00 in0.0 mm
07:09 PM 50.9°F10.5°C 40.7°F4.8°C 68% 4.0 mph E6.4 kmh E 5.0 mph8.0 kmh 29.84 in1010.5 mb 0.00 in0.0 mm 0.00 in0.0 mm 0.00 in0.0 mm
07:10 PM 50.9°F10.5°C 40.7°F4.8°C 68% 4.0 mph E6.4 kmh E 7.0 mph11.3 kmh 29.84 in1010.5 mb 0.00 in0.0 mm 0.00 in0.0 mm 0.00 in0.0 mm
07:11 PM 50.8°F10.4°C 40.6°F4.8°C 68% 5.2 mph E8.4 kmh E 7.0 mph11.3 kmh 29.84 in1010.5 mb 0.00 in0.0 mm 0.00 in0.0 mm 0.00 in0.0 mm
07:12 PM 50.8°F10.4°C 40.6°F4.8°C 68% 4.0 mph ESE6.4 kmh ESE 7.0 mph11.3 kmh 29.84 in1010.5 mb 0.00 in0.0 mm 0.00 in0.0 mm 0.00 in0.0 mm
07:13 PM 50.7°F10.4°C 40.5°F4.7°C 68% 6.0 mph ESE9.7 kmh ESE 8.0 mph12.9 kmh 29.84 in1010.5 mb 0.00 in0.0 mm 0.00 in0.0 mm 0.00 in0.0 mm
07:14 PM 50.7°F10.4°C 40.5°F4.7°C 68% 4.0 mph E6.4 kmh E 7.0 mph11.3 kmh 29.84 in1010.5 mb 0.00 in0.0 mm 0.00 in0.0 mm 0.00 in0.0 mm
07:15 PM 50.7°F10.4°C 40.5°F4.7°C 68% 5.0 mph ESE8.0 kmh ESE 7.0 mph11.3 kmh 29.84 in1010.5 mb 0.00 in0.0 mm 0.00 in0.0 mm 0.00 in0.0 mm
07:16 PM 50.6°F10.3°C 40.4°F4.7°C 68% 6.0 mph ESE9.7 kmh ESE 8.0 mph12.9 kmh 29.84 in1010.5 mb 0.00 in0.0 mm 0.00 in0.0 mm 0.00 in0.0 mm
07:17 PM 50.6°F10.3°C 40.4°F4.7°C 68% 7.0 mph ESE11.3 kmh ESE 9.0 mph14.5 kmh 29.84 in1010.5 mb 0.00 in0.0 mm 0.00 in0.0 mm 0.00 in0.0 mm
07:18 PM 50.6°F10.3°C 40.4°F4.7°C 68% 7.0 mph ESE11.3 kmh ESE 9.0 mph14.5 kmh 29.84 in1010.5 mb 0.00 in0.0 mm 0.00 in0.0 mm 0.00 in0.0 mm
07:19 PM 50.5°F10.3°C 40.3°F4.6°C 68% 8.0 mph ESE12.9 kmh ESE 10.0 mph16.1 kmh 29.84 in1010.5 mb 0.00 in0.0 mm 0.00 in0.0 mm 0.00 in0.0 mm
07:20 PM 50.6°F10.3°C 40.4°F4.7°C 68% 7.0 mph ESE11.3 kmh ESE 9.0 mph14.5 kmh 29.84 in1010.5 mb 0.00 in0.0 mm 0.00 in0.0 mm 0.00 in0.0 mm
07:21 PM 50.5°F10.3°C 40.3°F4.6°C 68% 5.0 mph ESE8.0 kmh ESE 8.0 mph12.9 kmh 29.84 in1010.5 mb 0.00 in0.0 mm 0.00 in0.0 mm 0.00 in0.0 mm
07:22 PM 50.5°F10.3°C 40.3°F4.6°C 68% 4.9 mph ESE7.9 kmh ESE 6.0 mph9.7 kmh 29.84 in1010.5 mb 0.00 in0.0 mm 0.00 in0.0 mm 0.00 in0.0 mm
07:23 PM 50.5°F10.3°C 40.3°F4.6°C 68% 8.0 mph ESE12.9 kmh ESE 10.0 mph16.1 kmh 29.84 in1010.5 mb 0.00 in0.0 mm 0.00 in0.0 mm 0.00 in0.0 mm
07:24 PM 50.5°F10.3°C 40.0°F4.4°C 67% 5.0 mph ESE8.0 kmh ESE 7.0 mph11.3 kmh 29.84 in1010.5 mb 0.00 in0.0 mm 0.00 in0.0 mm 0.00 in0.0 mm
07:25 PM 50.6°F10.3°C 40.1°F4.5°C 67% 4.8 mph ESE7.7 kmh ESE 6.0 mph9.7 kmh 29.84 in1010.5 mb 0.00 in0.0 mm 0.00 in0.0 mm 0.00 in0.0 mm
07:26 PM 50.6°F10.3°C 40.1°F4.5°C 67% 5.7 mph ESE9.2 kmh ESE 9.0 mph14.5 kmh 29.84 in1010.5 mb 0.00 in0.0 mm 0.00 in0.0 mm 0.00 in0.0 mm
07:27 PM 50.5°F10.3°C 40.0°F4.4°C 67% 4.0 mph ESE6.4 kmh ESE 7.0 mph11.3 kmh 29.85 in1010.8 mb 0.00 in0.0 mm 0.00 in0.0 mm 0.00 in0.0 mm
07:28 PM 50.6°F10.3°C 40.1°F4.5°C 67% 6.0 mph ESE9.7 kmh ESE 8.0 mph12.9 kmh 29.85 in1010.8 mb 0.00 in0.0 mm 0.00 in0.0 mm 0.00 in0.0 mm
07:29 PM 50.5°F10.3°C 40.0°F4.4°C 67% 6.0 mph ESE9.7 kmh ESE 9.0 mph14.5 kmh 29.84 in1010.5 mb 0.00 in0.0 mm 0.00 in0.0 mm 0.00 in0.0 mm
07:30 PM 50.5°F10.3°C 40.0°F4.4°C 67% 7.0 mph ESE11.3 kmh ESE 9.0 mph14.5 kmh 29.85 in1010.8 mb 0.00 in0.0 mm 0.00 in0.0 mm 0.00 in0.0 mm
07:31 PM 50.5°F10.3°C 40.0°F4.4°C 67% 6.0 mph ESE9.7 kmh ESE 7.0 mph11.3 kmh 29.84 in1010.5 mb 0.00 in0.0 mm 0.00 in0.0 mm 0.00 in0.0 mm
07:32 PM 50.5°F10.3°C 40.0°F4.4°C 67% 6.0 mph ESE9.7 kmh ESE 8.0 mph12.9 kmh 29.84 in1010.5 mb 0.00 in0.0 mm 0.00 in0.0 mm 0.00 in0.0 mm
07:33 PM 50.4°F10.2°C 39.9°F4.4°C 67% 4.0 mph ESE6.4 kmh ESE 4.0 mph6.4 kmh 29.85 in1010.8 mb 0.00 in0.0 mm 0.00 in0.0 mm 0.00 in0.0 mm
07:34 PM 50.4°F10.2°C 40.2°F4.6°C 68% 3.0 mph ESE4.8 kmh ESE 4.0 mph6.4 kmh 29.85 in1010.8 mb 0.00 in0.0 mm 0.00 in0.0 mm 0.00 in0.0 mm
07:35 PM